Darstellungsparameter: Aktuell verwendete Einstellungen:
Skalierung der Graphiken ... ?
xyx+y,   Skalierungsfaktor:      Skalierung: Modus: x, Faktor: 1
Darstellungszeitraum ... ?
Vom - - bis: - -   Zeitraum: 24.07.2010 - 23.08.2010
Min/Max/Avg-Anzeige ... ?
Zeige MMA aktuell
Zeige MMA Monat
Zeige MMA alles
Zeige --A aktuell
Zeige --A Monat
Zeige --A alles
Keine MMA-Anzeige
MMA:
Average (ber die Originaldaten)
MMA-Basis: 24.07.2010 - 23.08.2010
Quicknavigation für Darstellung... ?
Tage:      1T, 2T, 3T, 5T -1T -2T -3T -5T +1T +2T +3T +5T
Wochen: 1W, 2W, 3W -1W -2W -3W +1W +2W +3W
Monate: 1M, 3M, 6M -1M -3M -6M +1M +3M +6M
Jahre:    1J, 3J, 5J, 10J -1J -3J -5J -10J +1J +3J +5J +10J
Nutze für die Darstellung ... ?
Originaldaten oder Mittelwerte auf ...
Stundenbasis Tagesbasis Wochenbasis
Monatsbasis Jahresbasis      Datenbasis: Original-Daten
Darstellen als:
Statistik (Auto) Statistik J:M      Darstellung:
Zur Graphik,    zurück zur Übersicht aller Sensoren.
 
Tabellarische Datenbersicht: ?
 
Sensor: Nr:Datum:Temp:Abs-Feuchte:Windchill:Wind:
Aussen-T/F 1 24-07-2010 00:00:02 15 C 12.05 g/m*3 15 C 0 km/h
2 24-07-2010 00:12:02 15 C 12.05 g/m*3 15 C 0 km/h
3 24-07-2010 00:24:02 15 C 12.05 g/m*3 15 C 0 km/h
4 24-07-2010 00:36:02 15 C 12.05 g/m*3 15 C 0 km/h
5 24-07-2010 00:48:03 15.1 C 12.13 g/m*3 15.1 C 0 km/h
6 24-07-2010 01:00:03 15 C 12.05 g/m*3 15 C 0 km/h
7 24-07-2010 01:12:03 15 C 12.05 g/m*3 15 C 0 km/h
8 24-07-2010 01:24:03 15.2 C 12.2 g/m*3 15.2 C 0 km/h
9 24-07-2010 01:36:03 15.2 C 12.2 g/m*3 15.2 C 0 km/h
10 24-07-2010 01:48:03 15.2 C 12.2 g/m*3 15.2 C 0 km/h
11 24-07-2010 02:00:03 15.2 C 12.33 g/m*3 15.2 C 0 km/h
12 24-07-2010 02:12:03 15.2 C 12.33 g/m*3 15.2 C 0 km/h
13 24-07-2010 02:24:03 15.2 C 12.33 g/m*3 15.2 C 0 km/h
14 24-07-2010 02:36:03 15.3 C 12.41 g/m*3 15.3 C 0 km/h
15 24-07-2010 02:48:03 15.4 C 12.48 g/m*3 15.4 C 0 km/h
16 24-07-2010 03:00:03 15.4 C 12.48 g/m*3 15.4 C 0 km/h
17 24-07-2010 03:12:03 15.4 C 12.48 g/m*3 15.4 C 0 km/h
18 24-07-2010 03:24:03 15.6 C 12.63 g/m*3 15.6 C 0 km/h
19 24-07-2010 03:36:03 15.7 C 12.71 g/m*3 15.7 C 0 km/h
20 24-07-2010 03:48:03 15.7 C 12.71 g/m*3 15.7 C 0 km/h
21 24-07-2010 04:00:03 15.7 C 12.71 g/m*3 15.7 C 0 km/h
22 24-07-2010 04:12:03 15.6 C 12.5 g/m*3 15.6 C 0 km/h
23 24-07-2010 04:24:03 15.7 C 12.44 g/m*3 15.7 C 0 km/h
24 24-07-2010 04:36:03 15.6 C 12.23 g/m*3 15.6 C 0 km/h
25 24-07-2010 04:48:03 15.6 C 12.1 g/m*3 15.6 C 0 km/h
Sensor: Nr:Datum:Temp:Abs-Feuchte:Windchill:Wind:
Aussen-T/F 26 24-07-2010 05:00:03 15.6 C 12.1 g/m*3 15.6 C 0 km/h
27 24-07-2010 05:12:04 15.6 C 11.97 g/m*3 15.6 C 0 km/h
28 24-07-2010 05:24:04 15.5 C 11.9 g/m*3 15.5 C 0 km/h
29 24-07-2010 05:36:04 15.5 C 11.9 g/m*3 15.5 C 0 km/h
30 24-07-2010 05:48:04 15.5 C 11.9 g/m*3 15.5 C 0 km/h
31 24-07-2010 06:00:04 15.4 C 11.82 g/m*3 15.4 C 0 km/h
32 24-07-2010 06:12:04 15.4 C 11.69 g/m*3 15.4 C 0 km/h
33 24-07-2010 06:24:04 15.4 C 11.56 g/m*3 15.4 C 0 km/h
34 24-07-2010 06:36:04 15.5 C 11.63 g/m*3 15.5 C 0 km/h
35 24-07-2010 06:48:04 15.4 C 11.56 g/m*3 15.4 C 0 km/h
36 24-07-2010 07:00:04 15.4 C 11.56 g/m*3 15.4 C 0 km/h
37 24-07-2010 07:12:04 15.4 C 11.56 g/m*3 15.4 C 0 km/h
38 24-07-2010 07:24:04 15.5 C 11.63 g/m*3 15.5 C 0 km/h
39 24-07-2010 07:36:04 15.6 C 11.57 g/m*3 15.6 C 0 km/h
40 24-07-2010 07:48:04 15.6 C 11.57 g/m*3 15.6 C 0 km/h
41 24-07-2010 08:00:04 15.8 C 11.58 g/m*3 15.8 C 0 km/h
42 24-07-2010 08:12:04 16 C 11.31 g/m*3 16 C 0 km/h
43 24-07-2010 08:24:04 16.1 C 11.24 g/m*3 16.1 C 0 km/h
44 24-07-2010 08:36:02 16.4 C 11.31 g/m*3 16.4 C 0 km/h
45 24-07-2010 08:48:02 16.5 C 11.09 g/m*3 16.5 C 0 km/h
46 24-07-2010 09:00:02 16.6 C 11.02 g/m*3 16.6 C 0 km/h
47 24-07-2010 09:12:02 17 C 11 g/m*3 17 C 0 km/h
48 24-07-2010 09:24:02 17.4 C 11.12 g/m*3 17.4 C 0 km/h
49 24-07-2010 09:36:03 17.6 C 10.65 g/m*3 17.6 C 0 km/h
50 24-07-2010 09:48:02 17.6 C 10.2 g/m*3 17.6 C 0 km/h
Sensor: Nr:Datum:Temp:Abs-Feuchte:Windchill:Wind:
Aussen-T/F 51 24-07-2010 10:00:02 17.6 C 9.9 g/m*3 17.6 C 0 km/h
52 24-07-2010 10:12:02 18.4 C 10.22 g/m*3 18.4 C 0 km/h
53 24-07-2010 10:24:02 18.9 C 9.88 g/m*3 18.9 C 0 km/h
54 24-07-2010 10:36:02 19.2 C 9.56 g/m*3 19.2 C 0 km/h
55 24-07-2010 10:48:02 19 C 8.64 g/m*3 19 C 0 km/h
56 24-07-2010 11:00:02 19.8 C 9.39 g/m*3 19.8 C 0 km/h
57 24-07-2010 11:12:02 19.9 C 8.76 g/m*3 19.9 C 0 km/h
58 24-07-2010 11:24:02 18.7 C 8.97 g/m*3 18.7 C 0 km/h
59 24-07-2010 11:36:02 19.4 C 8.51 g/m*3 19.4 C 0 km/h
60 24-07-2010 11:48:02 19.4 C 8.51 g/m*3 19.4 C 0 km/h
61 24-07-2010 12:00:02 19.5 C 8.39 g/m*3 19.5 C 0 km/h
62 24-07-2010 12:12:01 20.5 C 8.36 g/m*3 20.5 C 0 km/h
63 24-07-2010 12:24:01 20.3 C 8.09 g/m*3 20.3 C 0 km/h
64 24-07-2010 12:36:01 20.8 C 8.33 g/m*3 20.8 C 0 km/h
65 24-07-2010 12:48:02 21.5 C 7.73 g/m*3 21.5 C 0 km/h
66 24-07-2010 13:00:02 20.9 C 7.1 g/m*3 20.9 C 0 km/h
67 24-07-2010 13:12:02 22.9 C 6.95 g/m*3 22.9 C 0 km/h
68 24-07-2010 13:24:02 24.3 C 6.2 g/m*3 24.3 C 0 km/h
69 24-07-2010 13:36:01 23.4 C 6.31 g/m*3 23.4 C 0 km/h
70 24-07-2010 13:48:02 22.1 C 6.44 g/m*3 22.1 C 0 km/h
71 24-07-2010 14:00:02 23.8 C 6.02 g/m*3 23.8 C 0 km/h
72 24-07-2010 14:12:01 23.4 C 5.89 g/m*3 23.4 C 0 km/h
73 24-07-2010 14:24:02 23.1 C 6.41 g/m*3 23.1 C 0 km/h
74 24-07-2010 14:36:01 22.8 C 6.3 g/m*3 22.8 C 0 km/h
75 24-07-2010 14:48:02 24.3 C 6.2 g/m*3 24.3 C 0 km/h
Sensor: Nr:Datum:Temp:Abs-Feuchte:Windchill:Wind:
Aussen-T/F 76 24-07-2010 15:00:02 24 C 5.66 g/m*3 24 C 0 km/h
77 24-07-2010 15:12:02 23.2 C 5.61 g/m*3 23.2 C 0 km/h
78 24-07-2010 15:24:02 24.5 C 6.27 g/m*3 24.5 C 0 km/h
79 24-07-2010 15:36:02 25.1 C 5.32 g/m*3 25.1 C 0 km/h
80 24-07-2010 15:48:01 23.7 C 4.49 g/m*3 23.7 C 0 km/h
81 24-07-2010 16:00:01 23.2 C 5.2 g/m*3 23.2 C 0 km/h
82 24-07-2010 16:12:02 23.6 C 4.68 g/m*3 23.6 C 0 km/h
83 24-07-2010 16:24:01 24.8 C 4.55 g/m*3 24.8 C 0 km/h
84 24-07-2010 16:36:01 23.6 C 4.47 g/m*3 23.6 C 0 km/h
85 24-07-2010 16:48:01 24.1 C 4.38 g/m*3 24.1 C 0 km/h
86 24-07-2010 17:00:01 24.2 C 4.4 g/m*3 24.2 C 0 km/h
87 24-07-2010 17:12:02 25.5 C 4.73 g/m*3 25.5 C 0 km/h
88 24-07-2010 17:24:02 25.1 C 4.63 g/m*3 25.1 C 0 km/h
89 24-07-2010 17:36:01 24.1 C 4.38 g/m*3 24.1 C 0 km/h
90 24-07-2010 17:48:02 22.9 C 4.09 g/m*3 22.9 C 0 km/h
91 24-07-2010 18:00:02 23 C 4.11 g/m*3 23 C 0 km/h
92 24-07-2010 18:12:01 23.8 C 4.3 g/m*3 23.8 C 0 km/h
93 24-07-2010 18:24:02 24.1 C 4.38 g/m*3 24.1 C 0 km/h
94 24-07-2010 18:36:01 23.4 C 4.21 g/m*3 23.4 C 0 km/h
95 24-07-2010 18:48:02 23.1 C 4.13 g/m*3 23.1 C 0 km/h
96 24-07-2010 19:00:02 23.6 C 4.25 g/m*3 23.6 C 0 km/h
97 24-07-2010 19:12:02 23.5 C 4.23 g/m*3 23.5 C 0 km/h
98 24-07-2010 19:24:02 23.4 C 4.21 g/m*3 23.4 C 0 km/h
99 24-07-2010 19:36:02 22.7 C 4.04 g/m*3 22.7 C 0 km/h
100 24-07-2010 19:48:02 22.9 C 4.09 g/m*3 22.9 C 0 km/h
Sensor: Nr:Datum:Temp:Abs-Feuchte:Windchill:Wind:
Aussen-T/F 101 24-07-2010 20:00:02 23 C 4.11 g/m*3 23 C 0 km/h
102 24-07-2010 20:12:02 23.1 C 4.13 g/m*3 23.1 C 0 km/h
103 24-07-2010 20:24:01 22.8 C 4.06 g/m*3 22.8 C 0 km/h
104 24-07-2010 20:36:02 22.6 C 4.02 g/m*3 22.6 C 0 km/h
105 24-07-2010 20:48:02 22.1 C 3.9 g/m*3 22.1 C 0 km/h
106 24-07-2010 21:00:02 21.2 C 3.71 g/m*3 21.2 C 0 km/h
107 24-07-2010 21:12:02 20.3 C 4.4 g/m*3 20.3 C 0 km/h
108 24-07-2010 21:24:01 19.7 C 4.58 g/m*3 19.7 C 0 km/h
109 24-07-2010 21:36:02 19 C 4.73 g/m*3 19 C 0 km/h
110 24-07-2010 21:48:01 18.6 C 4.93 g/m*3 18.6 C 0 km/h
111 24-07-2010 22:00:01 18.1 C 5.1 g/m*3 18.1 C 0 km/h
112 24-07-2010 22:12:02 17.6 C 5.25 g/m*3 17.6 C 0 km/h
113 24-07-2010 22:24:01 17.5 C 5.07 g/m*3 17.5 C 0 km/h
114 24-07-2010 22:36:02 17.2 C 5.13 g/m*3 17.2 C 0 km/h
115 24-07-2010 22:49:02 17.1 C 5.39 g/m*3 17.1 C 0 km/h
116 24-07-2010 23:01:02 16.7 C 5.83 g/m*3 16.7 C 0 km/h
117 24-07-2010 23:13:02 16.3 C 5.83 g/m*3 16.3 C 0 km/h
118 24-07-2010 23:25:02 15.9 C 6.23 g/m*3 15.9 C 0 km/h
119 24-07-2010 23:37:02 15.5 C 6.34 g/m*3 15.5 C 0 km/h
120 24-07-2010 23:49:02 15.2 C 6.23 g/m*3 15.2 C 0 km/h
121 25-07-2010 00:01:02 15 C 6.41 g/m*3 15 C 0 km/h
122 25-07-2010 00:13:02 14.8 C 6.71 g/m*3 14.8 C 0 km/h
123 25-07-2010 00:25:02 14.6 C 6.76 g/m*3 14.6 C 0 km/h
124 25-07-2010 00:37:02 14.2 C 6.47 g/m*3 14.2 C 0 km/h
125 25-07-2010 00:49:02 14.1 C 6.55 g/m*3 14.1 C 0 km/h
Sensor: Nr:Datum:Temp:Abs-Feuchte:Windchill:Wind:
Aussen-T/F 126 25-07-2010 01:01:02 13.8 C 6.79 g/m*3 13.8 C 0 km/h
127 25-07-2010 01:13:03 13.7 C 6.87 g/m*3 13.7 C 0 km/h
128 25-07-2010 01:25:03 13.5 C 6.78 g/m*3 13.5 C 0 km/h
129 25-07-2010 01:37:03 13.3 C 6.82 g/m*3 13.3 C 0 km/h
130 25-07-2010 01:49:03 13.2 C 6.77 g/m*3 13.2 C 0 km/h
131 25-07-2010 02:01:03 13.1 C 6.96 g/m*3 13.1 C 0 km/h
132 25-07-2010 02:13:03 12.9 C 6.99 g/m*3 12.9 C 0 km/h
133 25-07-2010 02:25:03 12.7 C 7.01 g/m*3 12.7 C 0 km/h
134 25-07-2010 02:37:03 12.5 C 6.93 g/m*3 12.5 C 0 km/h
135 25-07-2010 02:49:03 12.3 C 6.95 g/m*3 12.3 C 0 km/h
136 25-07-2010 03:01:03 12.2 C 7.01 g/m*3 12.2 C 0 km/h
137 25-07-2010 03:13:03 12 C 7.14 g/m*3 12 C 0 km/h
138 25-07-2010 03:25:03 11.8 C 7.05 g/m*3 11.8 C 0 km/h
139 25-07-2010 03:37:03 11.8 C 7.05 g/m*3 11.8 C 0 km/h
140 25-07-2010 03:49:03 11.5 C 7.02 g/m*3 11.5 C 0 km/h
141 25-07-2010 04:01:03 11.3 C 7.14 g/m*3 11.3 C 0 km/h
142 25-07-2010 04:13:03 11.1 C 7.25 g/m*3 11.1 C 0 km/h
143 25-07-2010 04:25:03 11 C 7.31 g/m*3 11 C 0 km/h
144 25-07-2010 04:37:03 10.8 C 7.41 g/m*3 10.8 C 0 km/h
145 25-07-2010 04:49:03 10.6 C 7.42 g/m*3 10.6 C 0 km/h
146 25-07-2010 05:01:03 10.5 C 7.47 g/m*3 10.5 C 0 km/h
147 25-07-2010 05:13:03 10.3 C 7.37 g/m*3 10.3 C 0 km/h
148 25-07-2010 05:25:03 10.1 C 7.38 g/m*3 10.1 C 0 km/h
149 25-07-2010 05:37:04 10 C 7.33 g/m*3 10 C 0 km/h
150 25-07-2010 05:49:04 9.9 C 7.38 g/m*3 9.9 C 0 km/h
Sensor: Nr:Datum:Temp:Abs-Feuchte:Windchill:Wind:
Aussen-T/F 151 25-07-2010 06:01:04 10 C 7.33 g/m*3 10 C 0 km/h
152 25-07-2010 06:13:04 10 C 7.42 g/m*3 10 C 0 km/h
153 25-07-2010 06:25:04 10 C 7.42 g/m*3 10 C 0 km/h
154 25-07-2010 06:37:04 10 C 7.42 g/m*3 10 C 0 km/h
155 25-07-2010 06:49:04 10.2 C 7.42 g/m*3 10.2 C 0 km/h
156 25-07-2010 07:01:04 10.3 C 7.47 g/m*3 10.3 C 0 km/h
157 25-07-2010 07:13:04 10.7 C 7.56 g/m*3 10.7 C 0 km/h
158 25-07-2010 07:25:04 11 C 7.61 g/m*3 11 C 0 km/h
159 25-07-2010 07:37:04 11.2 C 7.5 g/m*3 11.2 C 0 km/h
160 25-07-2010 07:49:04 11.4 C 7.6 g/m*3 11.4 C 0 km/h
161 25-07-2010 08:01:04 11.5 C 7.75 g/m*3 11.5 C 0 km/h
162 25-07-2010 08:13:04 11.5 C 7.95 g/m*3 11.5 C 0 km/h
163 25-07-2010 08:25:04 12 C 7.99 g/m*3 12 C 0 km/h
164 25-07-2010 08:37:04 12.5 C 7.92 g/m*3 12.5 C 0 km/h
165 25-07-2010 08:49:04 13.1 C 7.87 g/m*3 13.1 C 0 km/h
166 25-07-2010 09:01:04 13.8 C 7.86 g/m*3 13.8 C 0 km/h
167 25-07-2010 09:13:04 14.3 C 7.49 g/m*3 14.3 C 0 km/h
168 25-07-2010 09:25:04 14.8 C 7.6 g/m*3 14.8 C 0 km/h
169 25-07-2010 09:37:04 15.6 C 7.58 g/m*3 15.6 C 0 km/h
170 25-07-2010 09:49:02 16.2 C 7.45 g/m*3 16.2 C 0 km/h
171 25-07-2010 10:01:02 16.6 C 7.2 g/m*3 16.6 C 0 km/h
172 25-07-2010 10:13:02 17.5 C 7.01 g/m*3 17.5 C 0 km/h
173 25-07-2010 10:25:02 17.8 C 6.68 g/m*3 17.8 C 0 km/h
174 25-07-2010 10:37:02 18.4 C 6.45 g/m*3 18.4 C 0 km/h
175 25-07-2010 10:49:02 18.7 C 6.4 g/m*3 18.7 C 0 km/h
Sensor: Nr:Datum:Temp:Abs-Feuchte:Windchill:Wind:
Aussen-T/F 176 25-07-2010 11:01:02 19.3 C 6.3 g/m*3 19.3 C 0 km/h
177 25-07-2010 11:13:02 20.9 C 6.37 g/m*3 20.9 C 0 km/h
178 25-07-2010 11:25:03 21.2 C 5.93 g/m*3 21.2 C 0 km/h
179 25-07-2010 11:37:02 21.2 C 5.93 g/m*3 21.2 C 0 km/h
180 25-07-2010 11:49:03 21.7 C 6.1 g/m*3 21.7 C 0 km/h
181 25-07-2010 12:01:02 21.5 C 6.03 g/m*3 21.5 C 0 km/h
182 25-07-2010 12:13:03 22.3 C 6.12 g/m*3 22.3 C 0 km/h
183 25-07-2010 12:25:02 23.2 C 5.82 g/m*3 23.2 C 0 km/h
184 25-07-2010 12:37:02 24.2 C 5.72 g/m*3 24.2 C 0 km/h
185 25-07-2010 12:49:02 23.5 C 5.71 g/m*3 23.5 C 0 km/h
186 25-07-2010 13:01:02 23.5 C 6.13 g/m*3 23.5 C 0 km/h
187 25-07-2010 13:13:02 23.3 C 6.06 g/m*3 23.3 C 0 km/h
188 25-07-2010 13:25:03 23.2 C 6.24 g/m*3 23.2 C 0 km/h
189 25-07-2010 13:37:02 23.5 C 6.34 g/m*3 23.5 C 0 km/h
190 25-07-2010 13:49:03 23.4 C 6.31 g/m*3 23.4 C 0 km/h
191 25-07-2010 14:01:02 23.2 C 6.44 g/m*3 23.2 C 0 km/h
192 25-07-2010 14:13:02 22.6 C 7.43 g/m*3 22.6 C 0 km/h
193 25-07-2010 14:25:02 21.5 C 6.79 g/m*3 21.5 C 0 km/h
194 25-07-2010 14:37:02 21.6 C 7.21 g/m*3 21.6 C 0 km/h
195 25-07-2010 14:49:02 22.1 C 6.83 g/m*3 22.1 C 0 km/h
196 25-07-2010 15:01:02 22.2 C 6.87 g/m*3 22.2 C 0 km/h
197 25-07-2010 15:13:02 22.2 C 6.68 g/m*3 22.2 C 0 km/h
198 25-07-2010 15:25:02 21.6 C 6.83 g/m*3 21.6 C 0 km/h
199 25-07-2010 15:37:01 21 C 7.14 g/m*3 21 C 0 km/h
200 25-07-2010 15:49:02 20.9 C 7.47 g/m*3 20.9 C 0 km/h
Sensor: Nr:Datum:Temp:Abs-Feuchte:Windchill:Wind:
Aussen-T/F 201 25-07-2010 16:01:01 21.6 C 7.21 g/m*3 21.6 C 0 km/h
202 25-07-2010 16:13:01 21.9 C 7.14 g/m*3 21.9 C 0 km/h
203 25-07-2010 16:25:02 22.1 C 6.83 g/m*3 22.1 C 0 km/h
204 25-07-2010 16:37:02 22.1 C 7.03 g/m*3 22.1 C 0 km/h
205 25-07-2010 16:49:02 22.2 C 7.46 g/m*3 22.2 C 0 km/h
206 25-07-2010 17:01:03 23.5 C 6.77 g/m*3 23.5 C 0 km/h
207 25-07-2010 17:13:03 23.7 C 6.63 g/m*3 23.7 C 0 km/h
208 25-07-2010 17:25:02 23.3 C 6.69 g/m*3 23.3 C 0 km/h
209 25-07-2010 17:37:02 23.4 C 6.31 g/m*3 23.4 C 0 km/h
210 25-07-2010 17:49:01 23.1 C 6.61 g/m*3 23.1 C 0 km/h
211 25-07-2010 18:01:02 22.8 C 7.32 g/m*3 22.8 C 0 km/h
212 25-07-2010 18:13:02 22.5 C 7.39 g/m*3 22.5 C 0 km/h
213 25-07-2010 18:25:01 22.4 C 7.35 g/m*3 22.4 C 0 km/h
214 25-07-2010 18:37:01 22 C 7.57 g/m*3 22 C 0 km/h
215 25-07-2010 18:49:01 21.6 C 7.97 g/m*3 21.6 C 0 km/h
216 25-07-2010 19:01:02 21.3 C 8.2 g/m*3 21.3 C 0 km/h
217 25-07-2010 19:13:02 20.9 C 8.2 g/m*3 20.9 C 0 km/h
218 25-07-2010 19:25:02 20.6 C 8.59 g/m*3 20.6 C 0 km/h
219 25-07-2010 19:37:01 20.6 C 7.34 g/m*3 20.6 C 0 km/h
220 25-07-2010 19:49:01 20.6 C 7.16 g/m*3 20.6 C 0 km/h
221 25-07-2010 20:01:01 20.6 C 7.34 g/m*3 20.6 C 0 km/h
222 25-07-2010 20:13:01 20.5 C 7.3 g/m*3 20.5 C 0 km/h
223 25-07-2010 20:25:02 20.4 C 7.43 g/m*3 20.4 C 0 km/h
224 25-07-2010 20:37:01 19.9 C 8.08 g/m*3 19.9 C 0 km/h
225 25-07-2010 20:49:02 19.4 C 8.84 g/m*3 19.4 C 0 km/h
Sensor: Nr:Datum:Temp:Abs-Feuchte:Windchill:Wind:
Aussen-T/F 226 25-07-2010 21:01:01 19.1 C 9.18 g/m*3 19.1 C 0 km/h
227 25-07-2010 21:13:01 19.2 C 9.23 g/m*3 19.2 C 0 km/h
228 25-07-2010 21:25:02 19.1 C 9.51 g/m*3 19.1 C 0 km/h
229 25-07-2010 21:37:01 19.1 C 9.51 g/m*3 19.1 C 0 km/h
230 25-07-2010 21:49:01 18.9 C 9.72 g/m*3 18.9 C 0 km/h
231 25-07-2010 22:01:01 18.8 C 9.82 g/m*3 18.8 C 0 km/h
232 25-07-2010 22:13:01 18.5 C 9.97 g/m*3 18.5 C 0 km/h
233 25-07-2010 22:26:02 18.3 C 10.16 g/m*3 18.3 C 0 km/h
234 25-07-2010 22:38:02 18.2 C 10.41 g/m*3 18.2 C 0 km/h
235 25-07-2010 22:50:02 18.1 C 10.51 g/m*3 18.1 C 0 km/h
236 25-07-2010 23:02:03 17.9 C 10.54 g/m*3 17.9 C 0 km/h
237 25-07-2010 23:14:03 18 C 10.29 g/m*3 18 C 0 km/h
238 25-07-2010 23:26:03 17.9 C 10.23 g/m*3 17.9 C 0 km/h
239 25-07-2010 23:38:03 17.8 C 10.17 g/m*3 17.8 C 0 km/h
240 25-07-2010 23:50:03 17.8 C 10.17 g/m*3 17.8 C 0 km/h
241 26-07-2010 00:02:03 17.6 C 9.9 g/m*3 17.6 C 0 km/h
242 26-07-2010 00:14:03 17.6 C 9.9 g/m*3 17.6 C 0 km/h
243 26-07-2010 00:26:03 17.6 C 9.9 g/m*3 17.6 C 0 km/h
244 26-07-2010 00:38:03 17.6 C 10.05 g/m*3 17.6 C 0 km/h
245 26-07-2010 00:50:03 17.4 C 9.93 g/m*3 17.4 C 0 km/h
246 26-07-2010 01:02:03 17.3 C 9.87 g/m*3 17.3 C 0 km/h
247 26-07-2010 01:14:03 17.2 C 9.96 g/m*3 17.2 C 0 km/h
248 26-07-2010 01:26:03 17.2 C 9.96 g/m*3 17.2 C 0 km/h
249 26-07-2010 01:38:03 17.3 C 10.02 g/m*3 17.3 C 0 km/h
250 26-07-2010 01:50:03 17.3 C 10.16 g/m*3 17.3 C 0 km/h
Sensor: Nr:Datum:Temp:Abs-Feuchte:Windchill:Wind:
Aussen-T/F 251 26-07-2010 02:02:03 17 C 9.98 g/m*3 17 C 0 km/h
252 26-07-2010 02:14:03 16.9 C 10.07 g/m*3 16.9 C 0 km/h
253 26-07-2010 02:26:03 16.8 C 10.01 g/m*3 16.8 C 0 km/h
254 26-07-2010 02:38:03 16.8 C 10.15 g/m*3 16.8 C 0 km/h
255 26-07-2010 02:50:03 16.5 C 9.97 g/m*3 16.5 C 0 km/h
256 26-07-2010 03:02:03 16.4 C 10.05 g/m*3 16.4 C 0 km/h
257 26-07-2010 03:14:03 16.4 C 10.19 g/m*3 16.4 C 0 km/h
258 26-07-2010 03:26:03 16.4 C 10.33 g/m*3 16.4 C 0 km/h
259 26-07-2010 03:38:04 16.4 C 10.33 g/m*3 16.4 C 0 km/h
260 26-07-2010 03:50:04 16.5 C 10.11 g/m*3 16.5 C 0 km/h
261 26-07-2010 04:02:04 16.6 C 10.17 g/m*3 16.6 C 0 km/h
262 26-07-2010 04:14:04 16.4 C 10.47 g/m*3 16.4 C 0 km/h
263 26-07-2010 04:26:04 16.4 C 10.61 g/m*3 16.4 C 0 km/h
264 26-07-2010 04:38:04 16.1 C 10.69 g/m*3 16.1 C 0 km/h
265 26-07-2010 04:50:04 15.7 C 10.97 g/m*3 15.7 C 0 km/h
266 26-07-2010 05:02:04 15.6 C 11.04 g/m*3 15.6 C 0 km/h
267 26-07-2010 05:14:04 15.6 C 11.3 g/m*3 15.6 C 0 km/h
268 26-07-2010 05:26:04 15.5 C 11.37 g/m*3 15.5 C 0 km/h
269 26-07-2010 05:38:04 15.6 C 11.44 g/m*3 15.6 C 0 km/h
270 26-07-2010 05:50:04 15.3 C 11.23 g/m*3 15.3 C 0 km/h
271 26-07-2010 06:02:04 15.4 C 11.3 g/m*3 15.4 C 0 km/h
272 26-07-2010 06:14:04 15.4 C 11.43 g/m*3 15.4 C 0 km/h
273 26-07-2010 06:26:04 15.4 C 11.43 g/m*3 15.4 C 0 km/h
274 26-07-2010 06:38:04 15.4 C 11.56 g/m*3 15.4 C 0 km/h
275 26-07-2010 06:50:04 15.4 C 11.56 g/m*3 15.4 C 0 km/h
Sensor: Nr:Datum:Temp:Abs-Feuchte:Windchill:Wind:
Aussen-T/F 276 26-07-2010 07:02:02 15.7 C 11.91 g/m*3 15.7 C 0 km/h
277 26-07-2010 07:14:02 16 C 11.99 g/m*3 16 C 0 km/h
278 26-07-2010 07:26:03 16 C 11.99 g/m*3 16 C 0 km/h
279 26-07-2010 07:38:02 16.1 C 11.93 g/m*3 16.1 C 0 km/h
280 26-07-2010 07:50:02 16.3 C 11.93 g/m*3 16.3 C 0 km/h
281 26-07-2010 08:02:02 16.5 C 11.94 g/m*3 16.5 C 0 km/h
282 26-07-2010 08:14:02 16.6 C 11.87 g/m*3 16.6 C 0 km/h
283 26-07-2010 08:26:02 16.9 C 11.94 g/m*3 16.9 C 0 km/h
284 26-07-2010 08:38:02 17.5 C 12.08 g/m*3 17.5 C 0 km/h
285 26-07-2010 08:50:01 17.4 C 11.71 g/m*3 17.4 C 0 km/h
286 26-07-2010 09:02:02 17.8 C 11.84 g/m*3 17.8 C 0 km/h
287 26-07-2010 09:14:02 18.2 C 11.81 g/m*3 18.2 C 0 km/h
288 26-07-2010 09:26:01 18.3 C 11.57 g/m*3 18.3 C 0 km/h
289 26-07-2010 09:38:01 18.8 C 11.92 g/m*3 18.8 C 0 km/h
290 26-07-2010 09:50:02 18.8 C 11.43 g/m*3 18.8 C 0 km/h
291 26-07-2010 10:02:02 18.7 C 11.37 g/m*3 18.7 C 0 km/h
292 26-07-2010 10:14:02 19.1 C 10.98 g/m*3 19.1 C 0 km/h
293 26-07-2010 10:26:02 20.2 C 11.02 g/m*3 20.2 C 0 km/h
294 26-07-2010 10:38:02 21.1 C 10.32 g/m*3 21.1 C 0 km/h
295 26-07-2010 10:50:02 22.1 C 9.76 g/m*3 22.1 C 0 km/h
296 26-07-2010 11:02:01 21.8 C 9.78 g/m*3 21.8 C 0 km/h
297 26-07-2010 11:14:01 22.6 C 10.04 g/m*3 22.6 C 0 km/h
298 26-07-2010 11:26:02 22.5 C 9.59 g/m*3 22.5 C 0 km/h
299 26-07-2010 11:38:02 19.4 C 10.68 g/m*3 19.4 C 0 km/h
300 26-07-2010 11:50:02 18.4 C 12.11 g/m*3 18.4 C 0 km/h
Sensor: Nr:Datum:Temp:Abs-Feuchte:Windchill:Wind:
Aussen-T/F 301 26-07-2010 12:02:02 19.1 C 13.11 g/m*3 19.1 C 0 km/h
302 26-07-2010 12:14:02 19.5 C 12.59 g/m*3 19.5 C 0 km/h
303 26-07-2010 12:26:02 19.5 C 12.25 g/m*3 19.5 C 0 km/h
304 26-07-2010 12:38:02 18.5 C 12.18 g/m*3 18.5 C 0 km/h
305 26-07-2010 12:50:01 18.6 C 12.57 g/m*3 18.6 C 0 km/h
306 26-07-2010 13:02:01 19 C 13.04 g/m*3 19 C 0 km/h
307 26-07-2010 13:14:01 18.5 C 12.34 g/m*3 18.5 C 0 km/h
308 26-07-2010 13:26:01 18 C 12.44 g/m*3 18 C 0 km/h
309 26-07-2010 13:38:01 17.8 C 12.9 g/m*3 17.8 C 0 km/h
310 26-07-2010 13:50:01 17.5 C 12.82 g/m*3 17.5 C 0 km/h
311 26-07-2010 14:02:01 17.5 C 12.97 g/m*3 17.5 C 0 km/h
312 26-07-2010 14:14:01 17.7 C 13.43 g/m*3 17.7 C 0 km/h
313 26-07-2010 14:26:02 17.3 C 13.11 g/m*3 17.3 C 0 km/h
314 26-07-2010 14:38:01 17.1 C 13.1 g/m*3 17.1 C 0 km/h
315 26-07-2010 14:50:02 17.2 C 13.18 g/m*3 17.2 C 0 km/h
316 26-07-2010 15:02:02 17.4 C 13.49 g/m*3 17.4 C 0 km/h
317 26-07-2010 15:14:02 17.3 C 13.41 g/m*3 17.3 C 0 km/h
318 26-07-2010 15:26:02 17.6 C 13.65 g/m*3 17.6 C 0 km/h
319 26-07-2010 15:38:03 18.2 C 13.83 g/m*3 18.2 C 0 km/h
320 26-07-2010 15:50:02 19.1 C 14.1 g/m*3 19.1 C 0 km/h
321 26-07-2010 16:02:02 19.1 C 13.77 g/m*3 19.1 C 0 km/h
322 26-07-2010 16:14:02 19.5 C 13.26 g/m*3 19.5 C 0 km/h
323 26-07-2010 16:26:02 19.1 C 12.79 g/m*3 19.1 C 0 km/h
324 26-07-2010 16:38:02 19.5 C 13.43 g/m*3 19.5 C 0 km/h
325 26-07-2010 16:50:02 21.2 C 13.71 g/m*3 21.2 C 0 km/h
Sensor: Nr:Datum:Temp:Abs-Feuchte:Windchill:Wind:
Aussen-T/F 326 26-07-2010 17:02:02 21 C 12.64 g/m*3 21 C 0 km/h
327 26-07-2010 17:14:02 19.5 C 10.74 g/m*3 19.5 C 0 km/h
328 26-07-2010 17:26:02 18.7 C 10.73 g/m*3 18.7 C 0 km/h
329 26-07-2010 17:38:02 18.1 C 11.28 g/m*3 18.1 C 0 km/h
330 26-07-2010 17:50:02 18.1 C 11.28 g/m*3 18.1 C 0 km/h
331 26-07-2010 18:02:02 18.2 C 11.19 g/m*3 18.2 C 0 km/h
332 26-07-2010 18:14:02 17.3 C 11.05 g/m*3 17.3 C 0 km/h
333 26-07-2010 18:26:03 16.8 C 11.29 g/m*3 16.8 C 0 km/h
334 26-07-2010 18:38:02 16.8 C 11.44 g/m*3 16.8 C 0 km/h
335 26-07-2010 18:50:03 16.7 C 11.65 g/m*3 16.7 C 0 km/h
336 26-07-2010 19:02:02 16.8 C 11.72 g/m*3 16.8 C 0 km/h
337 26-07-2010 19:14:02 17.1 C 11.79 g/m*3 17.1 C 0 km/h
338 26-07-2010 19:26:02 17.1 C 11.65 g/m*3 17.1 C 0 km/h
339 26-07-2010 19:38:02 16.8 C 11.58 g/m*3 16.8 C 0 km/h
340 26-07-2010 19:50:02 16.8 C 11.29 g/m*3 16.8 C 0 km/h
341 26-07-2010 20:02:01 16.7 C 10.94 g/m*3 16.7 C 0 km/h
342 26-07-2010 20:14:01 16.4 C 11.03 g/m*3 16.4 C 0 km/h
343 26-07-2010 20:26:02 16.2 C 11.17 g/m*3 16.2 C 0 km/h
344 26-07-2010 20:38:02 15.9 C 11.24 g/m*3 15.9 C 0 km/h
345 26-07-2010 20:50:01 15.6 C 11.17 g/m*3 15.6 C 0 km/h
346 26-07-2010 21:02:02 15.4 C 11.04 g/m*3 15.4 C 0 km/h
347 26-07-2010 21:14:02 15.4 C 11.3 g/m*3 15.4 C 0 km/h
348 26-07-2010 21:26:01 15.3 C 11.36 g/m*3 15.3 C 0 km/h
349 26-07-2010 21:38:01 15.2 C 11.29 g/m*3 15.2 C 0 km/h
350 26-07-2010 21:50:01 15.2 C 11.42 g/m*3 15.2 C 0 km/h
Sensor: Nr:Datum:Temp:Abs-Feuchte:Windchill:Wind:
Aussen-T/F 351 26-07-2010 22:02:02 15.3 C 11.36 g/m*3 15.3 C 0 km/h
352 26-07-2010 22:14:02 15.3 C 10.97 g/m*3 15.3 C 0 km/h
353 26-07-2010 22:27:04 15.2 C 10.77 g/m*3 15.2 C 0 km/h
354 26-07-2010 22:39:04 15.2 C 10.64 g/m*3 15.2 C 0 km/h
355 26-07-2010 22:51:04 15.1 C 10.58 g/m*3 15.1 C 0 km/h
356 26-07-2010 23:03:04 15.1 C 10.58 g/m*3 15.1 C 0 km/h
357 26-07-2010 23:15:04 15.1 C 10.71 g/m*3 15.1 C 0 km/h
358 26-07-2010 23:27:04 15.3 C 10.84 g/m*3 15.3 C 0 km/h
359 26-07-2010 23:39:04 15.4 C 11.04 g/m*3 15.4 C 0 km/h
360 26-07-2010 23:51:04 15.4 C 11.04 g/m*3 15.4 C 0 km/h
361 27-07-2010 00:03:04 15.4 C 11.04 g/m*3 15.4 C 0 km/h
362 27-07-2010 00:15:04 15.4 C 11.04 g/m*3 15.4 C 0 km/h
363 27-07-2010 00:27:04 15.3 C 11.1 g/m*3 15.3 C 0 km/h
364 27-07-2010 00:39:05 15.4 C 11.3 g/m*3 15.4 C 0 km/h
365 27-07-2010 00:51:05 15.2 C 11.16 g/m*3 15.2 C 0 km/h
366 27-07-2010 01:03:05 15.3 C 11.23 g/m*3 15.3 C 0 km/h
367 27-07-2010 01:15:05 15.3 C 11.23 g/m*3 15.3 C 0 km/h
368 27-07-2010 01:27:05 15.6 C 11.3 g/m*3 15.6 C 0 km/h
369 27-07-2010 01:39:05 15.6 C 11.17 g/m*3 15.6 C 0 km/h
370 27-07-2010 01:51:05 15.6 C 11.04 g/m*3 15.6 C 0 km/h
371 27-07-2010 02:03:05 15.6 C 11.04 g/m*3 15.6 C 0 km/h
372 27-07-2010 02:15:05 15.6 C 11.04 g/m*3 15.6 C 0 km/h
373 27-07-2010 02:27:05 15.6 C 11.04 g/m*3 15.6 C 0 km/h
374 27-07-2010 02:39:05 15.6 C 11.04 g/m*3 15.6 C 0 km/h
375 27-07-2010 02:51:05 15.6 C 11.04 g/m*3 15.6 C 0 km/h
Sensor: Nr:Datum:Temp:Abs-Feuchte:Windchill:Wind:
Aussen-T/F 376 27-07-2010 03:03:05 15.6 C 11.04 g/m*3 15.6 C 0 km/h
377 27-07-2010 03:15:05 15.5 C 10.97 g/m*3 15.5 C 0 km/h
378 27-07-2010 03:27:05 15.4 C 10.9 g/m*3 15.4 C 0 km/h
379 27-07-2010 03:39:05 15.3 C 10.84 g/m*3 15.3 C 0 km/h
380 27-07-2010 03:51:05 15.3 C 11.1 g/m*3 15.3 C 0 km/h
381 27-07-2010 04:03:05 15.4 C 11.04 g/m*3 15.4 C 0 km/h
382 27-07-2010 04:15:05 15.3 C 10.84 g/m*3 15.3 C 0 km/h
383 27-07-2010 04:27:05 15.4 C 10.9 g/m*3 15.4 C 0 km/h
384 27-07-2010 04:39:06 15.2 C 10.77 g/m*3 15.2 C 0 km/h
385 27-07-2010 04:51:06 15 C 10.64 g/m*3 15 C 0 km/h
386 27-07-2010 05:03:06 15.2 C 10.9 g/m*3 15.2 C 0 km/h
387 27-07-2010 05:15:06 15.2 C 10.9 g/m*3 15.2 C 0 km/h
388 27-07-2010 05:27:06 15.2 C 10.9 g/m*3 15.2 C 0 km/h
389 27-07-2010 05:39:06 15 C 10.77 g/m*3 15 C 0 km/h
390 27-07-2010 05:51:06 15.1 C 10.71 g/m*3 15.1 C 0 km/h
391 27-07-2010 06:03:06 15.2 C 10.77 g/m*3 15.2 C 0 km/h
392 27-07-2010 06:15:06 15.3 C 10.84 g/m*3 15.3 C 0 km/h
393 27-07-2010 06:27:06 15.3 C 10.84 g/m*3 15.3 C 0 km/h
394 27-07-2010 06:39:06 15.3 C 10.71 g/m*3 15.3 C 0 km/h
395 27-07-2010 06:51:02 15.3 C 10.71 g/m*3 15.3 C 0 km/h
396 27-07-2010 07:03:01 15.4 C 10.64 g/m*3 15.4 C 0 km/h
397 27-07-2010 07:15:01 15.6 C 10.77 g/m*3 15.6 C 0 km/h
398 27-07-2010 07:27:01 15.6 C 10.51 g/m*3 15.6 C 0 km/h
399 27-07-2010 07:39:02 15.8 C 10.63 g/m*3 15.8 C 0 km/h
400 27-07-2010 07:51:02 16 C 10.63 g/m*3 16 C 0 km/h
Sensor: Nr:Datum:Temp:Abs-Feuchte:Windchill:Wind:
Aussen-T/F 401 27-07-2010 08:03:02 16.1 C 10.55 g/m*3 16.1 C 0 km/h
402 27-07-2010 08:15:02 16.1 C 10.55 g/m*3 16.1 C 0 km/h
403 27-07-2010 08:27:02 16.4 C 10.75 g/m*3 16.4 C 0 km/h
404 27-07-2010 08:39:02 16.3 C 10.54 g/m*3 16.3 C 0 km/h
405 27-07-2010 08:51:02 16.2 C 10.62 g/m*3 16.2 C 0 km/h
406 27-07-2010 09:03:02 16.5 C 10.67 g/m*3 16.5 C 0 km/h
407 27-07-2010 09:15:03 16.6 C 10.59 g/m*3 16.6 C 0 km/h
408 27-07-2010 09:27:03 16.6 C 10.45 g/m*3 16.6 C 0 km/h
409 27-07-2010 09:39:02 17.3 C 10.61 g/m*3 17.3 C 0 km/h
410 27-07-2010 09:51:01 17.4 C 10.37 g/m*3 17.4 C 0 km/h
411 27-07-2010 10:03:01 18 C 10.29 g/m*3 18 C 0 km/h
412 27-07-2010 10:15:02 17.9 C 10.23 g/m*3 17.9 C 0 km/h
413 27-07-2010 10:27:02 18.5 C 10.28 g/m*3 18.5 C 0 km/h
414 27-07-2010 10:39:01 19.2 C 9.89 g/m*3 19.2 C 0 km/h
415 27-07-2010 10:51:01 19 C 9.61 g/m*3 19 C 0 km/h
416 27-07-2010 11:03:01 19.2 C 9.73 g/m*3 19.2 C 0 km/h
417 27-07-2010 11:15:02 19.8 C 9.74 g/m*3 19.8 C 0 km/h
418 27-07-2010 11:27:02 20.4 C 9.73 g/m*3 20.4 C 0 km/h
419 27-07-2010 11:39:01 20.5 C 9.25 g/m*3 20.5 C 0 km/h
420 27-07-2010 11:51:02 21 C 9.34 g/m*3 21 C 0 km/h
421 27-07-2010 12:03:02 21.8 C 9.4 g/m*3 21.8 C 0 km/h
422 27-07-2010 12:15:02 22.5 C 8.99 g/m*3 22.5 C 0 km/h
423 27-07-2010 12:27:02 21.8 C 8.83 g/m*3 21.8 C 0 km/h
424 27-07-2010 12:39:02 21.6 C 9.29 g/m*3 21.6 C 0 km/h
425 27-07-2010 12:51:02 22.7 C 8.89 g/m*3 22.7 C 0 km/h
Sensor: Nr:Datum:Temp:Abs-Feuchte:Windchill:Wind:
Aussen-T/F 426 27-07-2010 13:03:02 23.5 C 8.46 g/m*3 23.5 C 0 km/h
427 27-07-2010 13:15:01 22.7 C 7.88 g/m*3 22.7 C 0 km/h
428 27-07-2010 13:27:01 23.1 C 8.27 g/m*3 23.1 C 0 km/h
429 27-07-2010 13:39:02 25.5 C 7.1 g/m*3 25.5 C 0 km/h
430 27-07-2010 13:51:02 25 C 7.6 g/m*3 25 C 0 km/h
431 27-07-2010 14:03:02 23.8 C 7.53 g/m*3 23.8 C 0 km/h
432 27-07-2010 14:15:01 24.4 C 7.79 g/m*3 24.4 C 0 km/h
433 27-07-2010 14:27:01 25.2 C 7.68 g/m*3 25.2 C 0 km/h
434 27-07-2010 14:39:02 24.4 C 7.57 g/m*3 24.4 C 0 km/h
435 27-07-2010 14:51:01 24.3 C 7.75 g/m*3 24.3 C 0 km/h
436 27-07-2010 15:03:02 24.3 C 7.75 g/m*3 24.3 C 0 km/h
437 27-07-2010 15:15:02 25.6 C 7.86 g/m*3 25.6 C 0 km/h
438 27-07-2010 15:27:02 25.4 C 7.53 g/m*3 25.4 C 0 km/h
439 27-07-2010 15:39:01 25.7 C 7.42 g/m*3 25.7 C 0 km/h
440 27-07-2010 15:51:02 25.9 C 7.26 g/m*3 25.9 C 0 km/h
441 27-07-2010 16:03:01 26.6 C 7.05 g/m*3 26.6 C 0 km/h
442 27-07-2010 16:15:02 28.5 C 7.27 g/m*3 28.5 C 0 km/h
443 27-07-2010 16:27:03 28.2 C 6.87 g/m*3 28.2 C 0 km/h
444 27-07-2010 16:39:01 28 C 6.8 g/m*3 28 C 0 km/h
445 27-07-2010 16:51:02 28.2 C 6.05 g/m*3 28.2 C 0 km/h
446 27-07-2010 17:03:02 28.7 C 5.93 g/m*3 28.7 C 0 km/h
447 27-07-2010 17:15:02 29.4 C 6.16 g/m*3 29.4 C 0 km/h
448 27-07-2010 17:27:02 28 C 5.71 g/m*3 28 C 0 km/h
449 27-07-2010 17:39:03 28.2 C 5.77 g/m*3 28.2 C 0 km/h
450 27-07-2010 17:51:02 27.3 C 7.33 g/m*3 27.3 C 0 km/h
Sensor: Nr:Datum:Temp:Abs-Feuchte:Windchill:Wind:
Aussen-T/F 451 27-07-2010 18:03:02 26.1 C 6.37 g/m*3 26.1 C 0 km/h
452 27-07-2010 18:15:01 25.8 C 7.46 g/m*3 25.8 C 0 km/h
453 27-07-2010 18:27:01 24.8 C 8.19 g/m*3 24.8 C 0 km/h
454 27-07-2010 18:39:02 24.3 C 7.97 g/m*3 24.3 C 0 km/h
455 27-07-2010 18:51:02 24.3 C 8.19 g/m*3 24.3 C 0 km/h
456 27-07-2010 19:03:02 24.2 C 8.58 g/m*3 24.2 C 0 km/h
457 27-07-2010 19:15:01 23.6 C 8.72 g/m*3 23.6 C 0 km/h
458 27-07-2010 19:27:01 23.3 C 8.78 g/m*3 23.3 C 0 km/h
459 27-07-2010 19:39:02 23 C 8.63 g/m*3 23 C 0 km/h
460 27-07-2010 19:51:01 23 C 8.43 g/m*3 23 C 0 km/h
461 27-07-2010 20:03:02 22.9 C 8.38 g/m*3 22.9 C 0 km/h
462 27-07-2010 20:15:02 22.2 C 8.25 g/m*3 22.2 C 0 km/h
463 27-07-2010 20:27:02 21.7 C 8.2 g/m*3 21.7 C 0 km/h
464 27-07-2010 20:39:01 21.7 C 8.58 g/m*3 21.7 C 0 km/h
465 27-07-2010 20:51:02 21.5 C 8.49 g/m*3 21.5 C 0 km/h
466 27-07-2010 21:03:01 21.2 C 8.52 g/m*3 21.2 C 0 km/h
467 27-07-2010 21:15:02 21 C 8.79 g/m*3 21 C 0 km/h
468 27-07-2010 21:27:03 20.4 C 8.49 g/m*3 20.4 C 0 km/h
469 27-07-2010 21:39:01 20 C 8.47 g/m*3 20 C 0 km/h
470 27-07-2010 21:51:03 19.7 C 9.17 g/m*3 19.7 C 0 km/h
471 27-07-2010 22:04:04 19.7 C 9.34 g/m*3 19.7 C 0 km/h
472 27-07-2010 22:16:04 19.3 C 9.12 g/m*3 19.3 C 0 km/h
473 27-07-2010 22:28:04 19 C 8.8 g/m*3 19 C 0 km/h
474 27-07-2010 22:40:05 18.8 C 9.18 g/m*3 18.8 C 0 km/h
475 27-07-2010 22:52:05 18.8 C 9.34 g/m*3 18.8 C 0 km/h
Sensor: Nr:Datum:Temp:Abs-Feuchte:Windchill:Wind:
Aussen-T/F 476 27-07-2010 23:04:05 18.6 C 9.39 g/m*3 18.6 C 0 km/h
477 27-07-2010 23:16:05 18.4 C 9.28 g/m*3 18.4 C 0 km/h
478 27-07-2010 23:28:05 18.4 C 9.44 g/m*3 18.4 C 0 km/h
479 27-07-2010 23:40:05 18.4 C 9.12 g/m*3 18.4 C 0 km/h
480 27-07-2010 23:52:05 18.4 C 9.44 g/m*3 18.4 C 0 km/h
481 28-07-2010 00:04:05 18.5 C 9.65 g/m*3 18.5 C 0 km/h
482 28-07-2010 00:16:05 18.5 C 9.81 g/m*3 18.5 C 0 km/h
483 28-07-2010 00:28:05 18.3 C 9.85 g/m*3 18.3 C 0 km/h
484 28-07-2010 00:40:05 18 C 9.83 g/m*3 18 C 0 km/h
485 28-07-2010 00:52:05 17.7 C 9.81 g/m*3 17.7 C 0 km/h
486 28-07-2010 01:04:05 17.5 C 9.69 g/m*3 17.5 C 0 km/h
487 28-07-2010 01:16:05 17.3 C 9.58 g/m*3 17.3 C 0 km/h
488 28-07-2010 01:28:05 17.2 C 9.81 g/m*3 17.2 C 0 km/h
489 28-07-2010 01:40:05 17.1 C 10.04 g/m*3 17.1 C 0 km/h
490 28-07-2010 01:52:05 16.7 C 10.09 g/m*3 16.7 C 0 km/h
491 28-07-2010 02:04:05 16.9 C 10.21 g/m*3 16.9 C 0 km/h
492 28-07-2010 02:16:05 17 C 9.98 g/m*3 17 C 0 km/h
493 28-07-2010 02:28:05 16.9 C 10.36 g/m*3 16.9 C 0 km/h
494 28-07-2010 02:40:05 17 C 10.27 g/m*3 17 C 0 km/h
495 28-07-2010 02:52:06 17 C 10.27 g/m*3 17 C 0 km/h
496 28-07-2010 03:04:06 17 C 10.27 g/m*3 17 C 0 km/h
497 28-07-2010 03:16:06 17 C 10.13 g/m*3 17 C 0 km/h
498 28-07-2010 03:28:06 17 C 10.27 g/m*3 17 C 0 km/h
499 28-07-2010 03:40:06 17.1 C 10.48 g/m*3 17.1 C 0 km/h
500 28-07-2010 03:52:06 17.1 C 10.48 g/m*3 17.1 C 0 km/h
Sensor: Nr:Datum:Temp:Abs-Feuchte:Windchill:Wind:
Aussen-T/F 501 28-07-2010 04:04:06 17 C 10.42 g/m*3 17 C 0 km/h
502 28-07-2010 04:16:06 17.1 C 10.48 g/m*3 17.1 C 0 km/h
503 28-07-2010 04:28:06 17 C 10.42 g/m*3 17 C 0 km/h
504 28-07-2010 04:40:06 16.9 C 10.5 g/m*3 16.9 C 0 km/h
505 28-07-2010 04:52:06 16.8 C 10.58 g/m*3 16.8 C 0 km/h
506 28-07-2010 05:04:06 16.8 C 10.58 g/m*3 16.8 C 0 km/h
507 28-07-2010 05:16:06 16.8 C 10.58 g/m*3 16.8 C 0 km/h
508 28-07-2010 05:28:06 16.8 C 10.58 g/m*3 16.8 C 0 km/h
509 28-07-2010 05:40:06 16.8 C 10.58 g/m*3 16.8 C 0 km/h
510 28-07-2010 05:52:06 17 C 10.56 g/m*3 17 C 0 km/h
511 28-07-2010 06:04:06 17.1 C 10.48 g/m*3 17.1 C 0 km/h
512 28-07-2010 06:16:06 17.2 C 10.54 g/m*3 17.2 C 0 km/h
513 28-07-2010 06:28:06 17.2 C 10.54 g/m*3 17.2 C 0 km/h
514 28-07-2010 06:40:06 16.9 C 11.08 g/m*3 16.9 C 0 km/h
515 28-07-2010 06:52:07 16.7 C 11.37 g/m*3 16.7 C 0 km/h
516 28-07-2010 07:04:04 16.4 C 11.58 g/m*3 16.4 C 0 km/h
517 28-07-2010 07:16:03 16.2 C 11.86 g/m*3 16.2 C 0 km/h
518 28-07-2010 07:28:03 16.3 C 12.21 g/m*3 16.3 C 0 km/h
519 28-07-2010 07:40:04 16.3 C 12.35 g/m*3 16.3 C 0 km/h
520 28-07-2010 07:52:01 16.4 C 12.56 g/m*3 16.4 C 0 km/h
521 28-07-2010 08:04:02 16.5 C 12.64 g/m*3 16.5 C 0 km/h
522 28-07-2010 08:16:02 16.6 C 12.71 g/m*3 16.6 C 0 km/h
523 28-07-2010 08:28:02 17 C 13.02 g/m*3 17 C 0 km/h
524 28-07-2010 08:40:01 17.6 C 13.5 g/m*3 17.6 C 0 km/h
525 28-07-2010 08:52:02 17.8 C 13.2 g/m*3 17.8 C 0 km/h
Sensor: Nr:Datum:Temp:Abs-Feuchte:Windchill:Wind:
Aussen-T/F 526 28-07-2010 09:04:01 18.1 C 12.98 g/m*3 18.1 C 0 km/h
527 28-07-2010 09:16:02 17.9 C 12.83 g/m*3 17.9 C 0 km/h
528 28-07-2010 09:28:02 17.4 C 12.6 g/m*3 17.4 C 0 km/h
529 28-07-2010 09:40:01 17.1 C 12.66 g/m*3 17.1 C 0 km/h
530 28-07-2010 09:52:02 17.3 C 12.82 g/m*3 17.3 C 0 km/h
531 28-07-2010 10:04:02 17.3 C 12.96 g/m*3 17.3 C 0 km/h
532 28-07-2010 10:16:02 17.6 C 13.2 g/m*3 17.6 C 0 km/h
533 28-07-2010 10:28:02 17.6 C 13.05 g/m*3 17.6 C 0 km/h
534 28-07-2010 10:40:02 17.9 C 13.59 g/m*3 17.9 C 0 km/h
535 28-07-2010 10:52:01 18.1 C 13.44 g/m*3 18.1 C 0 km/h
536 28-07-2010 11:04:02 18.8 C 14.01 g/m*3 18.8 C 0 km/h
537 28-07-2010 11:16:01 19.7 C 13.92 g/m*3 19.7 C 0 km/h
538 28-07-2010 11:28:01 20.6 C 13.24 g/m*3 20.6 C 0 km/h
539 28-07-2010 11:40:01 20.7 C 13.14 g/m*3 20.7 C 0 km/h
540 28-07-2010 11:52:01 21.5 C 13.39 g/m*3 21.5 C 0 km/h
541 28-07-2010 12:04:01 21.3 C 13.23 g/m*3 21.3 C 0 km/h
542 28-07-2010 12:16:02 20.8 C 12.86 g/m*3 20.8 C 0 km/h
543 28-07-2010 12:28:02 21.5 C 12.82 g/m*3 21.5 C 0 km/h
544 28-07-2010 12:40:01 21.4 C 13.12 g/m*3 21.4 C 0 km/h
545 28-07-2010 12:52:02 21.1 C 13.08 g/m*3 21.1 C 0 km/h
546 28-07-2010 13:04:02 21 C 12.82 g/m*3 21 C 0 km/h
547 28-07-2010 13:16:02 21.5 C 13.39 g/m*3 21.5 C 0 km/h
548 28-07-2010 13:28:02 24.7 C 12.9 g/m*3 24.7 C 0 km/h
549 28-07-2010 13:40:02 25.7 C 11.25 g/m*3 25.7 C 0 km/h
550 28-07-2010 13:52:02 25.8 C 9.87 g/m*3 25.8 C 0 km/h
Sensor: Nr:Datum:Temp:Abs-Feuchte:Windchill:Wind:
Aussen-T/F 551 28-07-2010 14:04:02 24.7 C 10.41 g/m*3 24.7 C 0 km/h
552 28-07-2010 14:16:02 25.4 C 9.89 g/m*3 25.4 C 0 km/h
553 28-07-2010 14:28:02 25.8 C 9.15 g/m*3 25.8 C 0 km/h
554 28-07-2010 14:40:02 26.3 C 8.66 g/m*3 26.3 C 0 km/h
555 28-07-2010 14:52:02 26.5 C 8.26 g/m*3 26.5 C 0 km/h
556 28-07-2010 15:04:02 26.4 C 8.21 g/m*3 26.4 C 0 km/h
557 28-07-2010 15:16:02 26.4 C 8.46 g/m*3 26.4 C 0 km/h
558 28-07-2010 15:28:02 25.8 C 7.46 g/m*3 25.8 C 0 km/h
559 28-07-2010 15:40:02 25.2 C 7.22 g/m*3 25.2 C 0 km/h
560 28-07-2010 15:52:02 26.2 C 7.14 g/m*3 26.2 C 0 km/h
561 28-07-2010 16:04:02 27.1 C 6.73 g/m*3 27.1 C 0 km/h
562 28-07-2010 16:16:03 27.2 C 7.29 g/m*3 27.2 C 0 km/h
563 28-07-2010 16:28:03 27.7 C 7.22 g/m*3 27.7 C 0 km/h
564 28-07-2010 16:40:02 28.2 C 6.87 g/m*3 28.2 C 0 km/h
565 28-07-2010 16:52:03 28.7 C 7.06 g/m*3 28.7 C 0 km/h
566 28-07-2010 17:04:02 28.7 C 6.78 g/m*3 28.7 C 0 km/h
567 28-07-2010 17:16:02 29.6 C 7.12 g/m*3 29.6 C 0 km/h
568 28-07-2010 17:28:02 29 C 6.61 g/m*3 29 C 0 km/h
569 28-07-2010 17:40:02 28.9 C 6.57 g/m*3 28.9 C 0 km/h
570 28-07-2010 17:52:02 27.8 C 6.19 g/m*3 27.8 C 0 km/h
571 28-07-2010 18:04:01 28.4 C 6.67 g/m*3 28.4 C 0 km/h
572 28-07-2010 18:16:02 28.2 C 6.6 g/m*3 28.2 C 0 km/h
573 28-07-2010 18:28:02 26.2 C 6.4 g/m*3 26.2 C 0 km/h
574 28-07-2010 18:40:02 25.6 C 6.67 g/m*3 25.6 C 0 km/h
575 28-07-2010 18:52:01 25.3 C 7.02 g/m*3 25.3 C 0 km/h
Sensor: Nr:Datum:Temp:Abs-Feuchte:Windchill:Wind:
Aussen-T/F 576 28-07-2010 19:04:02 24.5 C 8.73 g/m*3 24.5 C 0 km/h
577 28-07-2010 19:16:01 22.6 C 9.44 g/m*3 22.6 C 0 km/h
578 28-07-2010 19:28:01 21.7 C 10.87 g/m*3 21.7 C 0 km/h
579 28-07-2010 19:40:01 21.8 C 10.55 g/m*3 21.8 C 0 km/h
580 28-07-2010 19:52:01 21.9 C 10.42 g/m*3 21.9 C 0 km/h
581 28-07-2010 20:04:02 21.9 C 10.23 g/m*3 21.9 C 0 km/h
582 28-07-2010 20:16:01 22 C 9.9 g/m*3 22 C 0 km/h
583 28-07-2010 20:28:01 22.1 C 9.96 g/m*3 22.1 C 0 km/h
584 28-07-2010 20:40:02 21.6 C 10.24 g/m*3 21.6 C 0 km/h
585 28-07-2010 20:52:02 21.3 C 10.62 g/m*3 21.3 C 0 km/h
586 28-07-2010 21:04:02 21 C 10.44 g/m*3 21 C 0 km/h
587 28-07-2010 21:16:02 20.8 C 10.5 g/m*3 20.8 C 0 km/h
588 28-07-2010 21:28:02 20.7 C 10.62 g/m*3 20.7 C 0 km/h
589 28-07-2010 21:40:02 20.4 C 10.79 g/m*3 20.4 C 0 km/h
590 28-07-2010 21:52:02 20.1 C 10.78 g/m*3 20.1 C 0 km/h
591 28-07-2010 22:04:02 20 C 11.06 g/m*3 20 C 0 km/h
592 28-07-2010 22:17:02 19.8 C 11.44 g/m*3 19.8 C 0 km/h
593 28-07-2010 22:29:02 19.8 C 11.1 g/m*3 19.8 C 0 km/h
594 28-07-2010 22:41:02 19.7 C 11.38 g/m*3 19.7 C 0 km/h
595 28-07-2010 22:53:02 19.6 C 11.31 g/m*3 19.6 C 0 km/h
596 28-07-2010 23:05:02 19.3 C 11.78 g/m*3 19.3 C 0 km/h
597 28-07-2010 23:17:02 18.3 C 12.98 g/m*3 18.3 C 0 km/h
598 28-07-2010 23:29:02 18.2 C 13.37 g/m*3 18.2 C 0 km/h
599 28-07-2010 23:41:02 18.1 C 13.44 g/m*3 18.1 C 0 km/h
600 28-07-2010 23:53:02 18 C 13.36 g/m*3 18 C 0 km/h
Sensor: Nr:Datum:Temp:Abs-Feuchte:Windchill:Wind:
Aussen-T/F 601 29-07-2010 00:05:02 17.7 C 13.43 g/m*3 17.7 C 0 km/h
602 29-07-2010 00:17:02 17.5 C 13.27 g/m*3 17.5 C 0 km/h
603 29-07-2010 00:29:02 17.2 C 13.03 g/m*3 17.2 C 0 km/h
604 29-07-2010 00:41:02 16.9 C 13.09 g/m*3 16.9 C 0 km/h
605 29-07-2010 00:53:02 16.5 C 12.78 g/m*3 16.5 C 0 km/h
606 29-07-2010 01:05:02 16.4 C 12.84 g/m*3 16.4 C 0 km/h
607 29-07-2010 01:17:02 16.2 C 12.69 g/m*3 16.2 C 0 km/h
608 29-07-2010 01:29:02 16.1 C 12.61 g/m*3 16.1 C 0 km/h
609 29-07-2010 01:41:02 15.9 C 12.59 g/m*3 15.9 C 0 km/h
610 29-07-2010 01:53:02 15.7 C 12.44 g/m*3 15.7 C 0 km/h
611 29-07-2010 02:05:02 15.4 C 12.22 g/m*3 15.4 C 0 km/h
612 29-07-2010 02:17:03 15.2 C 12.07 g/m*3 15.2 C 0 km/h
613 29-07-2010 02:29:03 15.1 C 12 g/m*3 15.1 C 0 km/h
614 29-07-2010 02:41:03 15 C 11.93 g/m*3 15 C 0 km/h
615 29-07-2010 02:53:03 15.1 C 12 g/m*3 15.1 C 0 km/h
616 29-07-2010 03:05:03 15 C 11.93 g/m*3 15 C 0 km/h
617 29-07-2010 03:17:03 14.8 C 11.91 g/m*3 14.8 C 0 km/h
618 29-07-2010 03:29:03 14.7 C 11.83 g/m*3 14.7 C 0 km/h
619 29-07-2010 03:41:03 14.6 C 11.76 g/m*3 14.6 C 0 km/h
620 29-07-2010 03:53:03 14.7 C 11.83 g/m*3 14.7 C 0 km/h
621 29-07-2010 04:05:03 14.6 C 11.76 g/m*3 14.6 C 0 km/h
622 29-07-2010 04:17:03 14.4 C 11.62 g/m*3 14.4 C 0 km/h
623 29-07-2010 04:29:03 14.3 C 11.55 g/m*3 14.3 C 0 km/h
624 29-07-2010 04:41:03 14.6 C 11.76 g/m*3 14.6 C 0 km/h
625 29-07-2010 04:53:03 14.3 C 11.55 g/m*3 14.3 C 0 km/h
Sensor: Nr:Datum:Temp:Abs-Feuchte:Windchill:Wind:
Aussen-T/F 626 29-07-2010 05:05:03 14.1 C 11.41 g/m*3 14.1 C 0 km/h
627 29-07-2010 05:17:03 14.1 C 11.41 g/m*3 14.1 C 0 km/h
628 29-07-2010 05:29:03 14.4 C 11.62 g/m*3 14.4 C 0 km/h
629 29-07-2010 05:41:03 14.7 C 11.83 g/m*3 14.7 C 0 km/h
630 29-07-2010 05:53:03 14.4 C 11.74 g/m*3 14.4 C 0 km/h
631 29-07-2010 06:05:03 14.5 C 11.82 g/m*3 14.5 C 0 km/h
632 29-07-2010 06:17:03 14.6 C 11.89 g/m*3 14.6 C 0 km/h
633 29-07-2010 06:29:04 14.7 C 11.96 g/m*3 14.7 C 0 km/h
634 29-07-2010 06:41:04 14.7 C 11.96 g/m*3 14.7 C 0 km/h
635 29-07-2010 06:53:04 14.6 C 11.89 g/m*3 14.6 C 0 km/h
636 29-07-2010 07:05:02 14.7 C 11.96 g/m*3 14.7 C 0 km/h
637 29-07-2010 07:17:02 14.8 C 12.03 g/m*3 14.8 C 0 km/h
638 29-07-2010 07:29:02 15 C 12.05 g/m*3 15 C 0 km/h
639 29-07-2010 07:41:02 15 C 12.18 g/m*3 15 C 0 km/h
640 29-07-2010 07:53:02 14.9 C 12.11 g/m*3 14.9 C 0 km/h
641 29-07-2010 08:05:02 14.8 C 12.03 g/m*3 14.8 C 0 km/h
642 29-07-2010 08:17:02 15.2 C 12.33 g/m*3 15.2 C 0 km/h
643 29-07-2010 08:29:02 15.7 C 12.71 g/m*3 15.7 C 0 km/h
644 29-07-2010 08:41:02 15.6 C 12.63 g/m*3 15.6 C 0 km/h
645 29-07-2010 08:53:02 15.6 C 12.63 g/m*3 15.6 C 0 km/h
646 29-07-2010 09:05:02 15.6 C 12.5 g/m*3 15.6 C 0 km/h
647 29-07-2010 09:17:02 15.3 C 12.14 g/m*3 15.3 C 0 km/h
648 29-07-2010 09:29:02 15.4 C 12.22 g/m*3 15.4 C 0 km/h
649 29-07-2010 09:41:02 15.7 C 12.31 g/m*3 15.7 C 0 km/h
650 29-07-2010 09:53:02 15.4 C 11.96 g/m*3 15.4 C 0 km/h
Sensor: Nr:Datum:Temp:Abs-Feuchte:Windchill:Wind:
Aussen-T/F 651 29-07-2010 10:05:01 15.2 C 11.68 g/m*3 15.2 C 0 km/h
652 29-07-2010 10:17:02 15.4 C 11.82 g/m*3 15.4 C 0 km/h
653 29-07-2010 10:29:02 15.7 C 12.04 g/m*3 15.7 C 0 km/h
654 29-07-2010 10:41:02 15.1 C 11.48 g/m*3 15.1 C 0 km/h
655 29-07-2010 10:53:02 14.7 C 11.33 g/m*3 14.7 C 0 km/h
656 29-07-2010 11:05:03 14.8 C 11.53 g/m*3 14.8 C 0 km/h
657 29-07-2010 11:17:02 13.9 C 10.91 g/m*3 13.9 C 0 km/h
658 29-07-2010 11:29:02 14.3 C 11.18 g/m*3 14.3 C 0 km/h
659 29-07-2010 11:41:02 15.1 C 11.74 g/m*3 15.1 C 0 km/h
660 29-07-2010 11:53:01 15.1 C 11.74 g/m*3 15.1 C 0 km/h
661 29-07-2010 12:05:02 16.2 C 12.41 g/m*3 16.2 C 0 km/h
662 29-07-2010 12:17:01 17.2 C 12.89 g/m*3 17.2 C 0 km/h
663 29-07-2010 12:29:01 17.5 C 12.82 g/m*3 17.5 C 0 km/h
664 29-07-2010 12:41:01 17.7 C 12.52 g/m*3 17.7 C 0 km/h
665 29-07-2010 12:53:01 17.8 C 12.29 g/m*3 17.8 C 0 km/h
666 29-07-2010 13:05:01 18.1 C 12.05 g/m*3 18.1 C 0 km/h
667 29-07-2010 13:17:02 19.1 C 11.97 g/m*3 19.1 C 0 km/h
668 29-07-2010 13:29:02 19.9 C 11 g/m*3 19.9 C 0 km/h
669 29-07-2010 13:41:01 18.7 C 10.25 g/m*3 18.7 C 0 km/h
670 29-07-2010 13:53:03 16.4 C 10.19 g/m*3 16.4 C 0 km/h
671 29-07-2010 14:05:02 16.4 C 11.03 g/m*3 16.4 C 0 km/h
672 29-07-2010 14:17:02 16.6 C 11.16 g/m*3 16.6 C 0 km/h
673 29-07-2010 14:29:02 17.4 C 11.12 g/m*3 17.4 C 0 km/h
674 29-07-2010 14:41:02 19.1 C 11.31 g/m*3 19.1 C 0 km/h
675 29-07-2010 14:53:02 19.3 C 9.79 g/m*3 19.3 C 0 km/h
Sensor: Nr:Datum:Temp:Abs-Feuchte:Windchill:Wind:
Aussen-T/F 676 29-07-2010 15:05:01 19.2 C 9.73 g/m*3 19.2 C 0 km/h
677 29-07-2010 15:17:02 19 C 9.94 g/m*3 19 C 0 km/h
678 29-07-2010 15:29:02 17.5 C 10.59 g/m*3 17.5 C 0 km/h
679 29-07-2010 15:41:02 17.3 C 11.05 g/m*3 17.3 C 0 km/h
680 29-07-2010 15:53:02 18.2 C 12.28 g/m*3 18.2 C 0 km/h
681 29-07-2010 16:05:03 19.7 C 12.57 g/m*3 19.7 C 0 km/h
682 29-07-2010 16:17:02 21.1 C 11.61 g/m*3 21.1 C 0 km/h
683 29-07-2010 16:29:02 21.8 C 11.13 g/m*3 21.8 C 0 km/h
684 29-07-2010 16:41:02 18.8 C 9.66 g/m*3 18.8 C 0 km/h
685 29-07-2010 16:53:01 16.8 C 9.72 g/m*3 16.8 C 0 km/h
686 29-07-2010 17:05:02 16.1 C 10.01 g/m*3 16.1 C 0 km/h
687 29-07-2010 17:17:01 16.7 C 11.37 g/m*3 16.7 C 0 km/h
688 29-07-2010 17:29:01 17.7 C 11.92 g/m*3 17.7 C 0 km/h
689 29-07-2010 17:41:01 17.8 C 11.38 g/m*3 17.8 C 0 km/h
690 29-07-2010 17:53:01 17.3 C 11.2 g/m*3 17.3 C 0 km/h
691 29-07-2010 18:05:01 17.3 C 11.05 g/m*3 17.3 C 0 km/h
692 29-07-2010 18:17:02 17.4 C 11.12 g/m*3 17.4 C 0 km/h
693 29-07-2010 18:29:02 17.8 C 11.38 g/m*3 17.8 C 0 km/h
694 29-07-2010 18:41:01 18.1 C 11.59 g/m*3 18.1 C 0 km/h
695 29-07-2010 18:53:03 18.5 C 11.39 g/m*3 18.5 C 0 km/h
696 29-07-2010 19:05:02 18.1 C 10.51 g/m*3 18.1 C 0 km/h
697 29-07-2010 19:17:02 18 C 9.52 g/m*3 18 C 0 km/h
698 29-07-2010 19:29:02 18.5 C 9.65 g/m*3 18.5 C 0 km/h
699 29-07-2010 19:41:02 18.7 C 9.45 g/m*3 18.7 C 0 km/h
700 29-07-2010 19:53:02 18.4 C 9.28 g/m*3 18.4 C 0 km/h
Sensor: Nr:Datum:Temp:Abs-Feuchte:Windchill:Wind:
Aussen-T/F 701 29-07-2010 20:05:02 17.9 C 9.77 g/m*3 17.9 C 0 km/h
702 29-07-2010 20:17:02 17.7 C 9.66 g/m*3 17.7 C 0 km/h
703 29-07-2010 20:29:02 17.7 C 9.66 g/m*3 17.7 C 0 km/h
704 29-07-2010 20:41:02 17.5 C 9.39 g/m*3 17.5 C 0 km/h
705 29-07-2010 20:53:02 17.2 C 9.08 g/m*3 17.2 C 0 km/h
706 29-07-2010 21:05:02 16.8 C 9.15 g/m*3 16.8 C 0 km/h
707 29-07-2010 21:17:02 16.1 C 9.6 g/m*3 16.1 C 0 km/h
708 29-07-2010 21:29:02 15.9 C 10.16 g/m*3 15.9 C 0 km/h
709 29-07-2010 21:41:01 15.8 C 10.36 g/m*3 15.8 C 0 km/h
710 29-07-2010 21:53:02 15.6 C 10.24 g/m*3 15.6 C 0 km/h
711 29-07-2010 22:06:03 15.6 C 10.37 g/m*3 15.6 C 0 km/h
712 29-07-2010 22:18:03 15.6 C 9.97 g/m*3 15.6 C 0 km/h
713 29-07-2010 22:30:03 15.7 C 9.77 g/m*3 15.7 C 0 km/h
714 29-07-2010 22:42:03 15.7 C 9.77 g/m*3 15.7 C 0 km/h
715 29-07-2010 22:54:03 15.7 C 9.63 g/m*3 15.7 C 0 km/h
716 29-07-2010 23:06:03 15.7 C 9.63 g/m*3 15.7 C 0 km/h
717 29-07-2010 23:18:03 15.8 C 9.56 g/m*3 15.8 C 0 km/h
718 29-07-2010 23:30:03 15.8 C 9.56 g/m*3 15.8 C 0 km/h
719 29-07-2010 23:42:03 15.8 C 9.56 g/m*3 15.8 C 0 km/h
720 29-07-2010 23:54:03 15.4 C 9.72 g/m*3 15.4 C 0 km/h
721 30-07-2010 00:06:03 15.2 C 9.73 g/m*3 15.2 C 0 km/h
722 30-07-2010 00:18:04 15.2 C 9.86 g/m*3 15.2 C 0 km/h
723 30-07-2010 00:30:04 15.2 C 9.86 g/m*3 15.2 C 0 km/h
724 30-07-2010 00:42:04 15.2 C 9.86 g/m*3 15.2 C 0 km/h
725 30-07-2010 00:54:04 15.2 C 9.86 g/m*3 15.2 C 0 km/h
Sensor: Nr:Datum:Temp:Abs-Feuchte:Windchill:Wind:
Aussen-T/F 726 30-07-2010 01:06:04 15.2 C 9.86 g/m*3 15.2 C 0 km/h
727 30-07-2010 01:18:04 15.3 C 9.92 g/m*3 15.3 C 0 km/h
728 30-07-2010 01:30:04 15.2 C 9.86 g/m*3 15.2 C 0 km/h
729 30-07-2010 01:42:04 15.2 C 9.86 g/m*3 15.2 C 0 km/h
730 30-07-2010 01:54:04 15.1 C 9.8 g/m*3 15.1 C 0 km/h
731 30-07-2010 02:06:04 15.1 C 9.8 g/m*3 15.1 C 0 km/h
732 30-07-2010 02:18:04 14.9 C 9.94 g/m*3 14.9 C 0 km/h
733 30-07-2010 02:30:04 14.8 C 10.01 g/m*3 14.8 C 0 km/h
734 30-07-2010 02:42:04 14.5 C 9.83 g/m*3 14.5 C 0 km/h
735 30-07-2010 02:54:04 14.4 C 9.89 g/m*3 14.4 C 0 km/h
736 30-07-2010 03:06:04 14.4 C 10.01 g/m*3 14.4 C 0 km/h
737 30-07-2010 03:18:04 14.6 C 10.26 g/m*3 14.6 C 0 km/h
738 30-07-2010 03:30:04 14.8 C 10.39 g/m*3 14.8 C 0 km/h
739 30-07-2010 03:42:04 14.6 C 10.26 g/m*3 14.6 C 0 km/h
740 30-07-2010 03:54:04 14.6 C 10.26 g/m*3 14.6 C 0 km/h
741 30-07-2010 04:06:04 14.5 C 10.32 g/m*3 14.5 C 0 km/h
742 30-07-2010 04:18:05 14.5 C 10.32 g/m*3 14.5 C 0 km/h
743 30-07-2010 04:30:05 14.4 C 10.38 g/m*3 14.4 C 0 km/h
744 30-07-2010 04:42:05 14.3 C 10.44 g/m*3 14.3 C 0 km/h
745 30-07-2010 04:54:05 14.4 C 10.51 g/m*3 14.4 C 0 km/h
746 30-07-2010 05:06:05 14.6 C 10.64 g/m*3 14.6 C 0 km/h
747 30-07-2010 05:18:05 14.7 C 10.58 g/m*3 14.7 C 0 km/h
748 30-07-2010 05:30:05 14.7 C 10.58 g/m*3 14.7 C 0 km/h
749 30-07-2010 05:42:05 14.7 C 10.58 g/m*3 14.7 C 0 km/h
750 30-07-2010 05:54:05 14.8 C 10.64 g/m*3 14.8 C 0 km/h
Sensor: Nr:Datum:Temp:Abs-Feuchte:Windchill:Wind:
Aussen-T/F 751 30-07-2010 06:06:05 14.8 C 10.51 g/m*3 14.8 C 0 km/h
752 30-07-2010 06:18:02 14.7 C 10.45 g/m*3 14.7 C 0 km/h
753 30-07-2010 06:30:02 14.7 C 10.58 g/m*3 14.7 C 0 km/h
754 30-07-2010 06:42:03 14.8 C 10.51 g/m*3 14.8 C 0 km/h
755 30-07-2010 06:54:02 14.8 C 10.51 g/m*3 14.8 C 0 km/h
756 30-07-2010 07:06:02 14.9 C 10.58 g/m*3 14.9 C 0 km/h
757 30-07-2010 07:18:02 15.1 C 10.45 g/m*3 15.1 C 0 km/h
758 30-07-2010 07:30:02 15.3 C 10.58 g/m*3 15.3 C 0 km/h
759 30-07-2010 07:42:02 15.2 C 10.38 g/m*3 15.2 C 0 km/h
760 30-07-2010 07:54:02 15.4 C 10.64 g/m*3 15.4 C 0 km/h
761 30-07-2010 08:06:02 15.6 C 10.64 g/m*3 15.6 C 0 km/h
762 30-07-2010 08:18:02 15.8 C 10.63 g/m*3 15.8 C 0 km/h
763 30-07-2010 08:30:02 16.2 C 10.62 g/m*3 16.2 C 0 km/h
764 30-07-2010 08:42:01 16.6 C 10.59 g/m*3 16.6 C 0 km/h
765 30-07-2010 08:54:02 17.2 C 10.25 g/m*3 17.2 C 0 km/h
766 30-07-2010 09:06:01 17.3 C 9.72 g/m*3 17.3 C 0 km/h
767 30-07-2010 09:18:01 16.7 C 9.81 g/m*3 16.7 C 0 km/h
768 30-07-2010 09:30:01 16.4 C 9.91 g/m*3 16.4 C 0 km/h
769 30-07-2010 09:42:02 17.7 C 10.11 g/m*3 17.7 C 0 km/h
770 30-07-2010 09:54:02 18.2 C 9.33 g/m*3 18.2 C 0 km/h
771 30-07-2010 10:06:01 18 C 9.06 g/m*3 18 C 0 km/h
772 30-07-2010 10:18:01 19.5 C 9.06 g/m*3 19.5 C 0 km/h
773 30-07-2010 10:30:02 19.1 C 9.02 g/m*3 19.1 C 0 km/h
774 30-07-2010 10:42:01 18.9 C 8.91 g/m*3 18.9 C 0 km/h
775 30-07-2010 10:54:02 19.5 C 8.89 g/m*3 19.5 C 0 km/h
Sensor: Nr:Datum:Temp:Abs-Feuchte:Windchill:Wind:
Aussen-T/F 776 30-07-2010 11:06:02 19.8 C 8.71 g/m*3 19.8 C 0 km/h
777 30-07-2010 11:18:02 21.1 C 8.66 g/m*3 21.1 C 0 km/h
778 30-07-2010 11:30:02 22.6 C 8.64 g/m*3 22.6 C 0 km/h
779 30-07-2010 11:42:02 23.8 C 8.17 g/m*3 23.8 C 0 km/h
780 30-07-2010 11:54:01 22.7 C 7.27 g/m*3 22.7 C 0 km/h
781 30-07-2010 12:06:02 21.1 C 7.74 g/m*3 21.1 C 0 km/h
782 30-07-2010 12:18:01 21 C 8.24 g/m*3 21 C 0 km/h
783 30-07-2010 12:30:01 21.3 C 8.39 g/m*3 21.3 C 0 km/h
784 30-07-2010 12:42:01 21.7 C 8.97 g/m*3 21.7 C 0 km/h
785 30-07-2010 12:54:01 22.6 C 8.24 g/m*3 22.6 C 0 km/h
786 30-07-2010 13:06:02 24.5 C 7.61 g/m*3 24.5 C 0 km/h
787 30-07-2010 13:18:01 26.3 C 7.43 g/m*3 26.3 C 0 km/h
788 30-07-2010 13:30:01 24.2 C 7.26 g/m*3 24.2 C 0 km/h
789 30-07-2010 13:42:01 22.5 C 7.39 g/m*3 22.5 C 0 km/h
790 30-07-2010 13:54:01 22.5 C 7.59 g/m*3 22.5 C 0 km/h
791 30-07-2010 14:06:02 23.3 C 7.32 g/m*3 23.3 C 0 km/h
792 30-07-2010 14:18:02 24.3 C 7.52 g/m*3 24.3 C 0 km/h
793 30-07-2010 14:30:02 24.7 C 7.7 g/m*3 24.7 C 0 km/h
794 30-07-2010 14:42:01 24.8 C 7.97 g/m*3 24.8 C 0 km/h
795 30-07-2010 14:54:02 25.3 C 7.49 g/m*3 25.3 C 0 km/h
796 30-07-2010 15:06:01 25.7 C 7.18 g/m*3 25.7 C 0 km/h
797 30-07-2010 15:18:02 25.5 C 7.1 g/m*3 25.5 C 0 km/h
798 30-07-2010 15:30:02 25.4 C 7.3 g/m*3 25.4 C 0 km/h
799 30-07-2010 15:42:01 24.8 C 7.28 g/m*3 24.8 C 0 km/h
800 30-07-2010 15:54:03 24.3 C 6.86 g/m*3 24.3 C 0 km/h
Sensor: Nr:Datum:Temp:Abs-Feuchte:Windchill:Wind:
Aussen-T/F 801 30-07-2010 16:06:02 24.8 C 7.06 g/m*3 24.8 C 0 km/h
802 30-07-2010 16:18:02 26.4 C 6.47 g/m*3 26.4 C 0 km/h
803 30-07-2010 16:30:03 26.4 C 6.47 g/m*3 26.4 C 0 km/h
804 30-07-2010 16:42:02 26.5 C 6.76 g/m*3 26.5 C 0 km/h
805 30-07-2010 16:54:02 25.6 C 6.19 g/m*3 25.6 C 0 km/h
806 30-07-2010 17:06:01 26.9 C 6.91 g/m*3 26.9 C 0 km/h
807 30-07-2010 17:18:02 28.3 C 6.08 g/m*3 28.3 C 0 km/h
808 30-07-2010 17:30:02 26.9 C 6.4 g/m*3 26.9 C 0 km/h
809 30-07-2010 17:42:02 25.8 C 6.26 g/m*3 25.8 C 0 km/h
810 30-07-2010 17:54:02 26.2 C 6.4 g/m*3 26.2 C 0 km/h
811 30-07-2010 18:06:02 26.6 C 6.04 g/m*3 26.6 C 0 km/h
812 30-07-2010 18:18:02 26.2 C 6.15 g/m*3 26.2 C 0 km/h
813 30-07-2010 18:30:02 26.5 C 6.26 g/m*3 26.5 C 0 km/h
814 30-07-2010 18:42:02 26.8 C 5.85 g/m*3 26.8 C 0 km/h
815 30-07-2010 18:54:01 27.9 C 5.95 g/m*3 27.9 C 0 km/h
816 30-07-2010 19:06:02 27.9 C 6.49 g/m*3 27.9 C 0 km/h
817 30-07-2010 19:18:01 27 C 6.69 g/m*3 27 C 0 km/h
818 30-07-2010 19:30:01 25.9 C 6.54 g/m*3 25.9 C 0 km/h
819 30-07-2010 19:42:01 24.7 C 7.02 g/m*3 24.7 C 0 km/h
820 30-07-2010 19:54:01 24.6 C 7.88 g/m*3 24.6 C 0 km/h
821 30-07-2010 20:06:02 23.7 C 7.49 g/m*3 23.7 C 0 km/h
822 30-07-2010 20:18:02 23.2 C 7.28 g/m*3 23.2 C 0 km/h
823 30-07-2010 20:30:02 22.6 C 7.43 g/m*3 22.6 C 0 km/h
824 30-07-2010 20:42:01 21.9 C 7.72 g/m*3 21.9 C 0 km/h
825 30-07-2010 20:54:01 21.3 C 7.64 g/m*3 21.3 C 0 km/h
Sensor: Nr:Datum:Temp:Abs-Feuchte:Windchill:Wind:
Aussen-T/F 826 30-07-2010 21:06:01 20.5 C 7.65 g/m*3 20.5 C 0 km/h
827 30-07-2010 21:18:02 20.2 C 7.87 g/m*3 20.2 C 0 km/h
828 30-07-2010 21:30:02 19.9 C 7.73 g/m*3 19.9 C 0 km/h
829 30-07-2010 21:42:01 19.5 C 7.72 g/m*3 19.5 C 0 km/h
830 30-07-2010 21:54:03 19.1 C 7.54 g/m*3 19.1 C 0 km/h
831 30-07-2010 22:07:51 18.9 C 7.45 g/m*3 18.9 C 0 km/h
832 30-07-2010 22:19:51 18.6 C 7.32 g/m*3 18.6 C 0 km/h
833 30-07-2010 22:31:51 18.6 C 7.32 g/m*3 18.6 C 0 km/h
834 30-07-2010 22:43:51 18.3 C 7.66 g/m*3 18.3 C 0 km/h
835 30-07-2010 22:55:51 18.1 C 7.57 g/m*3 18.1 C 0 km/h
836 30-07-2010 23:07:52 17.6 C 8.4 g/m*3 17.6 C 0 km/h
837 30-07-2010 23:19:52 17.2 C 8.35 g/m*3 17.2 C 0 km/h
838 30-07-2010 23:31:52 17 C 8.54 g/m*3 17 C 0 km/h
839 30-07-2010 23:43:52 16.7 C 8.81 g/m*3 16.7 C 0 km/h
840 30-07-2010 23:55:52 16.5 C 8.57 g/m*3 16.5 C 0 km/h
841 31-07-2010 00:07:52 16.3 C 8.74 g/m*3 16.3 C 0 km/h
842 31-07-2010 00:19:52 16.2 C 8.69 g/m*3 16.2 C 0 km/h
843 31-07-2010 00:31:52 16 C 8.58 g/m*3 16 C 0 km/h
844 31-07-2010 00:43:52 15.6 C 8.78 g/m*3 15.6 C 0 km/h
845 31-07-2010 00:55:52 15.5 C 8.86 g/m*3 15.5 C 0 km/h
846 31-07-2010 01:07:52 15.3 C 8.88 g/m*3 15.3 C 0 km/h
847 31-07-2010 01:19:52 15 C 8.85 g/m*3 15 C 0 km/h
848 31-07-2010 01:31:52 14.8 C 8.87 g/m*3 14.8 C 0 km/h
849 31-07-2010 01:43:52 14.6 C 8.63 g/m*3 14.6 C 0 km/h
850 31-07-2010 01:55:52 14.5 C 8.71 g/m*3 14.5 C 0 km/h
Sensor: Nr:Datum:Temp:Abs-Feuchte:Windchill:Wind:
Aussen-T/F 851 31-07-2010 02:07:52 14.3 C 8.6 g/m*3 14.3 C 0 km/h
852 31-07-2010 02:19:52 14.2 C 8.67 g/m*3 14.2 C 0 km/h
853 31-07-2010 02:31:52 13.9 C 8.63 g/m*3 13.9 C 0 km/h
854 31-07-2010 02:43:52 14 C 8.68 g/m*3 14 C 0 km/h
855 31-07-2010 02:55:52 13.8 C 8.7 g/m*3 13.8 C 0 km/h
856 31-07-2010 03:07:52 13.6 C 8.71 g/m*3 13.6 C 0 km/h
857 31-07-2010 03:19:53 13.4 C 8.6 g/m*3 13.4 C 0 km/h
858 31-07-2010 03:31:53 13.4 C 8.72 g/m*3 13.4 C 0 km/h
859 31-07-2010 03:43:53 13.2 C 8.61 g/m*3 13.2 C 0 km/h
860 31-07-2010 03:55:53 13.1 C 8.56 g/m*3 13.1 C 0 km/h
861 31-07-2010 04:07:53 12.9 C 8.68 g/m*3 12.9 C 0 km/h
862 31-07-2010 04:19:53 12.8 C 8.62 g/m*3 12.8 C 0 km/h
863 31-07-2010 04:31:53 12.7 C 8.68 g/m*3 12.7 C 0 km/h
864 31-07-2010 04:43:53 12.6 C 8.63 g/m*3 12.6 C 0 km/h
865 31-07-2010 04:55:53 12.5 C 8.69 g/m*3 12.5 C 0 km/h
866 31-07-2010 05:07:53 12.4 C 8.63 g/m*3 12.4 C 0 km/h
867 31-07-2010 05:19:53 12.4 C 8.74 g/m*3 12.4 C 0 km/h
868 31-07-2010 05:31:53 12.2 C 8.63 g/m*3 12.2 C 0 km/h
869 31-07-2010 05:43:53 12.2 C 8.63 g/m*3 12.2 C 0 km/h
870 31-07-2010 05:55:53 12.1 C 8.69 g/m*3 12.1 C 0 km/h
871 31-07-2010 06:07:53 12.1 C 8.79 g/m*3 12.1 C 0 km/h
872 31-07-2010 06:19:53 12 C 8.74 g/m*3 12 C 0 km/h
873 31-07-2010 06:31:53 11.9 C 8.79 g/m*3 11.9 C 0 km/h
874 31-07-2010 06:43:53 12 C 8.74 g/m*3 12 C 0 km/h
875 31-07-2010 06:55:53 12.1 C 8.79 g/m*3 12.1 C 0 km/h
Sensor: Nr:Datum:Temp:Abs-Feuchte:Windchill:Wind:
Aussen-T/F 876 31-07-2010 07:07:53 12.1 C 8.9 g/m*3 12.1 C 0 km/h
877 31-07-2010 07:19:54 12.3 C 9.01 g/m*3 12.3 C 0 km/h
878 31-07-2010 07:31:54 12.7 C 9.24 g/m*3 12.7 C 0 km/h
879 31-07-2010 07:43:54 12.9 C 9.24 g/m*3 12.9 C 0 km/h
880 31-07-2010 07:55:54 13 C 9.19 g/m*3 13 C 0 km/h
881 31-07-2010 08:07:54 13.1 C 9.24 g/m*3 13.1 C 0 km/h
882 31-07-2010 08:19:54 13.5 C 9.36 g/m*3 13.5 C 0 km/h
883 31-07-2010 08:31:54 14.1 C 9.34 g/m*3 14.1 C 0 km/h
884 31-07-2010 08:43:54 14.1 C 9.1 g/m*3 14.1 C 0 km/h
885 31-07-2010 08:55:02 14.4 C 9.27 g/m*3 14.4 C 0 km/h
886 31-07-2010 09:07:02 15.1 C 9.55 g/m*3 15.1 C 0 km/h
887 31-07-2010 09:19:01 15.6 C 9.58 g/m*3 15.6 C 0 km/h
888 31-07-2010 09:31:02 16 C 9.4 g/m*3 16 C 0 km/h
889 31-07-2010 09:43:02 17.2 C 9.67 g/m*3 17.2 C 0 km/h
890 31-07-2010 09:55:02 17.9 C 9.47 g/m*3 17.9 C 0 km/h
891 31-07-2010 10:07:02 19.7 C 9.51 g/m*3 19.7 C 0 km/h
892 31-07-2010 10:19:02 21.2 C 9.45 g/m*3 21.2 C 0 km/h
893 31-07-2010 10:31:02 22.5 C 9.19 g/m*3 22.5 C 0 km/h
894 31-07-2010 10:43:02 23.3 C 8.57 g/m*3 23.3 C 0 km/h
895 31-07-2010 10:55:01 23.3 C 8.15 g/m*3 23.3 C 0 km/h
896 31-07-2010 11:07:01 23.6 C 7.66 g/m*3 23.6 C 0 km/h
897 31-07-2010 11:19:01 23.5 C 7.4 g/m*3 23.5 C 0 km/h
898 31-07-2010 11:31:01 23.2 C 7.28 g/m*3 23.2 C 0 km/h
899 31-07-2010 11:43:01 23.5 C 7.4 g/m*3 23.5 C 0 km/h
900 31-07-2010 11:55:01 23.6 C 7.44 g/m*3 23.6 C 0 km/h
Sensor: Nr:Datum:Temp:Abs-Feuchte:Windchill:Wind:
Aussen-T/F 901 31-07-2010 12:07:01 23.6 C 7.02 g/m*3 23.6 C 0 km/h
902 31-07-2010 12:19:02 23.7 C 6.84 g/m*3 23.7 C 0 km/h
903 31-07-2010 12:31:01 24.4 C 6.9 g/m*3 24.4 C 0 km/h
904 31-07-2010 12:43:01 24.4 C 6.68 g/m*3 24.4 C 0 km/h
905 31-07-2010 12:55:02 24.5 C 6.71 g/m*3 24.5 C 0 km/h
906 31-07-2010 13:07:02 25.2 C 6.29 g/m*3 25.2 C 0 km/h
907 31-07-2010 13:19:02 25.3 C 6.55 g/m*3 25.3 C 0 km/h
908 31-07-2010 13:31:03 25.4 C 6.59 g/m*3 25.4 C 0 km/h
909 31-07-2010 13:43:03 25.8 C 6.74 g/m*3 25.8 C 0 km/h
910 31-07-2010 13:55:02 26.1 C 6.61 g/m*3 26.1 C 0 km/h
911 31-07-2010 14:07:02 26.8 C 6.36 g/m*3 26.8 C 0 km/h
912 31-07-2010 14:19:02 26.3 C 6.44 g/m*3 26.3 C 0 km/h
913 31-07-2010 14:31:02 27 C 6.69 g/m*3 27 C 0 km/h
914 31-07-2010 14:43:02 26.9 C 6.91 g/m*3 26.9 C 0 km/h
915 31-07-2010 14:55:02 27.2 C 6.77 g/m*3 27.2 C 0 km/h
916 31-07-2010 15:07:02 27.1 C 6.73 g/m*3 27.1 C 0 km/h
917 31-07-2010 15:19:02 27.9 C 6.76 g/m*3 27.9 C 0 km/h
918 31-07-2010 15:31:02 28.1 C 5.74 g/m*3 28.1 C 0 km/h
919 31-07-2010 15:43:02 27.7 C 6.15 g/m*3 27.7 C 0 km/h
920 31-07-2010 15:55:01 28.6 C 6.18 g/m*3 28.6 C 0 km/h
921 31-07-2010 16:07:01 29.3 C 6.13 g/m*3 29.3 C 0 km/h
922 31-07-2010 16:19:02 28.9 C 6 g/m*3 28.9 C 0 km/h
923 31-07-2010 16:31:01 29.4 C 5.87 g/m*3 29.4 C 0 km/h
924 31-07-2010 16:43:01 30.1 C 6.1 g/m*3 30.1 C 0 km/h
925 31-07-2010 16:55:01 29.5 C 5.9 g/m*3 29.5 C 0 km/h
Sensor: Nr:Datum:Temp:Abs-Feuchte:Windchill:Wind:
Aussen-T/F 926 31-07-2010 17:07:01 29 C 5.74 g/m*3 29 C 0 km/h
927 31-07-2010 17:19:02 30.1 C 6.1 g/m*3 30.1 C 0 km/h
928 31-07-2010 17:31:01 30 C 6.06 g/m*3 30 C 0 km/h
929 31-07-2010 17:43:01 30 C 6.06 g/m*3 30 C 0 km/h
930 31-07-2010 17:55:02 30.1 C 6.1 g/m*3 30.1 C 0 km/h
931 31-07-2010 18:07:02 30.2 C 6.13 g/m*3 30.2 C 0 km/h
932 31-07-2010 18:19:02 30.1 C 6.1 g/m*3 30.1 C 0 km/h
933 31-07-2010 18:31:02 29.9 C 6.03 g/m*3 29.9 C 0 km/h
934 31-07-2010 18:43:02 29.6 C 5.94 g/m*3 29.6 C 0 km/h
935 31-07-2010 18:55:02 29.5 C 6.2 g/m*3 29.5 C 0 km/h
936 31-07-2010 19:07:02 29.9 C 6.33 g/m*3 29.9 C 0 km/h
937 31-07-2010 19:19:02 29 C 6.61 g/m*3 29 C 0 km/h
938 31-07-2010 19:31:02 27.6 C 7.45 g/m*3 27.6 C 0 km/h
939 31-07-2010 19:43:02 26.8 C 7.89 g/m*3 26.8 C 0 km/h
940 31-07-2010 19:55:02 26.1 C 7.59 g/m*3 26.1 C 0 km/h
941 31-07-2010 20:07:02 25.6 C 8.09 g/m*3 25.6 C 0 km/h
942 31-07-2010 20:19:02 25.2 C 7.92 g/m*3 25.2 C 0 km/h
943 31-07-2010 20:31:02 24.5 C 8.28 g/m*3 24.5 C 0 km/h
944 31-07-2010 20:43:02 24 C 8.27 g/m*3 24 C 0 km/h
945 31-07-2010 20:55:02 23.7 C 8.34 g/m*3 23.7 C 0 km/h
946 31-07-2010 21:07:02 23.3 C 8.36 g/m*3 23.3 C 0 km/h
947 31-07-2010 21:19:02 23.1 C 8.27 g/m*3 23.1 C 0 km/h
948 31-07-2010 21:31:02 23.1 C 8.27 g/m*3 23.1 C 0 km/h
949 31-07-2010 21:43:02 23 C 8.43 g/m*3 23 C 0 km/h
950 31-07-2010 21:55:01 22.7 C 8.69 g/m*3 22.7 C 0 km/h
Sensor: Nr:Datum:Temp:Abs-Feuchte:Windchill:Wind:
Aussen-T/F 951 31-07-2010 22:07:01 22.5 C 8.99 g/m*3 22.5 C 0 km/h
952 31-07-2010 22:19:01 22.2 C 8.83 g/m*3 22.2 C 0 km/h
953 31-07-2010 22:31:01 22.2 C 8.64 g/m*3 22.2 C 0 km/h
954 31-07-2010 22:43:01 22.4 C 8.74 g/m*3 22.4 C 0 km/h
955 31-07-2010 22:55:02 20.8 C 10.5 g/m*3 20.8 C 0 km/h
956 31-07-2010 23:07:02 19.9 C 12.03 g/m*3 19.9 C 0 km/h
957 31-07-2010 23:19:02 20.3 C 11.78 g/m*3 20.3 C 0 km/h
958 31-07-2010 23:31:02 20.7 C 11.88 g/m*3 20.7 C 0 km/h
959 31-07-2010 23:43:02 20.8 C 11.59 g/m*3 20.8 C 0 km/h
960 31-07-2010 23:55:01 20.8 C 11.41 g/m*3 20.8 C 0 km/h
961 01-08-2010 00:07:02 19.5 C 11.92 g/m*3 19.5 C 0 km/h
962 01-08-2010 00:20:02 19.3 C 12.44 g/m*3 19.3 C 0 km/h
963 01-08-2010 00:32:02 19.6 C 12.66 g/m*3 19.6 C 0 km/h
964 01-08-2010 00:44:02 19.5 C 12.42 g/m*3 19.5 C 0 km/h
965 01-08-2010 00:56:02 19.1 C 12.46 g/m*3 19.1 C 0 km/h
966 01-08-2010 01:08:02 18.3 C 12.66 g/m*3 18.3 C 0 km/h
967 01-08-2010 01:20:02 18.1 C 12.98 g/m*3 18.1 C 0 km/h
968 01-08-2010 01:32:02 18.3 C 13.29 g/m*3 18.3 C 0 km/h
969 01-08-2010 01:44:02 18.5 C 13.45 g/m*3 18.5 C 0 km/h
970 01-08-2010 01:56:02 18.1 C 13.13 g/m*3 18.1 C 0 km/h
971 01-08-2010 02:08:02 18.1 C 13.29 g/m*3 18.1 C 0 km/h
972 01-08-2010 02:20:02 18.2 C 13.52 g/m*3 18.2 C 0 km/h
973 01-08-2010 02:32:02 18.1 C 13.29 g/m*3 18.1 C 0 km/h
974 01-08-2010 02:44:02 18.2 C 13.52 g/m*3 18.2 C 0 km/h
975 01-08-2010 02:56:03 17.9 C 13.28 g/m*3 17.9 C 0 km/h
Sensor: Nr:Datum:Temp:Abs-Feuchte:Windchill:Wind:
Aussen-T/F 976 01-08-2010 03:08:03 18 C 13.21 g/m*3 18 C 0 km/h
977 01-08-2010 03:20:03 18 C 13.21 g/m*3 18 C 0 km/h
978 01-08-2010 03:32:03 18 C 13.21 g/m*3 18 C 0 km/h
979 01-08-2010 03:44:03 17.9 C 13.13 g/m*3 17.9 C 0 km/h
980 01-08-2010 03:56:03 18 C 13.06 g/m*3 18 C 0 km/h
981 01-08-2010 04:08:03 17.9 C 12.98 g/m*3 17.9 C 0 km/h
982 01-08-2010 04:20:03 17.9 C 12.98 g/m*3 17.9 C 0 km/h
983 01-08-2010 04:32:03 17.8 C 12.9 g/m*3 17.8 C 0 km/h
984 01-08-2010 04:44:03 17.8 C 12.9 g/m*3 17.8 C 0 km/h
985 01-08-2010 04:56:03 17.8 C 12.9 g/m*3 17.8 C 0 km/h
986 01-08-2010 05:08:03 18 C 12.9 g/m*3 18 C 0 km/h
987 01-08-2010 05:20:03 18 C 12.75 g/m*3 18 C 0 km/h
988 01-08-2010 05:32:03 17.8 C 12.75 g/m*3 17.8 C 0 km/h
989 01-08-2010 05:44:03 17.6 C 12.75 g/m*3 17.6 C 0 km/h
990 01-08-2010 05:56:03 17.2 C 12.74 g/m*3 17.2 C 0 km/h
991 01-08-2010 06:08:04 17.3 C 12.96 g/m*3 17.3 C 0 km/h
992 01-08-2010 06:20:04 17.2 C 12.89 g/m*3 17.2 C 0 km/h
993 01-08-2010 06:32:04 17.3 C 13.11 g/m*3 17.3 C 0 km/h
994 01-08-2010 06:44:04 17.6 C 13.35 g/m*3 17.6 C 0 km/h
995 01-08-2010 06:56:04 17.7 C 13.43 g/m*3 17.7 C 0 km/h
996 01-08-2010 07:08:04 17.9 C 13.59 g/m*3 17.9 C 0 km/h
997 01-08-2010 07:20:04 18.1 C 13.6 g/m*3 18.1 C 0 km/h
998 01-08-2010 07:32:04 18.4 C 13.84 g/m*3 18.4 C 0 km/h
999 01-08-2010 07:44:04 18.4 C 13.68 g/m*3 18.4 C 0 km/h
1000 01-08-2010 07:56:04 18.9 C 13.93 g/m*3 18.9 C 0 km/h
Sensor: Nr:Datum:Temp:Abs-Feuchte:Windchill:Wind:
Aussen-T/F 1001 01-08-2010 08:08:04 19.2 C 13.85 g/m*3 19.2 C 0 km/h
1002 01-08-2010 08:20:04 19.5 C 13.93 g/m*3 19.5 C 0 km/h
1003 01-08-2010 08:32:04 19.6 C 13.84 g/m*3 19.6 C 0 km/h
1004 01-08-2010 08:44:04 20 C 13.65 g/m*3 20 C 0 km/h
1005 01-08-2010 08:56:04 20.1 C 13.56 g/m*3 20.1 C 0 km/h
1006 01-08-2010 09:08:03 20.2 C 13.46 g/m*3 20.2 C 0 km/h
1007 01-08-2010 09:20:02 20.9 C 13.84 g/m*3 20.9 C 0 km/h
1008 01-08-2010 09:32:03 21.1 C 13.63 g/m*3 21.1 C 0 km/h
1009 01-08-2010 09:44:03 21 C 13.37 g/m*3 21 C 0 km/h
1010 01-08-2010 09:56:01 21.1 C 13.45 g/m*3 21.1 C 0 km/h
1011 01-08-2010 10:08:02 21.2 C 13.53 g/m*3 21.2 C 0 km/h
1012 01-08-2010 10:20:02 21.5 C 13.77 g/m*3 21.5 C 0 km/h
1013 01-08-2010 10:32:01 21.6 C 13.66 g/m*3 21.6 C 0 km/h
1014 01-08-2010 10:44:01 22.2 C 13.35 g/m*3 22.2 C 0 km/h
1015 01-08-2010 10:56:03 23.2 C 13.51 g/m*3 23.2 C 0 km/h
1016 01-08-2010 11:08:03 23.3 C 13.38 g/m*3 23.3 C 0 km/h
1017 01-08-2010 11:20:02 23.6 C 12.97 g/m*3 23.6 C 0 km/h
1018 01-08-2010 11:32:02 24.3 C 13.06 g/m*3 24.3 C 0 km/h
1019 01-08-2010 11:44:02 24.5 C 12.98 g/m*3 24.5 C 0 km/h
1020 01-08-2010 11:56:02 24.6 C 12.15 g/m*3 24.6 C 0 km/h
1021 01-08-2010 12:08:02 24.8 C 12.29 g/m*3 24.8 C 0 km/h
1022 01-08-2010 12:20:01 24.6 C 10.13 g/m*3 24.6 C 0 km/h
1023 01-08-2010 12:32:02 25.3 C 10.77 g/m*3 25.3 C 0 km/h
1024 01-08-2010 12:44:02 25.9 C 10.17 g/m*3 25.9 C 0 km/h
1025 01-08-2010 12:56:02 26.7 C 10.12 g/m*3 26.7 C 0 km/h
Sensor: Nr:Datum:Temp:Abs-Feuchte:Windchill:Wind:
Aussen-T/F 1026 01-08-2010 13:08:02 27 C 9.52 g/m*3 27 C 0 km/h
1027 01-08-2010 13:20:02 26.8 C 9.42 g/m*3 26.8 C 0 km/h
1028 01-08-2010 13:32:02 27.6 C 9.58 g/m*3 27.6 C 0 km/h
1029 01-08-2010 13:44:02 28.8 C 9.94 g/m*3 28.8 C 0 km/h
1030 01-08-2010 13:56:02 29 C 8.62 g/m*3 29 C 0 km/h
1031 01-08-2010 14:08:02 29.4 C 8.81 g/m*3 29.4 C 0 km/h
1032 01-08-2010 14:20:02 28.6 C 8.15 g/m*3 28.6 C 0 km/h
1033 01-08-2010 14:32:02 28.6 C 7.87 g/m*3 28.6 C 0 km/h
1034 01-08-2010 14:44:02 29.4 C 7.63 g/m*3 29.4 C 0 km/h
1035 01-08-2010 14:56:02 29.1 C 7.22 g/m*3 29.1 C 0 km/h
1036 01-08-2010 15:08:02 29 C 7.47 g/m*3 29 C 0 km/h
1037 01-08-2010 15:20:02 30 C 7.28 g/m*3 30 C 0 km/h
1038 01-08-2010 15:32:02 30 C 6.97 g/m*3 30 C 0 km/h
1039 01-08-2010 15:44:02 30.2 C 7.36 g/m*3 30.2 C 0 km/h
1040 01-08-2010 15:56:02 31 C 7.04 g/m*3 31 C 0 km/h
1041 01-08-2010 16:08:01 30.9 C 6.68 g/m*3 30.9 C 0 km/h
1042 01-08-2010 16:20:02 30.7 C 6.93 g/m*3 30.7 C 0 km/h
1043 01-08-2010 16:32:02 30.2 C 7.36 g/m*3 30.2 C 0 km/h
1044 01-08-2010 16:44:02 30.6 C 7.2 g/m*3 30.6 C 0 km/h
1045 01-08-2010 16:56:01 30.9 C 7.32 g/m*3 30.9 C 0 km/h
1046 01-08-2010 17:08:02 31 C 6.72 g/m*3 31 C 0 km/h
1047 01-08-2010 17:20:01 30.7 C 7.24 g/m*3 30.7 C 0 km/h
1048 01-08-2010 17:32:01 30 C 7.58 g/m*3 30 C 0 km/h
1049 01-08-2010 17:44:02 29.3 C 7.88 g/m*3 29.3 C 0 km/h
1050 01-08-2010 17:56:02 29.5 C 7.67 g/m*3 29.5 C 0 km/h
Sensor: Nr:Datum:Temp:Abs-Feuchte:Windchill:Wind:
Aussen-T/F 1051 01-08-2010 18:08:02 29 C 7.47 g/m*3 29 C 0 km/h
1052 01-08-2010 18:20:02 29.4 C 7.93 g/m*3 29.4 C 0 km/h
1053 01-08-2010 18:32:02 28.7 C 7.63 g/m*3 28.7 C 0 km/h
1054 01-08-2010 18:44:02 27.6 C 9.31 g/m*3 27.6 C 0 km/h
1055 01-08-2010 18:56:02 27.1 C 9.32 g/m*3 27.1 C 0 km/h
1056 01-08-2010 19:08:02 26.8 C 9.42 g/m*3 26.8 C 0 km/h
1057 01-08-2010 19:20:02 26.4 C 9.21 g/m*3 26.4 C 0 km/h
1058 01-08-2010 19:32:02 25.5 C 9.47 g/m*3 25.5 C 0 km/h
1059 01-08-2010 19:44:02 25.3 C 9.6 g/m*3 25.3 C 0 km/h
1060 01-08-2010 19:56:01 25.4 C 9.65 g/m*3 25.4 C 0 km/h
1061 01-08-2010 20:08:01 25.2 C 9.78 g/m*3 25.2 C 0 km/h
1062 01-08-2010 20:20:02 24.8 C 10.02 g/m*3 24.8 C 0 km/h
1063 01-08-2010 20:32:01 24.5 C 10.3 g/m*3 24.5 C 0 km/h
1064 01-08-2010 20:44:01 24.4 C 10.46 g/m*3 24.4 C 0 km/h
1065 01-08-2010 20:56:03 24.3 C 10.62 g/m*3 24.3 C 0 km/h
1066 01-08-2010 21:08:02 23.7 C 9.84 g/m*3 23.7 C 0 km/h
1067 01-08-2010 21:20:02 23.6 C 10 g/m*3 23.6 C 0 km/h
1068 01-08-2010 21:32:03 23.3 C 10.04 g/m*3 23.3 C 0 km/h
1069 01-08-2010 21:44:03 22.7 C 9.7 g/m*3 22.7 C 0 km/h
1070 01-08-2010 21:57:02 22.5 C 9.59 g/m*3 22.5 C 0 km/h
1071 01-08-2010 22:09:02 22.3 C 9.48 g/m*3 22.3 C 0 km/h
1072 01-08-2010 22:21:02 22.2 C 9.42 g/m*3 22.2 C 0 km/h
1073 01-08-2010 22:33:03 22 C 9.32 g/m*3 22 C 0 km/h
1074 01-08-2010 22:45:03 21.6 C 9.67 g/m*3 21.6 C 0 km/h
1075 01-08-2010 22:57:03 21.7 C 9.73 g/m*3 21.7 C 0 km/h
Sensor: Nr:Datum:Temp:Abs-Feuchte:Windchill:Wind:
Aussen-T/F 1076 01-08-2010 23:09:03 21.6 C 9.86 g/m*3 21.6 C 0 km/h
1077 01-08-2010 23:21:03 21.4 C 9.94 g/m*3 21.4 C 0 km/h
1078 01-08-2010 23:33:03 21.2 C 10.01 g/m*3 21.2 C 0 km/h
1079 01-08-2010 23:45:03 20.8 C 9.96 g/m*3 20.8 C 0 km/h
1080 01-08-2010 23:57:03 20.4 C 10.08 g/m*3 20.4 C 0 km/h
1081 02-08-2010 00:09:03 20 C 9.85 g/m*3 20 C 0 km/h
1082 02-08-2010 00:21:03 19.7 C 10.02 g/m*3 19.7 C 0 km/h
1083 02-08-2010 00:33:03 19.7 C 10.02 g/m*3 19.7 C 0 km/h
1084 02-08-2010 00:45:03 19.7 C 10.19 g/m*3 19.7 C 0 km/h
1085 02-08-2010 00:57:03 19.6 C 9.96 g/m*3 19.6 C 0 km/h
1086 02-08-2010 01:09:03 19.4 C 10.01 g/m*3 19.4 C 0 km/h
1087 02-08-2010 01:21:03 19.4 C 10.34 g/m*3 19.4 C 0 km/h
1088 02-08-2010 01:33:03 19.3 C 10.45 g/m*3 19.3 C 0 km/h
1089 02-08-2010 01:45:03 19.1 C 10.33 g/m*3 19.1 C 0 km/h
1090 02-08-2010 01:57:03 19 C 10.27 g/m*3 19 C 0 km/h
1091 02-08-2010 02:09:03 18.9 C 10.37 g/m*3 18.9 C 0 km/h
1092 02-08-2010 02:21:03 18.8 C 10.63 g/m*3 18.8 C 0 km/h
1093 02-08-2010 02:33:03 18.6 C 10.5 g/m*3 18.6 C 0 km/h
1094 02-08-2010 02:45:03 18.5 C 10.6 g/m*3 18.5 C 0 km/h
1095 02-08-2010 02:57:03 18.4 C 10.54 g/m*3 18.4 C 0 km/h
1096 02-08-2010 03:09:04 18.2 C 10.57 g/m*3 18.2 C 0 km/h
1097 02-08-2010 03:21:04 18 C 10.6 g/m*3 18 C 0 km/h
1098 02-08-2010 03:33:04 18 C 10.44 g/m*3 18 C 0 km/h
1099 02-08-2010 03:45:04 17.8 C 10.78 g/m*3 17.8 C 0 km/h
1100 02-08-2010 03:57:04 17.7 C 10.71 g/m*3 17.7 C 0 km/h
Sensor: Nr:Datum:Temp:Abs-Feuchte:Windchill:Wind:
Aussen-T/F 1101 02-08-2010 04:09:04 17.5 C 10.88 g/m*3 17.5 C 0 km/h
1102 02-08-2010 04:21:04 17.1 C 10.92 g/m*3 17.1 C 0 km/h
1103 02-08-2010 04:33:04 17.2 C 10.84 g/m*3 17.2 C 0 km/h
1104 02-08-2010 04:45:04 16.9 C 10.79 g/m*3 16.9 C 0 km/h
1105 02-08-2010 04:57:04 16.8 C 10.87 g/m*3 16.8 C 0 km/h
1106 02-08-2010 05:09:02 16.6 C 10.74 g/m*3 16.6 C 0 km/h
1107 02-08-2010 05:21:02 16.5 C 10.67 g/m*3 16.5 C 0 km/h
1108 02-08-2010 05:33:02 16.3 C 10.54 g/m*3 16.3 C 0 km/h
1109 02-08-2010 05:45:02 16 C 10.49 g/m*3 16 C 0 km/h
1110 02-08-2010 05:57:02 16.2 C 10.76 g/m*3 16.2 C 0 km/h
1111 02-08-2010 06:09:02 16.4 C 10.89 g/m*3 16.4 C 0 km/h
1112 02-08-2010 06:21:02 16.6 C 11.02 g/m*3 16.6 C 0 km/h
1113 02-08-2010 06:33:01 16.6 C 10.88 g/m*3 16.6 C 0 km/h
1114 02-08-2010 06:45:02 16.4 C 10.89 g/m*3 16.4 C 0 km/h
1115 02-08-2010 06:57:02 16.4 C 10.89 g/m*3 16.4 C 0 km/h
1116 02-08-2010 07:09:01 16.3 C 10.82 g/m*3 16.3 C 0 km/h
1117 02-08-2010 07:21:01 16.4 C 11.03 g/m*3 16.4 C 0 km/h
1118 02-08-2010 07:33:02 16.4 C 10.89 g/m*3 16.4 C 0 km/h
1119 02-08-2010 07:45:02 16.4 C 11.03 g/m*3 16.4 C 0 km/h
1120 02-08-2010 07:57:02 16.4 C 11.03 g/m*3 16.4 C 0 km/h
1121 02-08-2010 08:09:02 16.5 C 11.09 g/m*3 16.5 C 0 km/h
1122 02-08-2010 08:21:01 16.6 C 11.16 g/m*3 16.6 C 0 km/h
1123 02-08-2010 08:33:02 16.9 C 11.36 g/m*3 16.9 C 0 km/h
1124 02-08-2010 08:45:02 17 C 11 g/m*3 17 C 0 km/h
1125 02-08-2010 08:57:02 17.3 C 11.2 g/m*3 17.3 C 0 km/h
Sensor: Nr:Datum:Temp:Abs-Feuchte:Windchill:Wind:
Aussen-T/F 1126 02-08-2010 09:09:02 17.8 C 11.38 g/m*3 17.8 C 0 km/h
1127 02-08-2010 09:21:02 18.3 C 11.26 g/m*3 18.3 C 0 km/h
1128 02-08-2010 09:33:02 18.6 C 11.3 g/m*3 18.6 C 0 km/h
1129 02-08-2010 09:45:02 19.1 C 10.82 g/m*3 19.1 C 0 km/h
1130 02-08-2010 09:57:02 19.6 C 10.97 g/m*3 19.6 C 0 km/h
1131 02-08-2010 10:09:02 20 C 10.89 g/m*3 20 C 0 km/h
1132 02-08-2010 10:21:02 20.5 C 10.85 g/m*3 20.5 C 0 km/h
1133 02-08-2010 10:33:01 20.8 C 10.68 g/m*3 20.8 C 0 km/h
1134 02-08-2010 10:45:02 21.2 C 9.64 g/m*3 21.2 C 0 km/h
1135 02-08-2010 10:57:03 21.9 C 10.81 g/m*3 21.9 C 0 km/h
1136 02-08-2010 11:09:02 22.6 C 9.84 g/m*3 22.6 C 0 km/h
1137 02-08-2010 11:21:02 23.5 C 9.52 g/m*3 23.5 C 0 km/h
1138 02-08-2010 11:33:02 24.1 C 9.19 g/m*3 24.1 C 0 km/h
1139 02-08-2010 11:45:01 24.4 C 9.12 g/m*3 24.4 C 0 km/h
1140 02-08-2010 11:57:01 24.6 C 8.78 g/m*3 24.6 C 0 km/h
1141 02-08-2010 12:09:02 24.8 C 9.1 g/m*3 24.8 C 0 km/h
1142 02-08-2010 12:21:01 25.1 C 8.57 g/m*3 25.1 C 0 km/h
1143 02-08-2010 12:33:02 25.5 C 8.05 g/m*3 25.5 C 0 km/h
1144 02-08-2010 12:45:01 26.1 C 7.59 g/m*3 26.1 C 0 km/h
1145 02-08-2010 12:57:01 26.2 C 7.39 g/m*3 26.2 C 0 km/h
1146 02-08-2010 13:09:02 25.1 C 7.41 g/m*3 25.1 C 0 km/h
1147 02-08-2010 13:21:02 24.2 C 8.14 g/m*3 24.2 C 0 km/h
1148 02-08-2010 13:33:01 23.3 C 8.57 g/m*3 23.3 C 0 km/h
1149 02-08-2010 13:45:02 22.3 C 9.08 g/m*3 22.3 C 0 km/h
1150 02-08-2010 13:57:02 21.5 C 9.62 g/m*3 21.5 C 0 km/h
Sensor: Nr:Datum:Temp:Abs-Feuchte:Windchill:Wind:
Aussen-T/F 1151 02-08-2010 14:09:01 19.7 C 11.21 g/m*3 19.7 C 0 km/h
1152 02-08-2010 14:21:01 19.7 C 11.89 g/m*3 19.7 C 0 km/h
1153 02-08-2010 14:33:01 21.1 C 11.24 g/m*3 21.1 C 0 km/h
1154 02-08-2010 14:45:02 21.2 C 11.12 g/m*3 21.2 C 0 km/h
1155 02-08-2010 14:57:03 20.7 C 10.62 g/m*3 20.7 C 0 km/h
1156 02-08-2010 15:09:01 20.6 C 10.92 g/m*3 20.6 C 0 km/h
1157 02-08-2010 15:21:02 21.1 C 11.61 g/m*3 21.1 C 0 km/h
1158 02-08-2010 15:33:02 21.7 C 11.06 g/m*3 21.7 C 0 km/h
1159 02-08-2010 15:45:01 21.7 C 11.06 g/m*3 21.7 C 0 km/h
1160 02-08-2010 15:57:01 21.5 C 11.5 g/m*3 21.5 C 0 km/h
1161 02-08-2010 16:09:01 22.4 C 11.92 g/m*3 22.4 C 0 km/h
1162 02-08-2010 16:21:01 22.9 C 11.04 g/m*3 22.9 C 0 km/h
1163 02-08-2010 16:33:01 23.1 C 10.54 g/m*3 23.1 C 0 km/h
1164 02-08-2010 16:45:02 23.4 C 10.51 g/m*3 23.4 C 0 km/h
1165 02-08-2010 16:57:02 23.5 C 10.57 g/m*3 23.5 C 0 km/h
1166 02-08-2010 17:09:02 24.2 C 10.12 g/m*3 24.2 C 0 km/h
1167 02-08-2010 17:21:02 24.1 C 9.85 g/m*3 24.1 C 0 km/h
1168 02-08-2010 17:33:03 24.5 C 9.62 g/m*3 24.5 C 0 km/h
1169 02-08-2010 17:45:01 24.4 C 9.57 g/m*3 24.4 C 0 km/h
1170 02-08-2010 17:57:01 23.8 C 9.68 g/m*3 23.8 C 0 km/h
1171 02-08-2010 18:09:02 23 C 9.66 g/m*3 23 C 0 km/h
1172 02-08-2010 18:21:02 22.5 C 10.59 g/m*3 22.5 C 0 km/h
1173 02-08-2010 18:33:03 20.9 C 11.66 g/m*3 20.9 C 0 km/h
1174 02-08-2010 18:45:02 20.3 C 11.96 g/m*3 20.3 C 0 km/h
1175 02-08-2010 18:57:02 19.7 C 11.55 g/m*3 19.7 C 0 km/h
Sensor: Nr:Datum:Temp:Abs-Feuchte:Windchill:Wind:
Aussen-T/F 1176 02-08-2010 19:09:02 20.2 C 12.24 g/m*3 20.2 C 0 km/h
1177 02-08-2010 19:21:03 20.5 C 12.63 g/m*3 20.5 C 0 km/h
1178 02-08-2010 19:33:02 20 C 12.1 g/m*3 20 C 0 km/h
1179 02-08-2010 19:45:02 19.8 C 12.3 g/m*3 19.8 C 0 km/h
1180 02-08-2010 19:57:02 19.6 C 12.49 g/m*3 19.6 C 0 km/h
1181 02-08-2010 20:09:01 19.2 C 13.03 g/m*3 19.2 C 0 km/h
1182 02-08-2010 20:21:02 18.7 C 13.45 g/m*3 18.7 C 0 km/h
1183 02-08-2010 20:33:01 18.6 C 13.69 g/m*3 18.6 C 0 km/h
1184 02-08-2010 20:45:02 18.2 C 13.52 g/m*3 18.2 C 0 km/h
1185 02-08-2010 20:57:03 18.3 C 13.76 g/m*3 18.3 C 0 km/h
1186 02-08-2010 21:09:02 18.2 C 13.68 g/m*3 18.2 C 0 km/h
1187 02-08-2010 21:21:02 17.5 C 13.27 g/m*3 17.5 C 0 km/h
1188 02-08-2010 21:33:03 17.5 C 13.42 g/m*3 17.5 C 0 km/h
1189 02-08-2010 21:46:01 17.4 C 13.49 g/m*3 17.4 C 0 km/h
1190 02-08-2010 21:58:01 17.3 C 13.41 g/m*3 17.3 C 0 km/h
1191 02-08-2010 22:10:01 17.2 C 13.33 g/m*3 17.2 C 0 km/h
1192 02-08-2010 22:22:01 17.4 C 13.49 g/m*3 17.4 C 0 km/h
1193 02-08-2010 22:34:01 17.3 C 13.55 g/m*3 17.3 C 0 km/h
1194 02-08-2010 22:46:02 17 C 13.17 g/m*3 17 C 0 km/h
1195 02-08-2010 22:58:02 16.7 C 13.07 g/m*3 16.7 C 0 km/h
1196 02-08-2010 23:10:02 16.4 C 12.7 g/m*3 16.4 C 0 km/h
1197 02-08-2010 23:22:02 16.2 C 12.55 g/m*3 16.2 C 0 km/h
1198 02-08-2010 23:34:02 15.9 C 12.32 g/m*3 15.9 C 0 km/h
1199 02-08-2010 23:46:02 15.8 C 12.25 g/m*3 15.8 C 0 km/h
1200 02-08-2010 23:58:02 15.9 C 12.32 g/m*3 15.9 C 0 km/h
Sensor: Nr:Datum:Temp:Abs-Feuchte:Windchill:Wind:
Aussen-T/F 1201 03-08-2010 00:10:02 15.9 C 12.19 g/m*3 15.9 C 0 km/h
1202 03-08-2010 00:22:02 16 C 12.13 g/m*3 16 C 0 km/h
1203 03-08-2010 00:34:02 16 C 11.99 g/m*3 16 C 0 km/h
1204 03-08-2010 00:46:02 15.9 C 12.05 g/m*3 15.9 C 0 km/h
1205 03-08-2010 00:58:02 15.9 C 12.05 g/m*3 15.9 C 0 km/h
1206 03-08-2010 01:10:02 15.9 C 12.05 g/m*3 15.9 C 0 km/h
1207 03-08-2010 01:22:02 15.9 C 12.05 g/m*3 15.9 C 0 km/h
1208 03-08-2010 01:34:02 16 C 11.99 g/m*3 16 C 0 km/h
1209 03-08-2010 01:46:02 16 C 11.99 g/m*3 16 C 0 km/h
1210 03-08-2010 01:58:02 16 C 11.99 g/m*3 16 C 0 km/h
1211 03-08-2010 02:10:02 15.9 C 11.92 g/m*3 15.9 C 0 km/h
1212 03-08-2010 02:22:02 15.7 C 11.77 g/m*3 15.7 C 0 km/h
1213 03-08-2010 02:34:02 15.5 C 11.76 g/m*3 15.5 C 0 km/h
1214 03-08-2010 02:46:02 15.1 C 11.61 g/m*3 15.1 C 0 km/h
1215 03-08-2010 02:58:02 15.1 C 11.74 g/m*3 15.1 C 0 km/h
1216 03-08-2010 03:10:02 15.2 C 11.94 g/m*3 15.2 C 0 km/h
1217 03-08-2010 03:22:03 15.3 C 12.01 g/m*3 15.3 C 0 km/h
1218 03-08-2010 03:34:03 15.3 C 12.14 g/m*3 15.3 C 0 km/h
1219 03-08-2010 03:46:03 15.2 C 12.07 g/m*3 15.2 C 0 km/h
1220 03-08-2010 03:58:03 15.3 C 12.14 g/m*3 15.3 C 0 km/h
1221 03-08-2010 04:10:03 15.2 C 12.07 g/m*3 15.2 C 0 km/h
1222 03-08-2010 04:22:03 15 C 11.93 g/m*3 15 C 0 km/h
1223 03-08-2010 04:34:03 15 C 12.05 g/m*3 15 C 0 km/h
1224 03-08-2010 04:46:03 15 C 12.05 g/m*3 15 C 0 km/h
1225 03-08-2010 04:58:03 14.9 C 12.11 g/m*3 14.9 C 0 km/h
Sensor: Nr:Datum:Temp:Abs-Feuchte:Windchill:Wind:
Aussen-T/F 1226 03-08-2010 05:10:03 14.9 C 12.11 g/m*3 14.9 C 0 km/h
1227 03-08-2010 05:22:03 14.9 C 12.11 g/m*3 14.9 C 0 km/h
1228 03-08-2010 05:34:03 15 C 12.05 g/m*3 15 C 0 km/h
1229 03-08-2010 05:46:03 15 C 12.05 g/m*3 15 C 0 km/h
1230 03-08-2010 05:58:03 15 C 12.05 g/m*3 15 C 0 km/h
1231 03-08-2010 06:10:03 14.8 C 12.03 g/m*3 14.8 C 0 km/h
1232 03-08-2010 06:22:03 14.7 C 11.96 g/m*3 14.7 C 0 km/h
1233 03-08-2010 06:34:03 14.6 C 11.89 g/m*3 14.6 C 0 km/h
1234 03-08-2010 06:46:03 14.5 C 11.82 g/m*3 14.5 C 0 km/h
1235 03-08-2010 06:58:03 14.5 C 11.82 g/m*3 14.5 C 0 km/h
1236 03-08-2010 07:10:02 14.7 C 11.96 g/m*3 14.7 C 0 km/h
1237 03-08-2010 07:22:01 15 C 12.18 g/m*3 15 C 0 km/h
1238 03-08-2010 07:34:02 15 C 12.18 g/m*3 15 C 0 km/h
1239 03-08-2010 07:46:01 15.2 C 12.33 g/m*3 15.2 C 0 km/h
1240 03-08-2010 07:58:01 15.4 C 12.48 g/m*3 15.4 C 0 km/h
1241 03-08-2010 08:10:02 15.8 C 12.65 g/m*3 15.8 C 0 km/h
1242 03-08-2010 08:22:02 15.9 C 12.59 g/m*3 15.9 C 0 km/h
1243 03-08-2010 08:34:01 15.8 C 12.38 g/m*3 15.8 C 0 km/h
1244 03-08-2010 08:46:02 16.2 C 12.27 g/m*3 16.2 C 0 km/h
1245 03-08-2010 08:58:02 16.1 C 11.93 g/m*3 16.1 C 0 km/h
1246 03-08-2010 09:10:01 16.4 C 11.86 g/m*3 16.4 C 0 km/h
1247 03-08-2010 09:22:02 16.6 C 11.72 g/m*3 16.6 C 0 km/h
1248 03-08-2010 09:34:02 16.8 C 11.87 g/m*3 16.8 C 0 km/h
1249 03-08-2010 09:46:02 16.9 C 11.65 g/m*3 16.9 C 0 km/h
1250 03-08-2010 09:58:02 17.2 C 11.42 g/m*3 17.2 C 0 km/h
Sensor: Nr:Datum:Temp:Abs-Feuchte:Windchill:Wind:
Aussen-T/F 1251 03-08-2010 10:10:03 18.1 C 11.74 g/m*3 18.1 C 0 km/h
1252 03-08-2010 10:22:02 17.9 C 10.84 g/m*3 17.9 C 0 km/h
1253 03-08-2010 10:34:03 17.1 C 10.77 g/m*3 17.1 C 0 km/h
1254 03-08-2010 10:46:01 17.2 C 10.84 g/m*3 17.2 C 0 km/h
1255 03-08-2010 10:58:01 17.9 C 10.99 g/m*3 17.9 C 0 km/h
1256 03-08-2010 11:10:02 18.2 C 10.41 g/m*3 18.2 C 0 km/h
1257 03-08-2010 11:22:01 18.7 C 10.25 g/m*3 18.7 C 0 km/h
1258 03-08-2010 11:34:03 18.8 C 9.5 g/m*3 18.8 C 0 km/h
1259 03-08-2010 11:46:03 19.2 C 9.07 g/m*3 19.2 C 0 km/h
1260 03-08-2010 11:58:03 19.8 C 8.54 g/m*3 19.8 C 0 km/h
1261 03-08-2010 12:10:02 20.4 C 8.31 g/m*3 20.4 C 0 km/h
1262 03-08-2010 12:22:02 21.1 C 7.92 g/m*3 21.1 C 0 km/h
1263 03-08-2010 12:34:02 22 C 7.96 g/m*3 22 C 0 km/h
1264 03-08-2010 12:46:02 22.1 C 7.42 g/m*3 22.1 C 0 km/h
1265 03-08-2010 12:58:02 20.5 C 8.01 g/m*3 20.5 C 0 km/h
1266 03-08-2010 13:10:02 20.9 C 8.01 g/m*3 20.9 C 0 km/h
1267 03-08-2010 13:22:02 22.8 C 7.11 g/m*3 22.8 C 0 km/h
1268 03-08-2010 13:34:02 23.3 C 6.48 g/m*3 23.3 C 0 km/h
1269 03-08-2010 13:46:02 21 C 6.78 g/m*3 21 C 0 km/h
1270 03-08-2010 13:58:02 18.7 C 9.29 g/m*3 18.7 C 0 km/h
1271 03-08-2010 14:10:02 20.2 C 10.49 g/m*3 20.2 C 0 km/h
1272 03-08-2010 14:22:01 21.5 C 8.11 g/m*3 21.5 C 0 km/h
1273 03-08-2010 14:34:02 21.6 C 7.78 g/m*3 21.6 C 0 km/h
1274 03-08-2010 14:46:01 22 C 7.76 g/m*3 22 C 0 km/h
1275 03-08-2010 14:58:01 24.1 C 6.78 g/m*3 24.1 C 0 km/h
Sensor: Nr:Datum:Temp:Abs-Feuchte:Windchill:Wind:
Aussen-T/F 1276 03-08-2010 15:10:02 23.6 C 6.38 g/m*3 23.6 C 0 km/h
1277 03-08-2010 15:22:02 24.9 C 6.41 g/m*3 24.9 C 0 km/h
1278 03-08-2010 15:34:01 24.2 C 6.16 g/m*3 24.2 C 0 km/h
1279 03-08-2010 15:46:02 24.9 C 6.18 g/m*3 24.9 C 0 km/h
1280 03-08-2010 15:58:02 23.4 C 6.31 g/m*3 23.4 C 0 km/h
1281 03-08-2010 16:10:01 25 C 5.99 g/m*3 25 C 0 km/h
1282 03-08-2010 16:22:02 25.1 C 5.79 g/m*3 25.1 C 0 km/h
1283 03-08-2010 16:34:01 25.5 C 5.21 g/m*3 25.5 C 0 km/h
1284 03-08-2010 16:46:02 26 C 4.87 g/m*3 26 C 0 km/h
1285 03-08-2010 16:58:02 25.3 C 4.68 g/m*3 25.3 C 0 km/h
1286 03-08-2010 17:10:02 25.1 C 4.86 g/m*3 25.1 C 0 km/h
1287 03-08-2010 17:22:02 25.6 C 5 g/m*3 25.6 C 0 km/h
1288 03-08-2010 17:34:02 25.3 C 4.92 g/m*3 25.3 C 0 km/h
1289 03-08-2010 17:46:01 26.2 C 4.92 g/m*3 26.2 C 0 km/h
1290 03-08-2010 17:58:01 27 C 5.15 g/m*3 27 C 0 km/h
1291 03-08-2010 18:10:02 26.6 C 5.03 g/m*3 26.6 C 0 km/h
1292 03-08-2010 18:22:01 27.1 C 5.18 g/m*3 27.1 C 0 km/h
1293 03-08-2010 18:34:01 26.9 C 5.12 g/m*3 26.9 C 0 km/h
1294 03-08-2010 18:46:01 26 C 4.87 g/m*3 26 C 0 km/h
1295 03-08-2010 18:58:01 24 C 5.44 g/m*3 24 C 0 km/h
1296 03-08-2010 19:10:02 23.1 C 5.79 g/m*3 23.1 C 0 km/h
1297 03-08-2010 19:22:01 23.6 C 5.74 g/m*3 23.6 C 0 km/h
1298 03-08-2010 19:34:01 24.1 C 6.35 g/m*3 24.1 C 0 km/h
1299 03-08-2010 19:46:01 23.9 C 6.06 g/m*3 23.9 C 0 km/h
1300 03-08-2010 19:58:01 23.3 C 5.65 g/m*3 23.3 C 0 km/h
Sensor: Nr:Datum:Temp:Abs-Feuchte:Windchill:Wind:
Aussen-T/F 1301 03-08-2010 20:10:02 23.2 C 5.61 g/m*3 23.2 C 0 km/h
1302 03-08-2010 20:22:02 22.6 C 6.23 g/m*3 22.6 C 0 km/h
1303 03-08-2010 20:34:01 22 C 7.76 g/m*3 22 C 0 km/h
1304 03-08-2010 20:46:02 20.9 C 8.01 g/m*3 20.9 C 0 km/h
1305 03-08-2010 20:58:02 19.9 C 8.08 g/m*3 19.9 C 0 km/h
1306 03-08-2010 21:10:02 19.1 C 7.38 g/m*3 19.1 C 0 km/h
1307 03-08-2010 21:22:01 18.6 C 7.64 g/m*3 18.6 C 0 km/h
1308 03-08-2010 21:34:01 18.3 C 7.51 g/m*3 18.3 C 0 km/h
1309 03-08-2010 21:46:02 18 C 7.68 g/m*3 18 C 0 km/h
1310 03-08-2010 21:58:02 17.6 C 7.8 g/m*3 17.6 C 0 km/h
1311 03-08-2010 22:10:02 17.5 C 8.05 g/m*3 17.5 C 0 km/h
1312 03-08-2010 22:22:02 17.5 C 7.9 g/m*3 17.5 C 0 km/h
1313 03-08-2010 22:35:04 17.3 C 8.4 g/m*3 17.3 C 0 km/h
1314 03-08-2010 22:47:04 17.2 C 8.49 g/m*3 17.2 C 0 km/h
1315 03-08-2010 22:59:04 16.8 C 8.58 g/m*3 16.8 C 0 km/h
1316 03-08-2010 23:11:04 16.5 C 8.43 g/m*3 16.5 C 0 km/h
1317 03-08-2010 23:23:04 16.4 C 8.37 g/m*3 16.4 C 0 km/h
1318 03-08-2010 23:35:04 16.1 C 8.36 g/m*3 16.1 C 0 km/h
1319 03-08-2010 23:47:04 15.9 C 8.67 g/m*3 15.9 C 0 km/h
1320 03-08-2010 23:59:04 15.7 C 8.7 g/m*3 15.7 C 0 km/h
1321 04-08-2010 00:11:04 15.5 C 8.72 g/m*3 15.5 C 0 km/h
1322 04-08-2010 00:23:04 15.4 C 8.8 g/m*3 15.4 C 0 km/h
1323 04-08-2010 00:35:04 15.3 C 9.01 g/m*3 15.3 C 0 km/h
1324 04-08-2010 00:47:04 15.4 C 9.2 g/m*3 15.4 C 0 km/h
1325 04-08-2010 00:59:04 15.6 C 9.18 g/m*3 15.6 C 0 km/h
Sensor: Nr:Datum:Temp:Abs-Feuchte:Windchill:Wind:
Aussen-T/F 1326 04-08-2010 01:11:04 15.6 C 9.18 g/m*3 15.6 C 0 km/h
1327 04-08-2010 01:23:04 15.6 C 9.18 g/m*3 15.6 C 0 km/h
1328 04-08-2010 01:35:04 15.7 C 9.23 g/m*3 15.7 C 0 km/h
1329 04-08-2010 01:47:04 15.8 C 9.29 g/m*3 15.8 C 0 km/h
1330 04-08-2010 01:59:04 15.7 C 9.23 g/m*3 15.7 C 0 km/h
1331 04-08-2010 02:11:04 15.6 C 9.31 g/m*3 15.6 C 0 km/h
1332 04-08-2010 02:23:04 15.4 C 9.59 g/m*3 15.4 C 0 km/h
1333 04-08-2010 02:35:04 15.3 C 9.79 g/m*3 15.3 C 0 km/h
1334 04-08-2010 02:47:05 15.4 C 9.99 g/m*3 15.4 C 0 km/h
1335 04-08-2010 02:59:05 15.4 C 9.85 g/m*3 15.4 C 0 km/h
1336 04-08-2010 03:11:05 15.4 C 9.72 g/m*3 15.4 C 0 km/h
1337 04-08-2010 03:23:05 15.4 C 9.85 g/m*3 15.4 C 0 km/h
1338 04-08-2010 03:35:05 15.4 C 9.72 g/m*3 15.4 C 0 km/h
1339 04-08-2010 03:47:05 15.3 C 9.66 g/m*3 15.3 C 0 km/h
1340 04-08-2010 03:59:05 15.3 C 9.53 g/m*3 15.3 C 0 km/h
1341 04-08-2010 04:11:05 15.2 C 9.48 g/m*3 15.2 C 0 km/h
1342 04-08-2010 04:23:05 15.2 C 9.48 g/m*3 15.2 C 0 km/h
1343 04-08-2010 04:35:05 15.2 C 9.48 g/m*3 15.2 C 0 km/h
1344 04-08-2010 04:47:05 15.2 C 9.61 g/m*3 15.2 C 0 km/h
1345 04-08-2010 04:59:05 15.2 C 9.61 g/m*3 15.2 C 0 km/h
1346 04-08-2010 05:11:05 15.2 C 9.61 g/m*3 15.2 C 0 km/h
1347 04-08-2010 05:23:05 15.1 C 9.55 g/m*3 15.1 C 0 km/h
1348 04-08-2010 05:35:05 15.1 C 9.55 g/m*3 15.1 C 0 km/h
1349 04-08-2010 05:47:05 15.1 C 9.55 g/m*3 15.1 C 0 km/h
1350 04-08-2010 05:59:05 15.2 C 9.61 g/m*3 15.2 C 0 km/h
Sensor: Nr:Datum:Temp:Abs-Feuchte:Windchill:Wind:
Aussen-T/F 1351 04-08-2010 06:11:05 15.2 C 9.73 g/m*3 15.2 C 0 km/h
1352 04-08-2010 06:23:05 15.2 C 9.73 g/m*3 15.2 C 0 km/h
1353 04-08-2010 06:35:05 15.3 C 9.79 g/m*3 15.3 C 0 km/h
1354 04-08-2010 06:47:01 15.3 C 9.79 g/m*3 15.3 C 0 km/h
1355 04-08-2010 06:59:01 15.4 C 9.85 g/m*3 15.4 C 0 km/h
1356 04-08-2010 07:11:01 15.7 C 10.03 g/m*3 15.7 C 0 km/h
1357 04-08-2010 07:23:02 15.8 C 9.96 g/m*3 15.8 C 0 km/h
1358 04-08-2010 07:35:02 16 C 9.95 g/m*3 16 C 0 km/h
1359 04-08-2010 07:47:02 15.8 C 9.96 g/m*3 15.8 C 0 km/h
1360 04-08-2010 07:59:02 16.1 C 10.14 g/m*3 16.1 C 0 km/h
1361 04-08-2010 08:11:03 16.2 C 9.93 g/m*3 16.2 C 0 km/h
1362 04-08-2010 08:23:02 16.8 C 9.87 g/m*3 16.8 C 0 km/h
1363 04-08-2010 08:35:02 16.9 C 9.92 g/m*3 16.9 C 0 km/h
1364 04-08-2010 08:47:01 17 C 9.98 g/m*3 17 C 0 km/h
1365 04-08-2010 08:59:01 17.4 C 10.08 g/m*3 17.4 C 0 km/h
1366 04-08-2010 09:11:02 17.5 C 10.14 g/m*3 17.5 C 0 km/h
1367 04-08-2010 09:23:01 18.3 C 10.01 g/m*3 18.3 C 0 km/h
1368 04-08-2010 09:35:01 18.7 C 9.77 g/m*3 18.7 C 0 km/h
1369 04-08-2010 09:47:01 19.5 C 9.57 g/m*3 19.5 C 0 km/h
1370 04-08-2010 09:59:01 20 C 9.68 g/m*3 20 C 0 km/h
1371 04-08-2010 10:11:01 20.8 C 9.96 g/m*3 20.8 C 0 km/h
1372 04-08-2010 10:23:01 20.9 C 9.29 g/m*3 20.9 C 0 km/h
1373 04-08-2010 10:35:01 20.8 C 9.05 g/m*3 20.8 C 0 km/h
1374 04-08-2010 10:47:03 21.2 C 8.71 g/m*3 21.2 C 0 km/h
1375 04-08-2010 10:59:03 21.7 C 8.58 g/m*3 21.7 C 0 km/h
Sensor: Nr:Datum:Temp:Abs-Feuchte:Windchill:Wind:
Aussen-T/F 1376 04-08-2010 11:11:02 22.1 C 8.2 g/m*3 22.1 C 0 km/h
1377 04-08-2010 11:23:02 22.2 C 7.85 g/m*3 22.2 C 0 km/h
1378 04-08-2010 11:35:02 22.5 C 8.39 g/m*3 22.5 C 0 km/h
1379 04-08-2010 11:47:02 22.9 C 7.97 g/m*3 22.9 C 0 km/h
1380 04-08-2010 11:59:02 22.8 C 8.13 g/m*3 22.8 C 0 km/h
1381 04-08-2010 12:11:02 23 C 7.4 g/m*3 23 C 0 km/h
1382 04-08-2010 12:23:02 23.4 C 7.36 g/m*3 23.4 C 0 km/h
1383 04-08-2010 12:35:02 23.7 C 7.06 g/m*3 23.7 C 0 km/h
1384 04-08-2010 12:47:01 24.1 C 6.56 g/m*3 24.1 C 0 km/h
1385 04-08-2010 12:59:01 24.4 C 6.68 g/m*3 24.4 C 0 km/h
1386 04-08-2010 13:11:01 25.6 C 6.19 g/m*3 25.6 C 0 km/h
1387 04-08-2010 13:23:01 25 C 6.22 g/m*3 25 C 0 km/h
1388 04-08-2010 13:35:01 24.6 C 6.53 g/m*3 24.6 C 0 km/h
1389 04-08-2010 13:47:01 24.5 C 6.71 g/m*3 24.5 C 0 km/h
1390 04-08-2010 13:59:01 25.2 C 6.29 g/m*3 25.2 C 0 km/h
1391 04-08-2010 14:11:02 24.7 C 6.56 g/m*3 24.7 C 0 km/h
1392 04-08-2010 14:23:01 24 C 6.74 g/m*3 24 C 0 km/h
1393 04-08-2010 14:35:02 24.1 C 6.56 g/m*3 24.1 C 0 km/h
1394 04-08-2010 14:47:01 24.5 C 6.71 g/m*3 24.5 C 0 km/h
1395 04-08-2010 14:59:01 25.5 C 6.63 g/m*3 25.5 C 0 km/h
1396 04-08-2010 15:11:02 24.9 C 6.87 g/m*3 24.9 C 0 km/h
1397 04-08-2010 15:23:01 23.6 C 6.59 g/m*3 23.6 C 0 km/h
1398 04-08-2010 15:35:01 23.5 C 6.77 g/m*3 23.5 C 0 km/h
1399 04-08-2010 15:47:01 23.5 C 6.77 g/m*3 23.5 C 0 km/h
1400 04-08-2010 15:59:01 23.9 C 7.14 g/m*3 23.9 C 0 km/h
Sensor: Nr:Datum:Temp:Abs-Feuchte:Windchill:Wind:
Aussen-T/F 1401 04-08-2010 16:11:01 23.3 C 6.9 g/m*3 23.3 C 0 km/h
1402 04-08-2010 16:23:02 23.4 C 7.15 g/m*3 23.4 C 0 km/h
1403 04-08-2010 16:35:01 23.7 C 7.06 g/m*3 23.7 C 0 km/h
1404 04-08-2010 16:47:03 23 C 6.99 g/m*3 23 C 0 km/h
1405 04-08-2010 16:59:03 23.4 C 6.94 g/m*3 23.4 C 0 km/h
1406 04-08-2010 17:11:02 23.8 C 6.88 g/m*3 23.8 C 0 km/h
1407 04-08-2010 17:23:02 23 C 7.19 g/m*3 23 C 0 km/h
1408 04-08-2010 17:35:03 22.9 C 7.36 g/m*3 22.9 C 0 km/h
1409 04-08-2010 17:47:02 22.9 C 7.36 g/m*3 22.9 C 0 km/h
1410 04-08-2010 17:59:02 22.9 C 7.36 g/m*3 22.9 C 0 km/h
1411 04-08-2010 18:11:01 23 C 7.4 g/m*3 23 C 0 km/h
1412 04-08-2010 18:23:02 23.3 C 7.32 g/m*3 23.3 C 0 km/h
1413 04-08-2010 18:35:02 23.5 C 7.4 g/m*3 23.5 C 0 km/h
1414 04-08-2010 18:47:02 23.6 C 7.44 g/m*3 23.6 C 0 km/h
1415 04-08-2010 18:59:02 23.2 C 7.28 g/m*3 23.2 C 0 km/h
1416 04-08-2010 19:11:02 22.8 C 7.32 g/m*3 22.8 C 0 km/h
1417 04-08-2010 19:23:02 22.6 C 8.04 g/m*3 22.6 C 0 km/h
1418 04-08-2010 19:35:02 22.5 C 7.79 g/m*3 22.5 C 0 km/h
1419 04-08-2010 19:47:02 22.3 C 7.9 g/m*3 22.3 C 0 km/h
1420 04-08-2010 19:59:02 22 C 8.15 g/m*3 22 C 0 km/h
1421 04-08-2010 20:11:02 21.9 C 8.68 g/m*3 21.9 C 0 km/h
1422 04-08-2010 20:23:02 21.5 C 8.86 g/m*3 21.5 C 0 km/h
1423 04-08-2010 20:35:02 21.1 C 9.03 g/m*3 21.1 C 0 km/h
1424 04-08-2010 20:47:02 20.7 C 9.18 g/m*3 20.7 C 0 km/h
1425 04-08-2010 20:59:02 20.5 C 9.07 g/m*3 20.5 C 0 km/h
Sensor: Nr:Datum:Temp:Abs-Feuchte:Windchill:Wind:
Aussen-T/F 1426 04-08-2010 21:11:02 20.3 C 9.15 g/m*3 20.3 C 0 km/h
1427 04-08-2010 21:23:03 20.1 C 9.04 g/m*3 20.1 C 0 km/h
1428 04-08-2010 21:35:02 20 C 8.99 g/m*3 20 C 0 km/h
1429 04-08-2010 21:47:02 20 C 8.99 g/m*3 20 C 0 km/h
1430 04-08-2010 21:59:02 20.1 C 9.39 g/m*3 20.1 C 0 km/h
1431 04-08-2010 22:12:03 19.7 C 9.51 g/m*3 19.7 C 0 km/h
1432 04-08-2010 22:24:03 19.5 C 9.9 g/m*3 19.5 C 0 km/h
1433 04-08-2010 22:36:03 19.4 C 10.18 g/m*3 19.4 C 0 km/h
1434 04-08-2010 22:48:04 18.7 C 10.73 g/m*3 18.7 C 0 km/h
1435 04-08-2010 23:00:04 18.5 C 11.23 g/m*3 18.5 C 0 km/h
1436 04-08-2010 23:12:04 18.5 C 11.23 g/m*3 18.5 C 0 km/h
1437 04-08-2010 23:24:04 18.5 C 11.23 g/m*3 18.5 C 0 km/h
1438 04-08-2010 23:36:04 18.5 C 11.55 g/m*3 18.5 C 0 km/h
1439 04-08-2010 23:48:04 17.6 C 12 g/m*3 17.6 C 0 km/h
1440 05-08-2010 00:00:04 17.1 C 12.23 g/m*3 17.1 C 0 km/h
1441 05-08-2010 00:12:04 17 C 12.3 g/m*3 17 C 0 km/h
1442 05-08-2010 00:24:04 16.8 C 12.44 g/m*3 16.8 C 0 km/h
1443 05-08-2010 00:36:04 16.6 C 12.43 g/m*3 16.6 C 0 km/h
1444 05-08-2010 00:48:04 16.4 C 12.42 g/m*3 16.4 C 0 km/h
1445 05-08-2010 01:00:04 16.3 C 12.35 g/m*3 16.3 C 0 km/h
1446 05-08-2010 01:12:04 16.3 C 12.49 g/m*3 16.3 C 0 km/h
1447 05-08-2010 01:24:04 16.3 C 12.49 g/m*3 16.3 C 0 km/h
1448 05-08-2010 01:36:04 16.3 C 12.49 g/m*3 16.3 C 0 km/h
1449 05-08-2010 01:48:04 16.2 C 12.41 g/m*3 16.2 C 0 km/h
1450 05-08-2010 02:00:04 16 C 12.4 g/m*3 16 C 0 km/h
Sensor: Nr:Datum:Temp:Abs-Feuchte:Windchill:Wind:
Aussen-T/F 1451 05-08-2010 02:12:04 15.8 C 12.38 g/m*3 15.8 C 0 km/h
1452 05-08-2010 02:24:04 15.8 C 12.38 g/m*3 15.8 C 0 km/h
1453 05-08-2010 02:36:04 15.8 C 12.38 g/m*3 15.8 C 0 km/h
1454 05-08-2010 02:48:04 15.7 C 12.31 g/m*3 15.7 C 0 km/h
1455 05-08-2010 03:00:04 15.7 C 12.31 g/m*3 15.7 C 0 km/h
1456 05-08-2010 03:12:05 15.8 C 12.52 g/m*3 15.8 C 0 km/h
1457 05-08-2010 03:24:05 15.5 C 12.29 g/m*3 15.5 C 0 km/h
1458 05-08-2010 03:36:05 15.4 C 12.22 g/m*3 15.4 C 0 km/h
1459 05-08-2010 03:48:05 15.3 C 12.14 g/m*3 15.3 C 0 km/h
1460 05-08-2010 04:00:05 15.4 C 12.22 g/m*3 15.4 C 0 km/h
1461 05-08-2010 04:12:05 15.5 C 12.29 g/m*3 15.5 C 0 km/h
1462 05-08-2010 04:24:05 15.4 C 12.22 g/m*3 15.4 C 0 km/h
1463 05-08-2010 04:36:05 15.2 C 12.07 g/m*3 15.2 C 0 km/h
1464 05-08-2010 04:48:05 15 C 11.93 g/m*3 15 C 0 km/h
1465 05-08-2010 05:00:05 15 C 11.93 g/m*3 15 C 0 km/h
1466 05-08-2010 05:12:05 15.2 C 12.07 g/m*3 15.2 C 0 km/h
1467 05-08-2010 05:24:05 15.4 C 12.22 g/m*3 15.4 C 0 km/h
1468 05-08-2010 05:36:05 15.5 C 12.43 g/m*3 15.5 C 0 km/h
1469 05-08-2010 05:48:05 15.5 C 12.43 g/m*3 15.5 C 0 km/h
1470 05-08-2010 06:00:05 15.6 C 12.5 g/m*3 15.6 C 0 km/h
1471 05-08-2010 06:12:05 15.7 C 12.58 g/m*3 15.7 C 0 km/h
1472 05-08-2010 06:24:05 15.7 C 12.58 g/m*3 15.7 C 0 km/h
1473 05-08-2010 06:36:05 15.7 C 12.58 g/m*3 15.7 C 0 km/h
1474 05-08-2010 06:48:05 15.7 C 12.58 g/m*3 15.7 C 0 km/h
1475 05-08-2010 07:00:05 15.7 C 12.58 g/m*3 15.7 C 0 km/h
Sensor: Nr:Datum:Temp:Abs-Feuchte:Windchill:Wind:
Aussen-T/F 1476 05-08-2010 07:12:05 15.8 C 12.65 g/m*3 15.8 C 0 km/h
1477 05-08-2010 07:24:04 15.6 C 12.5 g/m*3 15.6 C 0 km/h
1478 05-08-2010 07:36:03 15.7 C 12.58 g/m*3 15.7 C 0 km/h
1479 05-08-2010 07:48:02 15.8 C 12.52 g/m*3 15.8 C 0 km/h
1480 05-08-2010 08:00:02 15.9 C 12.59 g/m*3 15.9 C 0 km/h
1481 05-08-2010 08:12:02 15.9 C 12.46 g/m*3 15.9 C 0 km/h
1482 05-08-2010 08:24:02 16.3 C 12.62 g/m*3 16.3 C 0 km/h
1483 05-08-2010 08:36:02 16.5 C 12.64 g/m*3 16.5 C 0 km/h
1484 05-08-2010 08:48:02 16.4 C 12.42 g/m*3 16.4 C 0 km/h
1485 05-08-2010 09:00:02 16.4 C 12.14 g/m*3 16.4 C 0 km/h
1486 05-08-2010 09:12:02 16.6 C 11.58 g/m*3 16.6 C 0 km/h
1487 05-08-2010 09:24:02 17 C 11.72 g/m*3 17 C 0 km/h
1488 05-08-2010 09:36:02 17 C 11 g/m*3 17 C 0 km/h
1489 05-08-2010 09:48:02 17.2 C 10.69 g/m*3 17.2 C 0 km/h
1490 05-08-2010 10:00:03 17.5 C 11.03 g/m*3 17.5 C 0 km/h
1491 05-08-2010 10:12:01 17 C 10.13 g/m*3 17 C 0 km/h
1492 05-08-2010 10:24:01 17 C 10.42 g/m*3 17 C 0 km/h
1493 05-08-2010 10:36:02 17.7 C 10.41 g/m*3 17.7 C 0 km/h
1494 05-08-2010 10:48:02 18.1 C 9.89 g/m*3 18.1 C 0 km/h
1495 05-08-2010 11:00:02 18.3 C 10.01 g/m*3 18.3 C 0 km/h
1496 05-08-2010 11:12:02 18.5 C 9.81 g/m*3 18.5 C 0 km/h
1497 05-08-2010 11:24:02 18.5 C 9.18 g/m*3 18.5 C 0 km/h
1498 05-08-2010 11:36:02 18.1 C 9.43 g/m*3 18.1 C 0 km/h
1499 05-08-2010 11:48:02 18.4 C 9.91 g/m*3 18.4 C 0 km/h
1500 05-08-2010 12:00:02 18.1 C 9.27 g/m*3 18.1 C 0 km/h
Sensor: Nr:Datum:Temp:Abs-Feuchte:Windchill:Wind:
Aussen-T/F 1501 05-08-2010 12:12:02 18.4 C 9.28 g/m*3 18.4 C 0 km/h
1502 05-08-2010 12:24:02 18.2 C 9.48 g/m*3 18.2 C 0 km/h
1503 05-08-2010 12:36:02 18.5 C 9.33 g/m*3 18.5 C 0 km/h
1504 05-08-2010 12:48:02 18.9 C 9.4 g/m*3 18.9 C 0 km/h
1505 05-08-2010 13:00:02 18.6 C 8.91 g/m*3 18.6 C 0 km/h
1506 05-08-2010 13:12:02 19.1 C 8.36 g/m*3 19.1 C 0 km/h
1507 05-08-2010 13:24:02 18.5 C 7.91 g/m*3 18.5 C 0 km/h
1508 05-08-2010 13:36:02 18.7 C 7.84 g/m*3 18.7 C 0 km/h
1509 05-08-2010 13:48:02 20 C 7.95 g/m*3 20 C 0 km/h
1510 05-08-2010 14:00:02 20.1 C 7.47 g/m*3 20.1 C 0 km/h
1511 05-08-2010 14:12:02 20.4 C 7.61 g/m*3 20.4 C 0 km/h
1512 05-08-2010 14:24:02 21.6 C 7.78 g/m*3 21.6 C 0 km/h
1513 05-08-2010 14:36:01 21.8 C 7.67 g/m*3 21.8 C 0 km/h
1514 05-08-2010 14:48:02 22.5 C 7.19 g/m*3 22.5 C 0 km/h
1515 05-08-2010 15:00:02 22.1 C 7.03 g/m*3 22.1 C 0 km/h
1516 05-08-2010 15:12:02 22.9 C 6.95 g/m*3 22.9 C 0 km/h
1517 05-08-2010 15:24:02 22.6 C 6.43 g/m*3 22.6 C 0 km/h
1518 05-08-2010 15:36:02 23.3 C 5.85 g/m*3 23.3 C 0 km/h
1519 05-08-2010 15:48:01 24.1 C 5.69 g/m*3 24.1 C 0 km/h
1520 05-08-2010 16:00:01 26 C 6.33 g/m*3 26 C 0 km/h
1521 05-08-2010 16:12:02 25.5 C 5.21 g/m*3 25.5 C 0 km/h
1522 05-08-2010 16:24:01 24.2 C 5.5 g/m*3 24.2 C 0 km/h
1523 05-08-2010 16:36:01 24.7 C 5.66 g/m*3 24.7 C 0 km/h
1524 05-08-2010 16:48:01 25 C 5.75 g/m*3 25 C 0 km/h
1525 05-08-2010 17:00:01 24.3 C 5.53 g/m*3 24.3 C 0 km/h
Sensor: Nr:Datum:Temp:Abs-Feuchte:Windchill:Wind:
Aussen-T/F 1526 05-08-2010 17:12:01 23.6 C 5.32 g/m*3 23.6 C 0 km/h
1527 05-08-2010 17:24:02 24.1 C 5.03 g/m*3 24.1 C 0 km/h
1528 05-08-2010 17:36:01 24.4 C 5.34 g/m*3 24.4 C 0 km/h
1529 05-08-2010 17:48:01 23.5 C 5.29 g/m*3 23.5 C 0 km/h
1530 05-08-2010 18:00:01 23.7 C 5.35 g/m*3 23.7 C 0 km/h
1531 05-08-2010 18:12:02 23.6 C 5.32 g/m*3 23.6 C 0 km/h
1532 05-08-2010 18:24:01 22.1 C 5.66 g/m*3 22.1 C 0 km/h
1533 05-08-2010 18:36:02 22.5 C 5.99 g/m*3 22.5 C 0 km/h
1534 05-08-2010 18:48:02 21.6 C 5.69 g/m*3 21.6 C 0 km/h
1535 05-08-2010 19:00:02 21.6 C 5.69 g/m*3 21.6 C 0 km/h
1536 05-08-2010 19:12:02 21.2 C 5.74 g/m*3 21.2 C 0 km/h
1537 05-08-2010 19:24:02 21.2 C 6.3 g/m*3 21.2 C 0 km/h
1538 05-08-2010 19:36:02 21.4 C 6.37 g/m*3 21.4 C 0 km/h
1539 05-08-2010 19:48:02 20.9 C 6.74 g/m*3 20.9 C 0 km/h
1540 05-08-2010 20:00:02 20.8 C 6.7 g/m*3 20.8 C 0 km/h
1541 05-08-2010 20:12:02 20.3 C 6.68 g/m*3 20.3 C 0 km/h
1542 05-08-2010 20:24:02 20.1 C 7.13 g/m*3 20.1 C 0 km/h
1543 05-08-2010 20:36:01 20.1 C 6.95 g/m*3 20.1 C 0 km/h
1544 05-08-2010 20:48:02 19.8 C 7 g/m*3 19.8 C 0 km/h
1545 05-08-2010 21:00:02 19.8 C 7.34 g/m*3 19.8 C 0 km/h
1546 05-08-2010 21:12:01 19.3 C 7.3 g/m*3 19.3 C 0 km/h
1547 05-08-2010 21:24:01 18.9 C 7.13 g/m*3 18.9 C 0 km/h
1548 05-08-2010 21:36:02 18.5 C 6.96 g/m*3 18.5 C 0 km/h
1549 05-08-2010 21:48:02 18.2 C 6.99 g/m*3 18.2 C 0 km/h
1550 05-08-2010 22:00:02 18 C 7.07 g/m*3 18 C 0 km/h
Sensor: Nr:Datum:Temp:Abs-Feuchte:Windchill:Wind:
Aussen-T/F 1551 05-08-2010 22:12:02 17.9 C 7.33 g/m*3 17.9 C 0 km/h
1552 05-08-2010 22:25:02 17.7 C 7.54 g/m*3 17.7 C 0 km/h
1553 05-08-2010 22:37:02 17.5 C 7.6 g/m*3 17.5 C 0 km/h
1554 05-08-2010 22:49:02 17.4 C 7.85 g/m*3 17.4 C 0 km/h
1555 05-08-2010 23:01:02 17.5 C 7.9 g/m*3 17.5 C 0 km/h
1556 05-08-2010 23:13:02 17.3 C 7.96 g/m*3 17.3 C 0 km/h
1557 05-08-2010 23:25:02 17 C 8.1 g/m*3 17 C 0 km/h
1558 05-08-2010 23:37:02 16.7 C 8.24 g/m*3 16.7 C 0 km/h
1559 05-08-2010 23:49:02 16.5 C 8.28 g/m*3 16.5 C 0 km/h
1560 06-08-2010 00:01:02 16.4 C 8.37 g/m*3 16.4 C 0 km/h
1561 06-08-2010 00:13:02 16.2 C 8.41 g/m*3 16.2 C 0 km/h
1562 06-08-2010 00:25:02 16 C 8.45 g/m*3 16 C 0 km/h
1563 06-08-2010 00:37:02 15.8 C 8.48 g/m*3 15.8 C 0 km/h
1564 06-08-2010 00:49:02 15.7 C 8.7 g/m*3 15.7 C 0 km/h
1565 06-08-2010 01:01:02 15.6 C 8.51 g/m*3 15.6 C 0 km/h
1566 06-08-2010 01:13:03 15.4 C 8.54 g/m*3 15.4 C 0 km/h
1567 06-08-2010 01:25:03 15.3 C 8.62 g/m*3 15.3 C 0 km/h
1568 06-08-2010 01:37:03 15.1 C 8.64 g/m*3 15.1 C 0 km/h
1569 06-08-2010 01:49:03 14.9 C 8.79 g/m*3 14.9 C 0 km/h
1570 06-08-2010 02:01:03 14.7 C 8.81 g/m*3 14.7 C 0 km/h
1571 06-08-2010 02:13:03 14.6 C 8.88 g/m*3 14.6 C 0 km/h
1572 06-08-2010 02:25:03 14.5 C 8.83 g/m*3 14.5 C 0 km/h
1573 06-08-2010 02:37:03 14.5 C 8.95 g/m*3 14.5 C 0 km/h
1574 06-08-2010 02:49:03 14.3 C 8.85 g/m*3 14.3 C 0 km/h
1575 06-08-2010 03:01:03 14.2 C 8.79 g/m*3 14.2 C 0 km/h
Sensor: Nr:Datum:Temp:Abs-Feuchte:Windchill:Wind:
Aussen-T/F 1576 06-08-2010 03:13:03 14 C 8.68 g/m*3 14 C 0 km/h
1577 06-08-2010 03:25:03 14 C 8.81 g/m*3 14 C 0 km/h
1578 06-08-2010 03:37:03 13.9 C 8.99 g/m*3 13.9 C 0 km/h
1579 06-08-2010 03:49:03 13.7 C 9 g/m*3 13.7 C 0 km/h
1580 06-08-2010 04:01:03 13.6 C 9.18 g/m*3 13.6 C 0 km/h
1581 06-08-2010 04:13:03 13.5 C 9.24 g/m*3 13.5 C 0 km/h
1582 06-08-2010 04:25:03 13.4 C 9.3 g/m*3 13.4 C 0 km/h
1583 06-08-2010 04:37:03 13.4 C 9.42 g/m*3 13.4 C 0 km/h
1584 06-08-2010 04:49:03 13.3 C 9.36 g/m*3 13.3 C 0 km/h
1585 06-08-2010 05:01:03 13.1 C 9.24 g/m*3 13.1 C 0 km/h
1586 06-08-2010 05:13:03 13 C 9.3 g/m*3 13 C 0 km/h
1587 06-08-2010 05:25:04 12.8 C 9.3 g/m*3 12.8 C 0 km/h
1588 06-08-2010 05:37:04 12.8 C 9.41 g/m*3 12.8 C 0 km/h
1589 06-08-2010 05:49:04 13.1 C 9.47 g/m*3 13.1 C 0 km/h
1590 06-08-2010 06:01:04 13.4 C 9.53 g/m*3 13.4 C 0 km/h
1591 06-08-2010 06:13:04 13.5 C 9.36 g/m*3 13.5 C 0 km/h
1592 06-08-2010 06:25:04 13.5 C 9.36 g/m*3 13.5 C 0 km/h
1593 06-08-2010 06:37:04 13.2 C 9.07 g/m*3 13.2 C 0 km/h
1594 06-08-2010 06:49:04 13.1 C 9.13 g/m*3 13.1 C 0 km/h
1595 06-08-2010 07:01:04 13 C 9.19 g/m*3 13 C 0 km/h
1596 06-08-2010 07:13:04 13.2 C 9.3 g/m*3 13.2 C 0 km/h
1597 06-08-2010 07:25:04 13.2 C 9.19 g/m*3 13.2 C 0 km/h
1598 06-08-2010 07:37:03 13.3 C 9.36 g/m*3 13.3 C 0 km/h
1599 06-08-2010 07:49:01 13.2 C 9.3 g/m*3 13.2 C 0 km/h
1600 06-08-2010 08:01:02 13.2 C 9.42 g/m*3 13.2 C 0 km/h
Sensor: Nr:Datum:Temp:Abs-Feuchte:Windchill:Wind:
Aussen-T/F 1601 06-08-2010 08:13:02 13.2 C 9.42 g/m*3 13.2 C 0 km/h
1602 06-08-2010 08:25:01 13.5 C 9.59 g/m*3 13.5 C 0 km/h
1603 06-08-2010 08:37:02 13.8 C 9.65 g/m*3 13.8 C 0 km/h
1604 06-08-2010 08:49:02 13.7 C 9.35 g/m*3 13.7 C 0 km/h
1605 06-08-2010 09:01:02 14.7 C 9.57 g/m*3 14.7 C 0 km/h
1606 06-08-2010 09:13:02 14.9 C 9.43 g/m*3 14.9 C 0 km/h
1607 06-08-2010 09:25:02 15.4 C 9.46 g/m*3 15.4 C 0 km/h
1608 06-08-2010 09:37:02 15.8 C 9.29 g/m*3 15.8 C 0 km/h
1609 06-08-2010 09:49:01 16.5 C 9.41 g/m*3 16.5 C 0 km/h
1610 06-08-2010 10:01:02 17.1 C 9.17 g/m*3 17.1 C 0 km/h
1611 06-08-2010 10:13:02 17.7 C 8.45 g/m*3 17.7 C 0 km/h
1612 06-08-2010 10:25:02 17.4 C 8 g/m*3 17.4 C 0 km/h
1613 06-08-2010 10:37:01 18.2 C 7.93 g/m*3 18.2 C 0 km/h
1614 06-08-2010 10:49:01 18.8 C 7.89 g/m*3 18.8 C 0 km/h
1615 06-08-2010 11:01:01 19.2 C 7.91 g/m*3 19.2 C 0 km/h
1616 06-08-2010 11:13:01 19 C 7.17 g/m*3 19 C 0 km/h
1617 06-08-2010 11:25:02 20 C 7.6 g/m*3 20 C 0 km/h
1618 06-08-2010 11:37:01 20.8 C 7.06 g/m*3 20.8 C 0 km/h
1619 06-08-2010 11:49:02 20.2 C 6.29 g/m*3 20.2 C 0 km/h
1620 06-08-2010 12:01:01 22 C 6.79 g/m*3 22 C 0 km/h
1621 06-08-2010 12:13:01 20.7 C 6.48 g/m*3 20.7 C 0 km/h
1622 06-08-2010 12:25:01 20.8 C 6.34 g/m*3 20.8 C 0 km/h
1623 06-08-2010 12:37:01 22 C 6.02 g/m*3 22 C 0 km/h
1624 06-08-2010 12:49:02 21.2 C 5.19 g/m*3 21.2 C 0 km/h
1625 06-08-2010 13:01:02 22.8 C 5.49 g/m*3 22.8 C 0 km/h
Sensor: Nr:Datum:Temp:Abs-Feuchte:Windchill:Wind:
Aussen-T/F 1626 06-08-2010 13:13:02 22 C 4.66 g/m*3 22 C 0 km/h
1627 06-08-2010 13:25:02 24.5 C 4.7 g/m*3 24.5 C 0 km/h
1628 06-08-2010 13:37:02 24.1 C 4.38 g/m*3 24.1 C 0 km/h
1629 06-08-2010 13:49:01 25.1 C 4.63 g/m*3 25.1 C 0 km/h
1630 06-08-2010 14:01:02 24.5 C 4.48 g/m*3 24.5 C 0 km/h
1631 06-08-2010 14:13:02 24.4 C 4.45 g/m*3 24.4 C 0 km/h
1632 06-08-2010 14:25:01 25 C 4.6 g/m*3 25 C 0 km/h
1633 06-08-2010 14:37:02 24.6 C 4.5 g/m*3 24.6 C 0 km/h
1634 06-08-2010 14:49:02 25.7 C 4.79 g/m*3 25.7 C 0 km/h
1635 06-08-2010 15:01:02 25.7 C 4.79 g/m*3 25.7 C 0 km/h
1636 06-08-2010 15:13:02 25.3 C 4.68 g/m*3 25.3 C 0 km/h
1637 06-08-2010 15:25:01 25.7 C 4.79 g/m*3 25.7 C 0 km/h
1638 06-08-2010 15:37:02 24.4 C 4.45 g/m*3 24.4 C 0 km/h
1639 06-08-2010 15:49:02 25.3 C 4.68 g/m*3 25.3 C 0 km/h
1640 06-08-2010 16:01:02 26.5 C 5.01 g/m*3 26.5 C 0 km/h
1641 06-08-2010 16:13:02 28.4 C 5.56 g/m*3 28.4 C 0 km/h
1642 06-08-2010 16:25:02 28.8 C 5.68 g/m*3 28.8 C 0 km/h
1643 06-08-2010 16:37:02 28.8 C 5.68 g/m*3 28.8 C 0 km/h
1644 06-08-2010 16:49:02 28 C 5.44 g/m*3 28 C 0 km/h
1645 06-08-2010 17:01:03 26 C 4.87 g/m*3 26 C 0 km/h
1646 06-08-2010 17:13:03 24.2 C 4.4 g/m*3 24.2 C 0 km/h
1647 06-08-2010 17:25:02 24 C 17.19 g/m*3 24 C 0 km/h
1648 06-08-2010 17:37:02 24.3 C 6.2 g/m*3 24.3 C 0 km/h
1649 06-08-2010 17:49:02 25.8 C 4.82 g/m*3 25.8 C 0 km/h
1650 06-08-2010 18:01:02 27.6 C 5.32 g/m*3 27.6 C 0 km/h
Sensor: Nr:Datum:Temp:Abs-Feuchte:Windchill:Wind:
Aussen-T/F 1651 06-08-2010 18:13:02 27.2 C 5.2 g/m*3 27.2 C 0 km/h
1652 06-08-2010 18:25:02 26.7 C 5.06 g/m*3 26.7 C 0 km/h
1653 06-08-2010 18:37:02 26 C 4.87 g/m*3 26 C 0 km/h
1654 06-08-2010 18:49:03 24.6 C 4.5 g/m*3 24.6 C 0 km/h
1655 06-08-2010 19:01:03 25.9 C 4.84 g/m*3 25.9 C 0 km/h
1656 06-08-2010 19:13:03 26.6 C 5.03 g/m*3 26.6 C 0 km/h
1657 06-08-2010 19:25:03 26.2 C 4.92 g/m*3 26.2 C 0 km/h
1658 06-08-2010 19:37:02 26.4 C 4.98 g/m*3 26.4 C 0 km/h
1659 06-08-2010 19:49:03 25.9 C 4.84 g/m*3 25.9 C 0 km/h
1660 06-08-2010 20:01:03 25.7 C 4.79 g/m*3 25.7 C 0 km/h
1661 06-08-2010 20:13:03 25.1 C 5.09 g/m*3 25.1 C 0 km/h
1662 06-08-2010 20:25:03 23.8 C 4.73 g/m*3 23.8 C 0 km/h
1663 06-08-2010 20:37:03 22.5 C 5.79 g/m*3 22.5 C 0 km/h
1664 06-08-2010 20:49:02 21.2 C 5.74 g/m*3 21.2 C 0 km/h
1665 06-08-2010 21:01:02 20.3 C 5.98 g/m*3 20.3 C 0 km/h
1666 06-08-2010 21:13:02 19.5 C 5.87 g/m*3 19.5 C 0 km/h
1667 06-08-2010 21:25:02 19.1 C 5.9 g/m*3 19.1 C 0 km/h
1668 06-08-2010 21:37:02 18.9 C 6.48 g/m*3 18.9 C 0 km/h
1669 06-08-2010 21:49:02 18.7 C 6.4 g/m*3 18.7 C 0 km/h
1670 06-08-2010 22:01:02 18.3 C 6.41 g/m*3 18.3 C 0 km/h
1671 06-08-2010 22:13:02 18.1 C 6.49 g/m*3 18.1 C 0 km/h
1672 06-08-2010 22:25:01 17.6 C 6.15 g/m*3 17.6 C 0 km/h
1673 06-08-2010 22:38:02 17.4 C 6.22 g/m*3 17.4 C 0 km/h
1674 06-08-2010 22:50:02 17.2 C 6.44 g/m*3 17.2 C 0 km/h
1675 06-08-2010 23:02:02 16.9 C 6.47 g/m*3 16.9 C 0 km/h
Sensor: Nr:Datum:Temp:Abs-Feuchte:Windchill:Wind:
Aussen-T/F 1676 06-08-2010 23:14:02 16.6 C 6.5 g/m*3 16.6 C 0 km/h
1677 06-08-2010 23:26:02 16.4 C 6.7 g/m*3 16.4 C 0 km/h
1678 06-08-2010 23:38:02 16.2 C 6.76 g/m*3 16.2 C 0 km/h
1679 06-08-2010 23:50:02 15.9 C 6.91 g/m*3 15.9 C 0 km/h
1680 07-08-2010 00:02:02 15.7 C 6.96 g/m*3 15.7 C 0 km/h
1681 07-08-2010 00:14:02 15.2 C 7.01 g/m*3 15.2 C 0 km/h
1682 07-08-2010 00:26:02 15 C 7.18 g/m*3 15 C 0 km/h
1683 07-08-2010 00:38:02 14.8 C 7.09 g/m*3 14.8 C 0 km/h
1684 07-08-2010 00:50:02 14.5 C 7.46 g/m*3 14.5 C 0 km/h
1685 07-08-2010 01:02:03 14.4 C 7.42 g/m*3 14.4 C 0 km/h
1686 07-08-2010 01:14:03 14 C 7.48 g/m*3 14 C 0 km/h
1687 07-08-2010 01:26:03 14 C 7.48 g/m*3 14 C 0 km/h
1688 07-08-2010 01:38:03 13.8 C 7.63 g/m*3 13.8 C 0 km/h
1689 07-08-2010 01:50:03 13.5 C 7.72 g/m*3 13.5 C 0 km/h
1690 07-08-2010 02:02:03 13.4 C 7.67 g/m*3 13.4 C 0 km/h
1691 07-08-2010 02:14:03 13.2 C 7.92 g/m*3 13.2 C 0 km/h
1692 07-08-2010 02:26:03 12.9 C 8 g/m*3 12.9 C 0 km/h
1693 07-08-2010 02:38:03 12.8 C 7.95 g/m*3 12.8 C 0 km/h
1694 07-08-2010 02:50:03 12.7 C 7.9 g/m*3 12.7 C 0 km/h
1695 07-08-2010 03:02:03 12.6 C 7.85 g/m*3 12.6 C 0 km/h
1696 07-08-2010 03:14:03 12.5 C 7.7 g/m*3 12.5 C 0 km/h
1697 07-08-2010 03:26:03 12.2 C 7.66 g/m*3 12.2 C 0 km/h
1698 07-08-2010 03:38:03 12.2 C 7.77 g/m*3 12.2 C 0 km/h
1699 07-08-2010 03:50:03 12.1 C 7.72 g/m*3 12.1 C 0 km/h
1700 07-08-2010 04:02:03 11.9 C 7.73 g/m*3 11.9 C 0 km/h
Sensor: Nr:Datum:Temp:Abs-Feuchte:Windchill:Wind:
Aussen-T/F 1701 07-08-2010 04:14:03 11.8 C 7.79 g/m*3 11.8 C 0 km/h
1702 07-08-2010 04:26:03 11.6 C 7.69 g/m*3 11.6 C 0 km/h
1703 07-08-2010 04:38:03 11.5 C 7.64 g/m*3 11.5 C 0 km/h
1704 07-08-2010 04:50:03 11.4 C 7.7 g/m*3 11.4 C 0 km/h
1705 07-08-2010 05:02:04 11.3 C 7.65 g/m*3 11.3 C 0 km/h
1706 07-08-2010 05:14:04 11.2 C 7.7 g/m*3 11.2 C 0 km/h
1707 07-08-2010 05:26:04 11.1 C 7.66 g/m*3 11.1 C 0 km/h
1708 07-08-2010 05:38:04 10.9 C 7.66 g/m*3 10.9 C 0 km/h
1709 07-08-2010 05:50:04 10.8 C 7.81 g/m*3 10.8 C 0 km/h
1710 07-08-2010 06:02:04 10.6 C 7.71 g/m*3 10.6 C 0 km/h
1711 07-08-2010 06:14:04 10.5 C 7.76 g/m*3 10.5 C 0 km/h
1712 07-08-2010 06:26:04 10.5 C 7.76 g/m*3 10.5 C 0 km/h
1713 07-08-2010 06:38:04 10.4 C 7.81 g/m*3 10.4 C 0 km/h
1714 07-08-2010 06:50:04 10.4 C 7.81 g/m*3 10.4 C 0 km/h
1715 07-08-2010 07:02:04 10.5 C 7.86 g/m*3 10.5 C 0 km/h
1716 07-08-2010 07:14:04 10.5 C 7.86 g/m*3 10.5 C 0 km/h
1717 07-08-2010 07:26:04 10.7 C 8.05 g/m*3 10.7 C 0 km/h
1718 07-08-2010 07:38:04 10.8 C 8.01 g/m*3 10.8 C 0 km/h
1719 07-08-2010 07:50:04 11 C 8.01 g/m*3 11 C 0 km/h
1720 07-08-2010 08:02:04 11.2 C 8.01 g/m*3 11.2 C 0 km/h
1721 07-08-2010 08:14:04 11.4 C 8.01 g/m*3 11.4 C 0 km/h
1722 07-08-2010 08:26:04 11.6 C 8 g/m*3 11.6 C 0 km/h
1723 07-08-2010 08:38:04 12 C 8.1 g/m*3 12 C 0 km/h
1724 07-08-2010 08:50:04 12.5 C 8.25 g/m*3 12.5 C 0 km/h
1725 07-08-2010 09:02:01 12.8 C 8.18 g/m*3 12.8 C 0 km/h
Sensor: Nr:Datum:Temp:Abs-Feuchte:Windchill:Wind:
Aussen-T/F 1726 07-08-2010 09:14:01 13.4 C 8.25 g/m*3 13.4 C 0 km/h
1727 07-08-2010 09:26:02 14.1 C 8.5 g/m*3 14.1 C 0 km/h
1728 07-08-2010 09:38:01 14.6 C 8.51 g/m*3 14.6 C 0 km/h
1729 07-08-2010 09:50:02 15.4 C 8.54 g/m*3 15.4 C 0 km/h
1730 07-08-2010 10:02:02 16.5 C 8.71 g/m*3 16.5 C 0 km/h
1731 07-08-2010 10:14:02 17.5 C 8.8 g/m*3 17.5 C 0 km/h
1732 07-08-2010 10:26:02 18.5 C 8.86 g/m*3 18.5 C 0 km/h
1733 07-08-2010 10:38:02 19.2 C 8.24 g/m*3 19.2 C 0 km/h
1734 07-08-2010 10:50:02 19.4 C 7.67 g/m*3 19.4 C 0 km/h
1735 07-08-2010 11:02:02 19.8 C 7.17 g/m*3 19.8 C 0 km/h
1736 07-08-2010 11:14:02 20.9 C 6.74 g/m*3 20.9 C 0 km/h
1737 07-08-2010 11:26:01 21.5 C 6.03 g/m*3 21.5 C 0 km/h
1738 07-08-2010 11:38:02 22.1 C 5.66 g/m*3 22.1 C 0 km/h
1739 07-08-2010 11:50:01 22 C 6.02 g/m*3 22 C 0 km/h
1740 07-08-2010 12:02:02 22.2 C 5.89 g/m*3 22.2 C 0 km/h
1741 07-08-2010 12:14:02 22.6 C 5.62 g/m*3 22.6 C 0 km/h
1742 07-08-2010 12:26:01 22.9 C 5.31 g/m*3 22.9 C 0 km/h
1743 07-08-2010 12:38:01 23 C 5.14 g/m*3 23 C 0 km/h
1744 07-08-2010 12:50:01 23.6 C 5.32 g/m*3 23.6 C 0 km/h
1745 07-08-2010 13:02:02 23.9 C 4.76 g/m*3 23.9 C 0 km/h
1746 07-08-2010 13:14:02 24.8 C 4.78 g/m*3 24.8 C 0 km/h
1747 07-08-2010 13:26:01 25.9 C 4.84 g/m*3 25.9 C 0 km/h
1748 07-08-2010 13:38:02 26.6 C 5.03 g/m*3 26.6 C 0 km/h
1749 07-08-2010 13:50:02 26.2 C 4.92 g/m*3 26.2 C 0 km/h
1750 07-08-2010 14:02:02 26.7 C 5.06 g/m*3 26.7 C 0 km/h
Sensor: Nr:Datum:Temp:Abs-Feuchte:Windchill:Wind:
Aussen-T/F 1751 07-08-2010 14:14:02 26.6 C 5.03 g/m*3 26.6 C 0 km/h
1752 07-08-2010 14:26:02 26.5 C 5.01 g/m*3 26.5 C 0 km/h
1753 07-08-2010 14:38:02 26.5 C 5.01 g/m*3 26.5 C 0 km/h
1754 07-08-2010 14:50:02 27 C 5.15 g/m*3 27 C 0 km/h
1755 07-08-2010 15:02:02 26.9 C 5.12 g/m*3 26.9 C 0 km/h
1756 07-08-2010 15:14:02 27.2 C 5.2 g/m*3 27.2 C 0 km/h
1757 07-08-2010 15:26:02 27.7 C 5.35 g/m*3 27.7 C 0 km/h
1758 07-08-2010 15:38:02 28.8 C 5.68 g/m*3 28.8 C 0 km/h
1759 07-08-2010 15:50:02 28.3 C 5.53 g/m*3 28.3 C 0 km/h
1760 07-08-2010 16:02:02 28.5 C 5.59 g/m*3 28.5 C 0 km/h
1761 07-08-2010 16:14:03 28.7 C 5.65 g/m*3 28.7 C 0 km/h
1762 07-08-2010 16:26:01 29.5 C 5.9 g/m*3 29.5 C 0 km/h
1763 07-08-2010 16:38:02 30.1 C 6.1 g/m*3 30.1 C 0 km/h
1764 07-08-2010 16:50:02 29.2 C 5.81 g/m*3 29.2 C 0 km/h
1765 07-08-2010 17:02:02 29.5 C 5.9 g/m*3 29.5 C 0 km/h
1766 07-08-2010 17:14:02 29.5 C 5.9 g/m*3 29.5 C 0 km/h
1767 07-08-2010 17:26:02 29.1 C 5.78 g/m*3 29.1 C 0 km/h
1768 07-08-2010 17:38:02 29.9 C 6.03 g/m*3 29.9 C 0 km/h
1769 07-08-2010 17:50:02 28.5 C 5.59 g/m*3 28.5 C 0 km/h
1770 07-08-2010 18:02:02 28.2 C 5.5 g/m*3 28.2 C 0 km/h
1771 07-08-2010 18:14:02 27.9 C 5.95 g/m*3 27.9 C 0 km/h
1772 07-08-2010 18:26:02 27.3 C 6.8 g/m*3 27.3 C 0 km/h
1773 07-08-2010 18:38:02 26.9 C 6.14 g/m*3 26.9 C 0 km/h
1774 07-08-2010 18:50:02 26.7 C 6.83 g/m*3 26.7 C 0 km/h
1775 07-08-2010 19:02:01 26.1 C 6.61 g/m*3 26.1 C 0 km/h
Sensor: Nr:Datum:Temp:Abs-Feuchte:Windchill:Wind:
Aussen-T/F 1776 07-08-2010 19:14:01 25.6 C 7.14 g/m*3 25.6 C 0 km/h
1777 07-08-2010 19:26:02 24.8 C 6.83 g/m*3 24.8 C 0 km/h
1778 07-08-2010 19:38:01 24.7 C 6.79 g/m*3 24.7 C 0 km/h
1779 07-08-2010 19:50:02 24.6 C 6.75 g/m*3 24.6 C 0 km/h
1780 07-08-2010 20:02:01 24.7 C 6.79 g/m*3 24.7 C 0 km/h
1781 07-08-2010 20:14:01 24.2 C 7.04 g/m*3 24.2 C 0 km/h
1782 07-08-2010 20:26:01 23.7 C 6.84 g/m*3 23.7 C 0 km/h
1783 07-08-2010 20:38:02 23.5 C 7.19 g/m*3 23.5 C 0 km/h
1784 07-08-2010 20:50:02 23.2 C 7.07 g/m*3 23.2 C 0 km/h
1785 07-08-2010 21:02:02 22.9 C 7.15 g/m*3 22.9 C 0 km/h
1786 07-08-2010 21:14:02 22.4 C 7.35 g/m*3 22.4 C 0 km/h
1787 07-08-2010 21:26:02 22.3 C 6.91 g/m*3 22.3 C 0 km/h
1788 07-08-2010 21:38:02 22.3 C 6.91 g/m*3 22.3 C 0 km/h
1789 07-08-2010 21:50:02 22.4 C 6.95 g/m*3 22.4 C 0 km/h
1790 07-08-2010 22:02:02 22.2 C 7.07 g/m*3 22.2 C 0 km/h
1791 07-08-2010 22:14:02 22 C 6.99 g/m*3 22 C 0 km/h
1792 07-08-2010 22:26:02 21.8 C 7.48 g/m*3 21.8 C 0 km/h
1793 07-08-2010 22:38:02 21.9 C 7.72 g/m*3 21.9 C 0 km/h
1794 07-08-2010 22:50:02 21.9 C 7.72 g/m*3 21.9 C 0 km/h
1795 07-08-2010 23:02:01 21.8 C 7.67 g/m*3 21.8 C 0 km/h
1796 07-08-2010 23:14:01 21.7 C 7.63 g/m*3 21.7 C 0 km/h
1797 07-08-2010 23:26:02 21.7 C 7.82 g/m*3 21.7 C 0 km/h
1798 07-08-2010 23:38:02 21.4 C 7.69 g/m*3 21.4 C 0 km/h
1799 07-08-2010 23:50:02 21.4 C 7.87 g/m*3 21.4 C 0 km/h
1800 08-08-2010 00:02:02 21.3 C 8.02 g/m*3 21.3 C 0 km/h
Sensor: Nr:Datum:Temp:Abs-Feuchte:Windchill:Wind:
Aussen-T/F 1801 08-08-2010 00:14:02 21.2 C 7.78 g/m*3 21.2 C 0 km/h
1802 08-08-2010 00:26:02 21.1 C 8.11 g/m*3 21.1 C 0 km/h
1803 08-08-2010 00:38:01 20.9 C 8.38 g/m*3 20.9 C 0 km/h
1804 08-08-2010 00:50:03 20.7 C 8.28 g/m*3 20.7 C 0 km/h
1805 08-08-2010 01:02:02 20.4 C 8.31 g/m*3 20.4 C 0 km/h
1806 08-08-2010 01:14:02 20.4 C 8.14 g/m*3 20.4 C 0 km/h
1807 08-08-2010 01:26:02 20.1 C 8.34 g/m*3 20.1 C 0 km/h
1808 08-08-2010 01:38:02 19.9 C 8.59 g/m*3 19.9 C 0 km/h
1809 08-08-2010 01:50:02 20 C 8.81 g/m*3 20 C 0 km/h
1810 08-08-2010 02:02:01 20.1 C 8.87 g/m*3 20.1 C 0 km/h
1811 08-08-2010 02:14:01 20.1 C 9.04 g/m*3 20.1 C 0 km/h
1812 08-08-2010 02:26:02 19.7 C 9.68 g/m*3 19.7 C 0 km/h
1813 08-08-2010 02:38:02 19.6 C 9.79 g/m*3 19.6 C 0 km/h
1814 08-08-2010 02:50:01 19.6 C 9.79 g/m*3 19.6 C 0 km/h
1815 08-08-2010 03:02:01 19.3 C 9.79 g/m*3 19.3 C 0 km/h
1816 08-08-2010 03:14:02 18.7 C 9.93 g/m*3 18.7 C 0 km/h
1817 08-08-2010 03:26:02 18.5 C 10.13 g/m*3 18.5 C 0 km/h
1818 08-08-2010 03:38:01 18.4 C 10.07 g/m*3 18.4 C 0 km/h
1819 08-08-2010 03:50:01 18.5 C 10.13 g/m*3 18.5 C 0 km/h
1820 08-08-2010 04:02:01 18.5 C 10.13 g/m*3 18.5 C 0 km/h
1821 08-08-2010 04:14:01 18.4 C 10.38 g/m*3 18.4 C 0 km/h
1822 08-08-2010 04:26:02 18.3 C 10.48 g/m*3 18.3 C 0 km/h
1823 08-08-2010 04:38:01 18.3 C 10.48 g/m*3 18.3 C 0 km/h
1824 08-08-2010 04:50:02 18.3 C 10.48 g/m*3 18.3 C 0 km/h
1825 08-08-2010 05:02:01 18.2 C 10.57 g/m*3 18.2 C 0 km/h
Sensor: Nr:Datum:Temp:Abs-Feuchte:Windchill:Wind:
Aussen-T/F 1826 08-08-2010 05:14:01 17.7 C 11.16 g/m*3 17.7 C 0 km/h
1827 08-08-2010 05:26:02 17.5 C 11.48 g/m*3 17.5 C 0 km/h
1828 08-08-2010 05:38:01 17.4 C 12 g/m*3 17.4 C 0 km/h
1829 08-08-2010 05:50:02 17 C 12.01 g/m*3 17 C 0 km/h
1830 08-08-2010 06:02:01 16.9 C 12.37 g/m*3 16.9 C 0 km/h
1831 08-08-2010 06:14:01 16.6 C 12.29 g/m*3 16.6 C 0 km/h
1832 08-08-2010 06:26:01 16.6 C 12.43 g/m*3 16.6 C 0 km/h
1833 08-08-2010 06:38:02 16.6 C 12.57 g/m*3 16.6 C 0 km/h
1834 08-08-2010 06:50:01 16.7 C 12.79 g/m*3 16.7 C 0 km/h
1835 08-08-2010 07:02:02 16.5 C 12.64 g/m*3 16.5 C 0 km/h
1836 08-08-2010 07:14:02 16.4 C 12.7 g/m*3 16.4 C 0 km/h
1837 08-08-2010 07:26:01 16.6 C 13 g/m*3 16.6 C 0 km/h
1838 08-08-2010 07:38:02 16.8 C 13.15 g/m*3 16.8 C 0 km/h
1839 08-08-2010 07:50:01 17 C 13.31 g/m*3 17 C 0 km/h
1840 08-08-2010 08:02:02 17 C 13.31 g/m*3 17 C 0 km/h
1841 08-08-2010 08:14:02 17 C 13.31 g/m*3 17 C 0 km/h
1842 08-08-2010 08:26:01 17.3 C 13.55 g/m*3 17.3 C 0 km/h
1843 08-08-2010 08:38:02 17.2 C 13.47 g/m*3 17.2 C 0 km/h
1844 08-08-2010 08:50:01 17.5 C 13.72 g/m*3 17.5 C 0 km/h
1845 08-08-2010 09:02:02 17.6 C 13.65 g/m*3 17.6 C 0 km/h
1846 08-08-2010 09:14:02 17.5 C 13.42 g/m*3 17.5 C 0 km/h
1847 08-08-2010 09:26:01 17.5 C 13.27 g/m*3 17.5 C 0 km/h
1848 08-08-2010 09:38:01 17.6 C 13.2 g/m*3 17.6 C 0 km/h
1849 08-08-2010 09:50:01 18 C 13.21 g/m*3 18 C 0 km/h
1850 08-08-2010 10:02:01 18 C 12.75 g/m*3 18 C 0 km/h
Sensor: Nr:Datum:Temp:Abs-Feuchte:Windchill:Wind:
Aussen-T/F 1851 08-08-2010 10:14:01 18.1 C 12.67 g/m*3 18.1 C 0 km/h
1852 08-08-2010 10:26:02 18.5 C 12.82 g/m*3 18.5 C 0 km/h
1853 08-08-2010 10:38:01 19 C 12.55 g/m*3 19 C 0 km/h
1854 08-08-2010 10:50:02 18.7 C 12.49 g/m*3 18.7 C 0 km/h
1855 08-08-2010 11:02:01 17.1 C 11.94 g/m*3 17.1 C 0 km/h
1856 08-08-2010 11:14:01 16.5 C 12.08 g/m*3 16.5 C 0 km/h
1857 08-08-2010 11:26:02 16.4 C 12.28 g/m*3 16.4 C 0 km/h
1858 08-08-2010 11:38:01 16.1 C 12.06 g/m*3 16.1 C 0 km/h
1859 08-08-2010 11:50:02 16.3 C 12.35 g/m*3 16.3 C 0 km/h
1860 08-08-2010 12:02:01 16.2 C 12.27 g/m*3 16.2 C 0 km/h
1861 08-08-2010 12:14:01 16.5 C 12.5 g/m*3 16.5 C 0 km/h
1862 08-08-2010 12:26:01 16.6 C 12.57 g/m*3 16.6 C 0 km/h
1863 08-08-2010 12:38:01 17.1 C 12.96 g/m*3 17.1 C 0 km/h
1864 08-08-2010 12:50:02 16.5 C 12.5 g/m*3 16.5 C 0 km/h
1865 08-08-2010 13:02:02 16.5 C 12.64 g/m*3 16.5 C 0 km/h
1866 08-08-2010 13:14:02 16.4 C 12.56 g/m*3 16.4 C 0 km/h
1867 08-08-2010 13:26:01 16.5 C 12.64 g/m*3 16.5 C 0 km/h
1868 08-08-2010 13:38:03 17.9 C 13.59 g/m*3 17.9 C 0 km/h
1869 08-08-2010 13:50:01 18.5 C 12.82 g/m*3 18.5 C 0 km/h
1870 08-08-2010 14:02:01 18.7 C 12.65 g/m*3 18.7 C 0 km/h
1871 08-08-2010 14:14:01 18.9 C 12.47 g/m*3 18.9 C 0 km/h
1872 08-08-2010 14:26:02 18.9 C 12.64 g/m*3 18.9 C 0 km/h
1873 08-08-2010 14:38:01 19.2 C 12.37 g/m*3 19.2 C 0 km/h
1874 08-08-2010 14:50:02 19.2 C 12.7 g/m*3 19.2 C 0 km/h
1875 08-08-2010 15:02:01 18.9 C 12.8 g/m*3 18.9 C 0 km/h
Sensor: Nr:Datum:Temp:Abs-Feuchte:Windchill:Wind:
Aussen-T/F 1876 08-08-2010 15:14:01 19.5 C 12.59 g/m*3 19.5 C 0 km/h
1877 08-08-2010 15:26:02 20.2 C 12.41 g/m*3 20.2 C 0 km/h
1878 08-08-2010 15:38:01 21 C 13.19 g/m*3 21 C 0 km/h
1879 08-08-2010 15:50:02 21.3 C 11.37 g/m*3 21.3 C 0 km/h
1880 08-08-2010 16:02:01 20.7 C 11.88 g/m*3 20.7 C 0 km/h
1881 08-08-2010 16:14:01 20 C 12.27 g/m*3 20 C 0 km/h
1882 08-08-2010 16:26:01 19.5 C 12.42 g/m*3 19.5 C 0 km/h
1883 08-08-2010 16:38:02 19.6 C 12.49 g/m*3 19.6 C 0 km/h
1884 08-08-2010 16:50:01 19.9 C 12.71 g/m*3 19.9 C 0 km/h
1885 08-08-2010 17:02:02 21.4 C 11.81 g/m*3 21.4 C 0 km/h
1886 08-08-2010 17:14:02 21.3 C 12.3 g/m*3 21.3 C 0 km/h
1887 08-08-2010 17:26:01 21.4 C 12.37 g/m*3 21.4 C 0 km/h
1888 08-08-2010 17:38:02 22 C 12.23 g/m*3 22 C 0 km/h
1889 08-08-2010 17:50:01 22.3 C 11.26 g/m*3 22.3 C 0 km/h
1890 08-08-2010 18:02:02 22.2 C 9.42 g/m*3 22.2 C 0 km/h
1891 08-08-2010 18:14:02 21.3 C 9.88 g/m*3 21.3 C 0 km/h
1892 08-08-2010 18:27:01 21.2 C 9.82 g/m*3 21.2 C 0 km/h
1893 08-08-2010 18:38:01 20.9 C 10.56 g/m*3 20.9 C 0 km/h
1894 08-08-2010 18:51:01 21.5 C 11.31 g/m*3 21.5 C 0 km/h
1895 08-08-2010 19:03:01 21.7 C 9.92 g/m*3 21.7 C 0 km/h
1896 08-08-2010 19:14:02 20.8 C 10.5 g/m*3 20.8 C 0 km/h
1897 08-08-2010 19:26:02 20 C 10.71 g/m*3 20 C 0 km/h
1898 08-08-2010 19:39:01 19 C 10.76 g/m*3 19 C 0 km/h
1899 08-08-2010 19:50:02 18.4 C 11.64 g/m*3 18.4 C 0 km/h
1900 08-08-2010 20:03:01 18.1 C 11.9 g/m*3 18.1 C 0 km/h
Sensor: Nr:Datum:Temp:Abs-Feuchte:Windchill:Wind:
Aussen-T/F 1901 08-08-2010 20:15:01 17.7 C 11.92 g/m*3 17.7 C 0 km/h
1902 08-08-2010 20:27:02 17.5 C 11.78 g/m*3 17.5 C 0 km/h
1903 08-08-2010 20:39:01 17.6 C 11.85 g/m*3 17.6 C 0 km/h
1904 08-08-2010 20:51:02 17.7 C 11.62 g/m*3 17.7 C 0 km/h
1905 08-08-2010 21:03:01 17.7 C 11.62 g/m*3 17.7 C 0 km/h
1906 08-08-2010 21:15:01 17.6 C 11.4 g/m*3 17.6 C 0 km/h
1907 08-08-2010 21:27:01 17.5 C 11.33 g/m*3 17.5 C 0 km/h
1908 08-08-2010 21:39:01 17.3 C 11.34 g/m*3 17.3 C 0 km/h
1909 08-08-2010 21:51:01 17.2 C 11.42 g/m*3 17.2 C 0 km/h
1910 08-08-2010 22:03:01 17.2 C 11.42 g/m*3 17.2 C 0 km/h
1911 08-08-2010 22:15:01 17.2 C 11.42 g/m*3 17.2 C 0 km/h
1912 08-08-2010 22:27:01 17.1 C 11.5 g/m*3 17.1 C 0 km/h
1913 08-08-2010 22:39:01 17.1 C 11.5 g/m*3 17.1 C 0 km/h
1914 08-08-2010 22:51:01 16.9 C 11.65 g/m*3 16.9 C 0 km/h
1915 08-08-2010 23:03:01 17 C 11.43 g/m*3 17 C 0 km/h
1916 08-08-2010 23:15:01 16.9 C 11.65 g/m*3 16.9 C 0 km/h
1917 08-08-2010 23:27:01 16.6 C 11.58 g/m*3 16.6 C 0 km/h
1918 08-08-2010 23:39:01 16.5 C 11.8 g/m*3 16.5 C 0 km/h
1919 08-08-2010 23:51:01 16.5 C 11.94 g/m*3 16.5 C 0 km/h
1920 09-08-2010 00:03:01 16.4 C 11.86 g/m*3 16.4 C 0 km/h
1921 09-08-2010 00:15:02 16.4 C 12 g/m*3 16.4 C 0 km/h
1922 09-08-2010 00:27:02 16.4 C 12 g/m*3 16.4 C 0 km/h
1923 09-08-2010 00:39:02 16.4 C 12.14 g/m*3 16.4 C 0 km/h
1924 09-08-2010 00:51:02 16.5 C 12.22 g/m*3 16.5 C 0 km/h
1925 09-08-2010 01:03:02 16.5 C 12.22 g/m*3 16.5 C 0 km/h
Sensor: Nr:Datum:Temp:Abs-Feuchte:Windchill:Wind:
Aussen-T/F 1926 09-08-2010 01:15:02 16.5 C 12.22 g/m*3 16.5 C 0 km/h
1927 09-08-2010 01:27:02 16.5 C 12.22 g/m*3 16.5 C 0 km/h
1928 09-08-2010 01:39:02 16.4 C 12.14 g/m*3 16.4 C 0 km/h
1929 09-08-2010 01:51:02 16.3 C 12.07 g/m*3 16.3 C 0 km/h
1930 09-08-2010 02:03:02 16 C 11.85 g/m*3 16 C 0 km/h
1931 09-08-2010 02:15:02 15.7 C 11.77 g/m*3 15.7 C 0 km/h
1932 09-08-2010 02:27:02 15.6 C 11.7 g/m*3 15.6 C 0 km/h
1933 09-08-2010 02:39:02 15.4 C 11.56 g/m*3 15.4 C 0 km/h
1934 09-08-2010 02:51:02 15.3 C 11.49 g/m*3 15.3 C 0 km/h
1935 09-08-2010 03:03:02 15.3 C 11.49 g/m*3 15.3 C 0 km/h
1936 09-08-2010 03:15:02 15.4 C 11.69 g/m*3 15.4 C 0 km/h
1937 09-08-2010 03:27:02 15.7 C 11.91 g/m*3 15.7 C 0 km/h
1938 09-08-2010 03:39:02 15.8 C 11.85 g/m*3 15.8 C 0 km/h
1939 09-08-2010 03:51:02 15.8 C 11.58 g/m*3 15.8 C 0 km/h
1940 09-08-2010 04:03:02 15.9 C 11.51 g/m*3 15.9 C 0 km/h
1941 09-08-2010 04:15:02 15.8 C 11.31 g/m*3 15.8 C 0 km/h
1942 09-08-2010 04:27:03 15.7 C 11.37 g/m*3 15.7 C 0 km/h
1943 09-08-2010 04:39:03 15.7 C 11.37 g/m*3 15.7 C 0 km/h
1944 09-08-2010 04:51:03 15.6 C 11.44 g/m*3 15.6 C 0 km/h
1945 09-08-2010 05:03:03 15.4 C 11.17 g/m*3 15.4 C 0 km/h
1946 09-08-2010 05:15:03 15 C 10.9 g/m*3 15 C 0 km/h
1947 09-08-2010 05:27:03 14.8 C 11.02 g/m*3 14.8 C 0 km/h
1948 09-08-2010 05:39:03 14.5 C 10.82 g/m*3 14.5 C 0 km/h
1949 09-08-2010 05:51:03 14.5 C 10.94 g/m*3 14.5 C 0 km/h
1950 09-08-2010 06:03:03 14.5 C 11.07 g/m*3 14.5 C 0 km/h
Sensor: Nr:Datum:Temp:Abs-Feuchte:Windchill:Wind:
Aussen-T/F 1951 09-08-2010 06:15:03 14.6 C 11.26 g/m*3 14.6 C 0 km/h
1952 09-08-2010 06:27:03 14.7 C 11.46 g/m*3 14.7 C 0 km/h
1953 09-08-2010 06:39:03 14.6 C 11.39 g/m*3 14.6 C 0 km/h
1954 09-08-2010 06:51:03 14.6 C 11.39 g/m*3 14.6 C 0 km/h
1955 09-08-2010 07:03:02 14.5 C 11.32 g/m*3 14.5 C 0 km/h
1956 09-08-2010 07:15:02 14.6 C 11.39 g/m*3 14.6 C 0 km/h
1957 09-08-2010 07:27:02 14.6 C 11.39 g/m*3 14.6 C 0 km/h
1958 09-08-2010 07:39:02 14.6 C 11.26 g/m*3 14.6 C 0 km/h
1959 09-08-2010 07:51:02 14.7 C 11.33 g/m*3 14.7 C 0 km/h
1960 09-08-2010 08:03:01 15 C 11.28 g/m*3 15 C 0 km/h
1961 09-08-2010 08:15:01 15 C 11.16 g/m*3 15 C 0 km/h
1962 09-08-2010 08:27:01 15.2 C 11.03 g/m*3 15.2 C 0 km/h
1963 09-08-2010 08:39:01 15.4 C 10.9 g/m*3 15.4 C 0 km/h
1964 09-08-2010 08:51:01 15.5 C 10.84 g/m*3 15.5 C 0 km/h
1965 09-08-2010 09:03:02 15.5 C 10.84 g/m*3 15.5 C 0 km/h
1966 09-08-2010 09:15:01 15.7 C 10.97 g/m*3 15.7 C 0 km/h
1967 09-08-2010 09:27:01 15.9 C 10.83 g/m*3 15.9 C 0 km/h
1968 09-08-2010 09:39:01 16 C 10.63 g/m*3 16 C 0 km/h
1969 09-08-2010 09:51:02 15.9 C 10.83 g/m*3 15.9 C 0 km/h
1970 09-08-2010 10:03:02 16.3 C 10.82 g/m*3 16.3 C 0 km/h
1971 09-08-2010 10:15:02 16.7 C 10.8 g/m*3 16.7 C 0 km/h
1972 09-08-2010 10:27:02 17.2 C 10.84 g/m*3 17.2 C 0 km/h
1973 09-08-2010 10:39:02 17.9 C 10.54 g/m*3 17.9 C 0 km/h
1974 09-08-2010 10:51:02 18.9 C 9.56 g/m*3 18.9 C 0 km/h
1975 09-08-2010 11:03:02 19.4 C 9.51 g/m*3 19.4 C 0 km/h
Sensor: Nr:Datum:Temp:Abs-Feuchte:Windchill:Wind:
Aussen-T/F 1976 09-08-2010 11:15:02 19.1 C 9.18 g/m*3 19.1 C 0 km/h
1977 09-08-2010 11:27:02 19.4 C 9.34 g/m*3 19.4 C 0 km/h
1978 09-08-2010 11:39:02 20.3 C 9.32 g/m*3 20.3 C 0 km/h
1979 09-08-2010 11:51:01 19.8 C 8.88 g/m*3 19.8 C 0 km/h
1980 09-08-2010 12:03:02 20.6 C 8.95 g/m*3 20.6 C 0 km/h
1981 09-08-2010 12:15:02 20.9 C 8.74 g/m*3 20.9 C 0 km/h
1982 09-08-2010 12:27:02 21.2 C 8.71 g/m*3 21.2 C 0 km/h
1983 09-08-2010 12:39:02 21.8 C 8.44 g/m*3 21.8 C 0 km/h
1984 09-08-2010 12:51:02 22 C 8.15 g/m*3 22 C 0 km/h
1985 09-08-2010 13:03:01 22.2 C 8.83 g/m*3 22.2 C 0 km/h
1986 09-08-2010 13:15:02 23.5 C 8.88 g/m*3 23.5 C 0 km/h
1987 09-08-2010 13:27:02 25.1 C 7.87 g/m*3 25.1 C 0 km/h
1988 09-08-2010 13:39:01 25.6 C 7.38 g/m*3 25.6 C 0 km/h
1989 09-08-2010 13:51:02 25.4 C 7.53 g/m*3 25.4 C 0 km/h
1990 09-08-2010 14:03:02 24.6 C 7.65 g/m*3 24.6 C 0 km/h
1991 09-08-2010 14:15:02 24 C 7.61 g/m*3 24 C 0 km/h
1992 09-08-2010 14:27:02 23.7 C 7.91 g/m*3 23.7 C 0 km/h
1993 09-08-2010 14:39:03 23.7 C 7.91 g/m*3 23.7 C 0 km/h
1994 09-08-2010 14:51:02 24.5 C 8.06 g/m*3 24.5 C 0 km/h
1995 09-08-2010 15:03:02 25.1 C 7.87 g/m*3 25.1 C 0 km/h
1996 09-08-2010 15:15:01 24.8 C 7.74 g/m*3 24.8 C 0 km/h
1997 09-08-2010 15:27:01 25.4 C 7.53 g/m*3 25.4 C 0 km/h
1998 09-08-2010 15:39:02 25.9 C 7.26 g/m*3 25.9 C 0 km/h
1999 09-08-2010 15:51:02 26.5 C 7.51 g/m*3 26.5 C 0 km/h
2000 09-08-2010 16:03:02 26.9 C 6.91 g/m*3 26.9 C 0 km/h
Sensor: Nr:Datum:Temp:Abs-Feuchte:Windchill:Wind:
Aussen-T/F 2001 09-08-2010 16:15:01 26.6 C 6.54 g/m*3 26.6 C 0 km/h
2002 09-08-2010 16:27:01 26.4 C 6.72 g/m*3 26.4 C 0 km/h
2003 09-08-2010 16:39:02 25.7 C 6.22 g/m*3 25.7 C 0 km/h
2004 09-08-2010 16:51:02 25.3 C 7.73 g/m*3 25.3 C 0 km/h
2005 09-08-2010 17:03:02 25.3 C 8.43 g/m*3 25.3 C 0 km/h
2006 09-08-2010 17:15:02 25.7 C 8.62 g/m*3 25.7 C 0 km/h
2007 09-08-2010 17:27:02 25.5 C 8.76 g/m*3 25.5 C 0 km/h
2008 09-08-2010 17:39:02 26.4 C 7.22 g/m*3 26.4 C 0 km/h
2009 09-08-2010 17:51:02 28.2 C 7.15 g/m*3 28.2 C 0 km/h
2010 09-08-2010 18:03:02 28.9 C 7.14 g/m*3 28.9 C 0 km/h
2011 09-08-2010 18:15:02 28.2 C 8.25 g/m*3 28.2 C 0 km/h
2012 09-08-2010 18:27:03 27.9 C 7.84 g/m*3 27.9 C 0 km/h
2013 09-08-2010 18:39:02 27.1 C 8.02 g/m*3 27.1 C 0 km/h
2014 09-08-2010 18:51:02 25.4 C 8 g/m*3 25.4 C 0 km/h
2015 09-08-2010 19:03:01 24.6 C 8.33 g/m*3 24.6 C 0 km/h
2016 09-08-2010 19:15:02 24.1 C 8.75 g/m*3 24.1 C 0 km/h
2017 09-08-2010 19:27:02 23.6 C 9.15 g/m*3 23.6 C 0 km/h
2018 09-08-2010 19:39:02 22.8 C 8.94 g/m*3 22.8 C 0 km/h
2019 09-08-2010 19:51:02 22.5 C 8.79 g/m*3 22.5 C 0 km/h
2020 09-08-2010 20:03:03 22 C 8.73 g/m*3 22 C 0 km/h
2021 09-08-2010 20:15:02 21.6 C 8.72 g/m*3 21.6 C 0 km/h
2022 09-08-2010 20:27:02 21.4 C 8.62 g/m*3 21.4 C 0 km/h
2023 09-08-2010 20:39:02 20.9 C 8.38 g/m*3 20.9 C 0 km/h
2024 09-08-2010 20:51:01 20.4 C 8.31 g/m*3 20.4 C 0 km/h
2025 09-08-2010 21:03:02 20.2 C 8.74 g/m*3 20.2 C 0 km/h
Sensor: Nr:Datum:Temp:Abs-Feuchte:Windchill:Wind:
Aussen-T/F 2026 09-08-2010 21:15:01 20 C 8.47 g/m*3 20 C 0 km/h
2027 09-08-2010 21:27:01 19.8 C 8.88 g/m*3 19.8 C 0 km/h
2028 09-08-2010 21:39:01 19.6 C 8.95 g/m*3 19.6 C 0 km/h
2029 09-08-2010 21:51:01 19.2 C 8.9 g/m*3 19.2 C 0 km/h
2030 09-08-2010 22:03:01 18.9 C 8.91 g/m*3 18.9 C 0 km/h
2031 09-08-2010 22:15:02 18.9 C 8.91 g/m*3 18.9 C 0 km/h
2032 09-08-2010 22:27:03 18.7 C 9.13 g/m*3 18.7 C 0 km/h
2033 09-08-2010 22:39:02 18.5 C 9.02 g/m*3 18.5 C 0 km/h
2034 09-08-2010 22:52:02 18.2 C 8.86 g/m*3 18.2 C 0 km/h
2035 09-08-2010 23:04:02 18.2 C 9.01 g/m*3 18.2 C 0 km/h
2036 09-08-2010 23:16:03 18.1 C 9.12 g/m*3 18.1 C 0 km/h
2037 09-08-2010 23:28:03 18.1 C 9.27 g/m*3 18.1 C 0 km/h
2038 09-08-2010 23:40:03 18.1 C 9.43 g/m*3 18.1 C 0 km/h
2039 09-08-2010 23:52:03 18.1 C 9.43 g/m*3 18.1 C 0 km/h
2040 10-08-2010 00:04:03 17.9 C 9.47 g/m*3 17.9 C 0 km/h
2041 10-08-2010 00:16:03 17.7 C 9.81 g/m*3 17.7 C 0 km/h
2042 10-08-2010 00:28:03 17.5 C 9.84 g/m*3 17.5 C 0 km/h
2043 10-08-2010 00:40:03 17.5 C 9.69 g/m*3 17.5 C 0 km/h
2044 10-08-2010 00:52:03 17.5 C 10.14 g/m*3 17.5 C 0 km/h
2045 10-08-2010 01:04:03 17.5 C 10.29 g/m*3 17.5 C 0 km/h
2046 10-08-2010 01:16:03 17.5 C 10.14 g/m*3 17.5 C 0 km/h
2047 10-08-2010 01:28:03 17.6 C 10.05 g/m*3 17.6 C 0 km/h
2048 10-08-2010 01:40:03 17.5 C 10.14 g/m*3 17.5 C 0 km/h
2049 10-08-2010 01:52:03 17.5 C 10.14 g/m*3 17.5 C 0 km/h
2050 10-08-2010 02:04:03 17.5 C 9.99 g/m*3 17.5 C 0 km/h
Sensor: Nr:Datum:Temp:Abs-Feuchte:Windchill:Wind:
Aussen-T/F 2051 10-08-2010 02:16:03 17.5 C 10.14 g/m*3 17.5 C 0 km/h
2052 10-08-2010 02:28:03 17.4 C 10.08 g/m*3 17.4 C 0 km/h
2053 10-08-2010 02:40:03 17.3 C 10.02 g/m*3 17.3 C 0 km/h
2054 10-08-2010 02:52:03 17.2 C 9.96 g/m*3 17.2 C 0 km/h
2055 10-08-2010 03:04:03 17.2 C 9.96 g/m*3 17.2 C 0 km/h
2056 10-08-2010 03:16:03 17.2 C 10.1 g/m*3 17.2 C 0 km/h
2057 10-08-2010 03:28:03 17.1 C 10.04 g/m*3 17.1 C 0 km/h
2058 10-08-2010 03:40:04 17.2 C 10.1 g/m*3 17.2 C 0 km/h
2059 10-08-2010 03:52:04 17 C 10.27 g/m*3 17 C 0 km/h
2060 10-08-2010 04:04:04 16.9 C 10.36 g/m*3 16.9 C 0 km/h
2061 10-08-2010 04:16:04 16.9 C 10.21 g/m*3 16.9 C 0 km/h
2062 10-08-2010 04:28:04 16.9 C 10.21 g/m*3 16.9 C 0 km/h
2063 10-08-2010 04:40:04 16.9 C 10.21 g/m*3 16.9 C 0 km/h
2064 10-08-2010 04:52:04 16.7 C 10.23 g/m*3 16.7 C 0 km/h
2065 10-08-2010 05:04:04 16.3 C 9.99 g/m*3 16.3 C 0 km/h
2066 10-08-2010 05:16:04 15.9 C 10.02 g/m*3 15.9 C 0 km/h
2067 10-08-2010 05:28:04 15.6 C 10.24 g/m*3 15.6 C 0 km/h
2068 10-08-2010 05:40:04 15.3 C 10.19 g/m*3 15.3 C 0 km/h
2069 10-08-2010 05:52:04 15 C 10 g/m*3 15 C 0 km/h
2070 10-08-2010 06:04:04 14.9 C 10.07 g/m*3 14.9 C 0 km/h
2071 10-08-2010 06:16:04 14.7 C 9.95 g/m*3 14.7 C 0 km/h
2072 10-08-2010 06:28:04 14.6 C 9.89 g/m*3 14.6 C 0 km/h
2073 10-08-2010 06:40:04 14.6 C 9.89 g/m*3 14.6 C 0 km/h
2074 10-08-2010 06:52:02 14.5 C 9.83 g/m*3 14.5 C 0 km/h
2075 10-08-2010 07:04:02 14.7 C 10.2 g/m*3 14.7 C 0 km/h
Sensor: Nr:Datum:Temp:Abs-Feuchte:Windchill:Wind:
Aussen-T/F 2076 10-08-2010 07:16:02 14.7 C 10.2 g/m*3 14.7 C 0 km/h
2077 10-08-2010 07:28:02 14.8 C 10.26 g/m*3 14.8 C 0 km/h
2078 10-08-2010 07:40:01 15 C 10.39 g/m*3 15 C 0 km/h
2079 10-08-2010 07:52:03 15.2 C 10.51 g/m*3 15.2 C 0 km/h
2080 10-08-2010 08:04:02 15.4 C 10.64 g/m*3 15.4 C 0 km/h
2081 10-08-2010 08:16:02 15.5 C 10.57 g/m*3 15.5 C 0 km/h
2082 10-08-2010 08:28:02 15.8 C 10.77 g/m*3 15.8 C 0 km/h
2083 10-08-2010 08:40:03 16.1 C 10.69 g/m*3 16.1 C 0 km/h
2084 10-08-2010 08:52:02 16.4 C 10.89 g/m*3 16.4 C 0 km/h
2085 10-08-2010 09:04:02 17.2 C 10.98 g/m*3 17.2 C 0 km/h
2086 10-08-2010 09:16:02 18.1 C 10.51 g/m*3 18.1 C 0 km/h
2087 10-08-2010 09:28:02 18.2 C 10.41 g/m*3 18.2 C 0 km/h
2088 10-08-2010 09:40:03 18.5 C 10.44 g/m*3 18.5 C 0 km/h
2089 10-08-2010 09:52:02 19 C 10.59 g/m*3 19 C 0 km/h
2090 10-08-2010 10:04:02 19.3 C 10.62 g/m*3 19.3 C 0 km/h
2091 10-08-2010 10:16:01 20.1 C 10.78 g/m*3 20.1 C 0 km/h
2092 10-08-2010 10:28:01 20.9 C 11.11 g/m*3 20.9 C 0 km/h
2093 10-08-2010 10:40:02 21.8 C 11.32 g/m*3 21.8 C 0 km/h
2094 10-08-2010 10:52:01 22.5 C 11.19 g/m*3 22.5 C 0 km/h
2095 10-08-2010 11:04:02 22.9 C 11.44 g/m*3 22.9 C 0 km/h
2096 10-08-2010 11:16:02 23.4 C 11.14 g/m*3 23.4 C 0 km/h
2097 10-08-2010 11:28:02 23.7 C 9.2 g/m*3 23.7 C 0 km/h
2098 10-08-2010 11:40:01 24.1 C 7.88 g/m*3 24.1 C 0 km/h
2099 10-08-2010 11:52:01 24.6 C 7.65 g/m*3 24.6 C 0 km/h
2100 10-08-2010 12:04:01 25.1 C 7.18 g/m*3 25.1 C 0 km/h
Sensor: Nr:Datum:Temp:Abs-Feuchte:Windchill:Wind:
Aussen-T/F 2101 10-08-2010 12:16:02 25.4 C 6.59 g/m*3 25.4 C 0 km/h
2102 10-08-2010 12:28:02 25.9 C 7.02 g/m*3 25.9 C 0 km/h
2103 10-08-2010 12:40:01 26.4 C 6.72 g/m*3 26.4 C 0 km/h
2104 10-08-2010 12:52:03 26.7 C 6.58 g/m*3 26.7 C 0 km/h
2105 10-08-2010 13:04:02 27 C 6.43 g/m*3 27 C 0 km/h
2106 10-08-2010 13:16:02 27.8 C 5.92 g/m*3 27.8 C 0 km/h
2107 10-08-2010 13:28:02 28.6 C 5.9 g/m*3 28.6 C 0 km/h
2108 10-08-2010 13:40:02 28.7 C 5.93 g/m*3 28.7 C 0 km/h
2109 10-08-2010 13:52:02 28.7 C 5.65 g/m*3 28.7 C 0 km/h
2110 10-08-2010 14:04:01 28.9 C 5.71 g/m*3 28.9 C 0 km/h
2111 10-08-2010 14:16:02 29.3 C 6.13 g/m*3 29.3 C 0 km/h
2112 10-08-2010 14:28:02 29.1 C 5.78 g/m*3 29.1 C 0 km/h
2113 10-08-2010 14:40:02 29.1 C 6.06 g/m*3 29.1 C 0 km/h
2114 10-08-2010 14:52:01 28.8 C 7.39 g/m*3 28.8 C 0 km/h
2115 10-08-2010 15:04:02 28.9 C 6.57 g/m*3 28.9 C 0 km/h
2116 10-08-2010 15:16:01 28.6 C 7.03 g/m*3 28.6 C 0 km/h
2117 10-08-2010 15:28:01 28.2 C 7.7 g/m*3 28.2 C 0 km/h
2118 10-08-2010 15:40:01 28.3 C 8.29 g/m*3 28.3 C 0 km/h
2119 10-08-2010 15:52:01 28.3 C 7.19 g/m*3 28.3 C 0 km/h
2120 10-08-2010 16:04:01 29.1 C 7.8 g/m*3 29.1 C 0 km/h
2121 10-08-2010 16:16:02 30.1 C 6.4 g/m*3 30.1 C 0 km/h
2122 10-08-2010 16:28:02 30 C 6.06 g/m*3 30 C 0 km/h
2123 10-08-2010 16:40:01 30.2 C 6.13 g/m*3 30.2 C 0 km/h
2124 10-08-2010 16:52:02 30 C 6.06 g/m*3 30 C 0 km/h
2125 10-08-2010 17:04:02 30.1 C 6.71 g/m*3 30.1 C 0 km/h
Sensor: Nr:Datum:Temp:Abs-Feuchte:Windchill:Wind:
Aussen-T/F 2126 10-08-2010 17:16:02 30.1 C 6.4 g/m*3 30.1 C 0 km/h
2127 10-08-2010 17:28:02 30.2 C 6.13 g/m*3 30.2 C 0 km/h
2128 10-08-2010 17:40:01 29.6 C 6.53 g/m*3 29.6 C 0 km/h
2129 10-08-2010 17:52:02 29.7 C 6.56 g/m*3 29.7 C 0 km/h
2130 10-08-2010 18:04:01 30.2 C 6.13 g/m*3 30.2 C 0 km/h
2131 10-08-2010 18:16:02 31 C 6.72 g/m*3 31 C 0 km/h
2132 10-08-2010 18:28:02 29.2 C 6.68 g/m*3 29.2 C 0 km/h
2133 10-08-2010 18:40:02 28.9 C 6.86 g/m*3 28.9 C 0 km/h
2134 10-08-2010 18:52:02 29.1 C 7.22 g/m*3 29.1 C 0 km/h
2135 10-08-2010 19:04:03 28.4 C 7.23 g/m*3 28.4 C 0 km/h
2136 10-08-2010 19:16:02 27.5 C 7.94 g/m*3 27.5 C 0 km/h
2137 10-08-2010 19:28:02 26.8 C 8.4 g/m*3 26.8 C 0 km/h
2138 10-08-2010 19:40:03 26.3 C 8.42 g/m*3 26.3 C 0 km/h
2139 10-08-2010 19:52:02 25.7 C 8.62 g/m*3 25.7 C 0 km/h
2140 10-08-2010 20:04:02 25.3 C 8.19 g/m*3 25.3 C 0 km/h
2141 10-08-2010 20:16:01 25.1 C 8.33 g/m*3 25.1 C 0 km/h
2142 10-08-2010 20:28:01 24.7 C 8.37 g/m*3 24.7 C 0 km/h
2143 10-08-2010 20:40:02 24.6 C 8.33 g/m*3 24.6 C 0 km/h
2144 10-08-2010 20:52:01 24.1 C 8.1 g/m*3 24.1 C 0 km/h
2145 10-08-2010 21:04:02 23.8 C 9.03 g/m*3 23.8 C 0 km/h
2146 10-08-2010 21:16:02 23.4 C 8.41 g/m*3 23.4 C 0 km/h
2147 10-08-2010 21:28:02 23.3 C 8.78 g/m*3 23.3 C 0 km/h
2148 10-08-2010 21:40:02 23.2 C 9.15 g/m*3 23.2 C 0 km/h
2149 10-08-2010 21:53:07 23.1 C 8.48 g/m*3 23.1 C 0 km/h
2150 10-08-2010 22:05:07 23.3 C 8.99 g/m*3 23.3 C 0 km/h
Sensor: Nr:Datum:Temp:Abs-Feuchte:Windchill:Wind:
Aussen-T/F 2151 10-08-2010 22:17:07 23.1 C 8.48 g/m*3 23.1 C 0 km/h
2152 10-08-2010 22:29:07 23 C 8.63 g/m*3 23 C 0 km/h
2153 10-08-2010 22:41:07 22.7 C 9.29 g/m*3 22.7 C 0 km/h
2154 10-08-2010 22:53:07 22.2 C 9.23 g/m*3 22.2 C 0 km/h
2155 10-08-2010 23:05:07 22.1 C 9.37 g/m*3 22.1 C 0 km/h
2156 10-08-2010 23:17:07 21.9 C 9.26 g/m*3 21.9 C 0 km/h
2157 10-08-2010 23:29:07 22 C 8.93 g/m*3 22 C 0 km/h
2158 10-08-2010 23:41:07 21.8 C 9.21 g/m*3 21.8 C 0 km/h
2159 10-08-2010 23:53:08 21.7 C 9.54 g/m*3 21.7 C 0 km/h
2160 11-08-2010 00:05:08 21.6 C 9.48 g/m*3 21.6 C 0 km/h
2161 11-08-2010 00:17:08 21.5 C 9.62 g/m*3 21.5 C 0 km/h
2162 11-08-2010 00:29:08 21.5 C 9.81 g/m*3 21.5 C 0 km/h
2163 11-08-2010 00:41:08 21.4 C 9.75 g/m*3 21.4 C 0 km/h
2164 11-08-2010 00:53:08 21.3 C 9.69 g/m*3 21.3 C 0 km/h
2165 11-08-2010 01:05:08 21.1 C 9.95 g/m*3 21.1 C 0 km/h
2166 11-08-2010 01:17:08 20.9 C 10.2 g/m*3 20.9 C 0 km/h
2167 11-08-2010 01:29:08 20.6 C 10.56 g/m*3 20.6 C 0 km/h
2168 11-08-2010 01:41:08 20.1 C 10.95 g/m*3 20.1 C 0 km/h
2169 11-08-2010 01:53:08 20 C 11.06 g/m*3 20 C 0 km/h
2170 11-08-2010 02:05:08 19.4 C 11.51 g/m*3 19.4 C 0 km/h
2171 11-08-2010 02:17:08 18.5 C 12.02 g/m*3 18.5 C 0 km/h
2172 11-08-2010 02:29:08 18.1 C 12.36 g/m*3 18.1 C 0 km/h
2173 11-08-2010 02:41:08 18 C 12.59 g/m*3 18 C 0 km/h
2174 11-08-2010 02:53:08 17.9 C 12.98 g/m*3 17.9 C 0 km/h
2175 11-08-2010 03:05:08 17.7 C 12.98 g/m*3 17.7 C 0 km/h
Sensor: Nr:Datum:Temp:Abs-Feuchte:Windchill:Wind:
Aussen-T/F 2176 11-08-2010 03:17:08 17.7 C 13.13 g/m*3 17.7 C 0 km/h
2177 11-08-2010 03:29:08 17.7 C 13.13 g/m*3 17.7 C 0 km/h
2178 11-08-2010 03:41:08 17.5 C 13.12 g/m*3 17.5 C 0 km/h
2179 11-08-2010 03:53:08 17.6 C 13.35 g/m*3 17.6 C 0 km/h
2180 11-08-2010 04:05:08 17.5 C 13.27 g/m*3 17.5 C 0 km/h
2181 11-08-2010 04:17:08 17.6 C 13.5 g/m*3 17.6 C 0 km/h
2182 11-08-2010 04:29:09 17.5 C 13.42 g/m*3 17.5 C 0 km/h
2183 11-08-2010 04:41:09 17.6 C 13.5 g/m*3 17.6 C 0 km/h
2184 11-08-2010 04:53:09 17.4 C 13.34 g/m*3 17.4 C 0 km/h
2185 11-08-2010 05:05:09 17.4 C 13.34 g/m*3 17.4 C 0 km/h
2186 11-08-2010 05:17:09 17.5 C 13.27 g/m*3 17.5 C 0 km/h
2187 11-08-2010 05:29:09 17.3 C 13.11 g/m*3 17.3 C 0 km/h
2188 11-08-2010 05:41:09 17.4 C 13.19 g/m*3 17.4 C 0 km/h
2189 11-08-2010 05:53:09 17.5 C 13.27 g/m*3 17.5 C 0 km/h
2190 11-08-2010 06:05:09 17.4 C 13.19 g/m*3 17.4 C 0 km/h
2191 11-08-2010 06:17:09 17.4 C 13.04 g/m*3 17.4 C 0 km/h
2192 11-08-2010 06:29:09 17.4 C 13.04 g/m*3 17.4 C 0 km/h
2193 11-08-2010 06:41:02 17.4 C 13.04 g/m*3 17.4 C 0 km/h
2194 11-08-2010 06:53:02 17.4 C 12.89 g/m*3 17.4 C 0 km/h
2195 11-08-2010 07:05:02 17.4 C 12.89 g/m*3 17.4 C 0 km/h
2196 11-08-2010 07:17:02 17.5 C 12.97 g/m*3 17.5 C 0 km/h
2197 11-08-2010 07:29:03 17.6 C 13.05 g/m*3 17.6 C 0 km/h
2198 11-08-2010 07:41:01 17.7 C 13.13 g/m*3 17.7 C 0 km/h
2199 11-08-2010 07:53:02 17.9 C 13.13 g/m*3 17.9 C 0 km/h
2200 11-08-2010 08:05:01 18.1 C 13.13 g/m*3 18.1 C 0 km/h
Sensor: Nr:Datum:Temp:Abs-Feuchte:Windchill:Wind:
Aussen-T/F 2201 11-08-2010 08:17:01 18.6 C 13.53 g/m*3 18.6 C 0 km/h
2202 11-08-2010 08:29:01 18.7 C 13.29 g/m*3 18.7 C 0 km/h
2203 11-08-2010 08:41:01 18.9 C 12.96 g/m*3 18.9 C 0 km/h
2204 11-08-2010 08:53:01 19.1 C 12.13 g/m*3 19.1 C 0 km/h
2205 11-08-2010 09:05:01 19.5 C 12.08 g/m*3 19.5 C 0 km/h
2206 11-08-2010 09:17:01 19.8 C 11.61 g/m*3 19.8 C 0 km/h
2207 11-08-2010 09:29:01 19.7 C 11.55 g/m*3 19.7 C 0 km/h
2208 11-08-2010 09:41:01 19.7 C 11.21 g/m*3 19.7 C 0 km/h
2209 11-08-2010 09:53:02 19.5 C 11.08 g/m*3 19.5 C 0 km/h
2210 11-08-2010 10:05:02 20 C 11.23 g/m*3 20 C 0 km/h
2211 11-08-2010 10:17:02 20.9 C 11.29 g/m*3 20.9 C 0 km/h
2212 11-08-2010 10:29:02 21.2 C 10.93 g/m*3 21.2 C 0 km/h
2213 11-08-2010 10:41:02 21.1 C 11.06 g/m*3 21.1 C 0 km/h
2214 11-08-2010 10:53:01 20.8 C 10.86 g/m*3 20.8 C 0 km/h
2215 11-08-2010 11:05:01 20.7 C 11.16 g/m*3 20.7 C 0 km/h
2216 11-08-2010 11:17:02 20.4 C 11.14 g/m*3 20.4 C 0 km/h
2217 11-08-2010 11:29:02 20.5 C 11.21 g/m*3 20.5 C 0 km/h
2218 11-08-2010 11:41:01 20.4 C 11.14 g/m*3 20.4 C 0 km/h
2219 11-08-2010 11:53:02 21.1 C 11.24 g/m*3 21.1 C 0 km/h
2220 11-08-2010 12:05:01 21.8 C 11.13 g/m*3 21.8 C 0 km/h
2221 11-08-2010 12:17:02 22.1 C 11.13 g/m*3 22.1 C 0 km/h
2222 11-08-2010 12:29:03 22.5 C 10.99 g/m*3 22.5 C 0 km/h
2223 11-08-2010 12:41:01 22.8 C 10.97 g/m*3 22.8 C 0 km/h
2224 11-08-2010 12:53:02 23.1 C 10.75 g/m*3 23.1 C 0 km/h
2225 11-08-2010 13:05:02 23.5 C 10.79 g/m*3 23.5 C 0 km/h
Sensor: Nr:Datum:Temp:Abs-Feuchte:Windchill:Wind:
Aussen-T/F 2226 11-08-2010 13:17:02 23.3 C 10.25 g/m*3 23.3 C 0 km/h
2227 11-08-2010 13:29:02 24 C 10.44 g/m*3 24 C 0 km/h
2228 11-08-2010 13:41:03 24.1 C 10.28 g/m*3 24.1 C 0 km/h
2229 11-08-2010 13:53:02 24.1 C 10.06 g/m*3 24.1 C 0 km/h
2230 11-08-2010 14:05:02 24.2 C 10.12 g/m*3 24.2 C 0 km/h
2231 11-08-2010 14:17:01 24.8 C 10.02 g/m*3 24.8 C 0 km/h
2232 11-08-2010 14:29:01 24.2 C 9.68 g/m*3 24.2 C 0 km/h
2233 11-08-2010 14:41:02 24.2 C 10.34 g/m*3 24.2 C 0 km/h
2234 11-08-2010 14:53:02 24.6 C 10.35 g/m*3 24.6 C 0 km/h
2235 11-08-2010 15:05:01 24.8 C 10.02 g/m*3 24.8 C 0 km/h
2236 11-08-2010 15:17:01 25 C 10.13 g/m*3 25 C 0 km/h
2237 11-08-2010 15:29:01 25.9 C 10.17 g/m*3 25.9 C 0 km/h
2238 11-08-2010 15:41:02 26.6 C 9.57 g/m*3 26.6 C 0 km/h
2239 11-08-2010 15:53:02 25.5 C 9.47 g/m*3 25.5 C 0 km/h
2240 11-08-2010 16:05:02 25.2 C 9.78 g/m*3 25.2 C 0 km/h
2241 11-08-2010 16:17:02 24.3 C 9.96 g/m*3 24.3 C 0 km/h
2242 11-08-2010 16:29:02 23.2 C 11.02 g/m*3 23.2 C 0 km/h
2243 11-08-2010 16:41:02 20.5 C 13.35 g/m*3 20.5 C 0 km/h
2244 11-08-2010 16:53:02 21.2 C 14.64 g/m*3 21.2 C 0 km/h
2245 11-08-2010 17:05:02 21.6 C 14.41 g/m*3 21.6 C 0 km/h
2246 11-08-2010 17:17:02 21.6 C 14.41 g/m*3 21.6 C 0 km/h
2247 11-08-2010 17:29:02 22.1 C 14.05 g/m*3 22.1 C 0 km/h
2248 11-08-2010 17:41:02 21.3 C 12.86 g/m*3 21.3 C 0 km/h
2249 11-08-2010 17:53:02 22.1 C 14.25 g/m*3 22.1 C 0 km/h
2250 11-08-2010 18:05:02 22.5 C 14.18 g/m*3 22.5 C 0 km/h
Sensor: Nr:Datum:Temp:Abs-Feuchte:Windchill:Wind:
Aussen-T/F 2251 11-08-2010 18:17:03 22.9 C 14.71 g/m*3 22.9 C 0 km/h
2252 11-08-2010 18:29:03 23.3 C 14.43 g/m*3 23.3 C 0 km/h
2253 11-08-2010 18:41:02 23 C 13.98 g/m*3 23 C 0 km/h
2254 11-08-2010 18:53:03 22.6 C 14.26 g/m*3 22.6 C 0 km/h
2255 11-08-2010 19:05:02 21.9 C 13.89 g/m*3 21.9 C 0 km/h
2256 11-08-2010 19:17:02 21.5 C 13.77 g/m*3 21.5 C 0 km/h
2257 11-08-2010 19:29:02 21.2 C 13.71 g/m*3 21.2 C 0 km/h
2258 11-08-2010 19:41:02 21 C 13.56 g/m*3 21 C 0 km/h
2259 11-08-2010 19:53:02 20.8 C 13.58 g/m*3 20.8 C 0 km/h
2260 11-08-2010 20:05:01 20.4 C 13.27 g/m*3 20.4 C 0 km/h
2261 11-08-2010 20:17:02 20 C 13.31 g/m*3 20 C 0 km/h
2262 11-08-2010 20:29:02 19.8 C 13.66 g/m*3 19.8 C 0 km/h
2263 11-08-2010 20:41:02 18.9 C 13.61 g/m*3 18.9 C 0 km/h
2264 11-08-2010 20:53:01 18.7 C 13.93 g/m*3 18.7 C 0 km/h
2265 11-08-2010 21:05:02 19 C 14.34 g/m*3 19 C 0 km/h
2266 11-08-2010 21:17:01 18.9 C 14.42 g/m*3 18.9 C 0 km/h
2267 11-08-2010 21:29:01 18.9 C 14.42 g/m*3 18.9 C 0 km/h
2268 11-08-2010 21:41:02 18.9 C 14.58 g/m*3 18.9 C 0 km/h
2269 11-08-2010 21:53:01 18.5 C 14.24 g/m*3 18.5 C 0 km/h
2270 11-08-2010 22:05:02 18.5 C 14.24 g/m*3 18.5 C 0 km/h
2271 11-08-2010 22:18:01 18.6 C 14.48 g/m*3 18.6 C 0 km/h
2272 11-08-2010 22:30:01 18.5 C 14.4 g/m*3 18.5 C 0 km/h
2273 11-08-2010 22:42:01 18.4 C 14.31 g/m*3 18.4 C 0 km/h
2274 11-08-2010 22:54:01 18.4 C 14.47 g/m*3 18.4 C 0 km/h
2275 11-08-2010 23:06:01 18.4 C 14.47 g/m*3 18.4 C 0 km/h
Sensor: Nr:Datum:Temp:Abs-Feuchte:Windchill:Wind:
Aussen-T/F 2276 11-08-2010 23:18:02 18.4 C 14.47 g/m*3 18.4 C 0 km/h
2277 11-08-2010 23:30:02 18.3 C 14.38 g/m*3 18.3 C 0 km/h
2278 11-08-2010 23:42:02 18.3 C 14.38 g/m*3 18.3 C 0 km/h
2279 11-08-2010 23:54:02 18.1 C 14.21 g/m*3 18.1 C 0 km/h
2280 12-08-2010 00:06:02 18.2 C 14.46 g/m*3 18.2 C 0 km/h
2281 12-08-2010 00:18:02 18 C 14.28 g/m*3 18 C 0 km/h
2282 12-08-2010 00:30:02 17.8 C 14.27 g/m*3 17.8 C 0 km/h
2283 12-08-2010 00:42:02 17.7 C 14.18 g/m*3 17.7 C 0 km/h
2284 12-08-2010 00:54:02 17.7 C 14.18 g/m*3 17.7 C 0 km/h
2285 12-08-2010 01:06:02 17.6 C 14.1 g/m*3 17.6 C 0 km/h
2286 12-08-2010 01:18:02 17.5 C 14.01 g/m*3 17.5 C 0 km/h
2287 12-08-2010 01:30:02 17.5 C 14.01 g/m*3 17.5 C 0 km/h
2288 12-08-2010 01:42:02 17.5 C 14.01 g/m*3 17.5 C 0 km/h
2289 12-08-2010 01:54:02 17.5 C 14.01 g/m*3 17.5 C 0 km/h
2290 12-08-2010 02:06:02 17.4 C 13.93 g/m*3 17.4 C 0 km/h
2291 12-08-2010 02:18:02 17.2 C 13.77 g/m*3 17.2 C 0 km/h
2292 12-08-2010 02:30:02 17.1 C 13.68 g/m*3 17.1 C 0 km/h
2293 12-08-2010 02:42:02 17 C 13.6 g/m*3 17 C 0 km/h
2294 12-08-2010 02:54:02 17.1 C 13.68 g/m*3 17.1 C 0 km/h
2295 12-08-2010 03:06:02 17.1 C 13.68 g/m*3 17.1 C 0 km/h
2296 12-08-2010 03:18:02 17.1 C 13.68 g/m*3 17.1 C 0 km/h
2297 12-08-2010 03:30:03 16.9 C 13.52 g/m*3 16.9 C 0 km/h
2298 12-08-2010 03:42:03 16.7 C 13.36 g/m*3 16.7 C 0 km/h
2299 12-08-2010 03:54:03 16.5 C 13.2 g/m*3 16.5 C 0 km/h
2300 12-08-2010 04:06:03 16.4 C 13.12 g/m*3 16.4 C 0 km/h
Sensor: Nr:Datum:Temp:Abs-Feuchte:Windchill:Wind:
Aussen-T/F 2301 12-08-2010 04:18:03 16.3 C 13.04 g/m*3 16.3 C 0 km/h
2302 12-08-2010 04:30:03 16.4 C 13.12 g/m*3 16.4 C 0 km/h
2303 12-08-2010 04:42:03 16.6 C 13.42 g/m*3 16.6 C 0 km/h
2304 12-08-2010 04:54:03 16.6 C 13.42 g/m*3 16.6 C 0 km/h
2305 12-08-2010 05:06:03 16.7 C 13.5 g/m*3 16.7 C 0 km/h
2306 12-08-2010 05:18:03 16.4 C 13.26 g/m*3 16.4 C 0 km/h
2307 12-08-2010 05:30:03 16.4 C 13.12 g/m*3 16.4 C 0 km/h
2308 12-08-2010 05:42:03 16.4 C 13.26 g/m*3 16.4 C 0 km/h
2309 12-08-2010 05:54:03 16.5 C 13.34 g/m*3 16.5 C 0 km/h
2310 12-08-2010 06:06:03 16.6 C 13.42 g/m*3 16.6 C 0 km/h
2311 12-08-2010 06:18:03 16.7 C 13.5 g/m*3 16.7 C 0 km/h
2312 12-08-2010 06:30:03 16.7 C 13.5 g/m*3 16.7 C 0 km/h
2313 12-08-2010 06:42:03 16.8 C 13.58 g/m*3 16.8 C 0 km/h
2314 12-08-2010 06:54:03 16.8 C 13.58 g/m*3 16.8 C 0 km/h
2315 12-08-2010 07:06:02 16.8 C 13.58 g/m*3 16.8 C 0 km/h
2316 12-08-2010 07:18:01 16.8 C 13.58 g/m*3 16.8 C 0 km/h
2317 12-08-2010 07:30:01 16.9 C 13.66 g/m*3 16.9 C 0 km/h
2318 12-08-2010 07:42:02 16.9 C 13.66 g/m*3 16.9 C 0 km/h
2319 12-08-2010 07:54:01 16.9 C 13.52 g/m*3 16.9 C 0 km/h
2320 12-08-2010 08:06:02 16.9 C 13.52 g/m*3 16.9 C 0 km/h
2321 12-08-2010 08:18:01 16.6 C 13 g/m*3 16.6 C 0 km/h
2322 12-08-2010 08:30:01 16.5 C 12.64 g/m*3 16.5 C 0 km/h
2323 12-08-2010 08:42:02 16.4 C 12.42 g/m*3 16.4 C 0 km/h
2324 12-08-2010 08:54:01 16.8 C 12.87 g/m*3 16.8 C 0 km/h
2325 12-08-2010 09:06:02 17.4 C 13.34 g/m*3 17.4 C 0 km/h
Sensor: Nr:Datum:Temp:Abs-Feuchte:Windchill:Wind:
Aussen-T/F 2326 12-08-2010 09:18:02 17.7 C 13.58 g/m*3 17.7 C 0 km/h
2327 12-08-2010 09:30:02 17.8 C 13.66 g/m*3 17.8 C 0 km/h
2328 12-08-2010 09:42:01 17.8 C 13.51 g/m*3 17.8 C 0 km/h
2329 12-08-2010 09:54:02 17.9 C 13.13 g/m*3 17.9 C 0 km/h
2330 12-08-2010 10:06:01 18.4 C 12.74 g/m*3 18.4 C 0 km/h
2331 12-08-2010 10:18:01 18.7 C 12.49 g/m*3 18.7 C 0 km/h
2332 12-08-2010 10:30:01 18.6 C 11.78 g/m*3 18.6 C 0 km/h
2333 12-08-2010 10:42:01 18.6 C 11.94 g/m*3 18.6 C 0 km/h
2334 12-08-2010 10:54:02 18.6 C 12.26 g/m*3 18.6 C 0 km/h
2335 12-08-2010 11:06:01 18.5 C 12.5 g/m*3 18.5 C 0 km/h
2336 12-08-2010 11:18:02 18.7 C 12.49 g/m*3 18.7 C 0 km/h
2337 12-08-2010 11:30:02 18.5 C 12.02 g/m*3 18.5 C 0 km/h
2338 12-08-2010 11:42:02 18.8 C 11.92 g/m*3 18.8 C 0 km/h
2339 12-08-2010 11:54:01 18.6 C 11.94 g/m*3 18.6 C 0 km/h
2340 12-08-2010 12:06:02 19.1 C 11.64 g/m*3 19.1 C 0 km/h
2341 12-08-2010 12:18:01 18.7 C 11.21 g/m*3 18.7 C 0 km/h
2342 12-08-2010 12:30:01 19.9 C 11.68 g/m*3 19.9 C 0 km/h
2343 12-08-2010 12:42:01 19.9 C 10.82 g/m*3 19.9 C 0 km/h
2344 12-08-2010 12:54:01 20.2 C 10.84 g/m*3 20.2 C 0 km/h
2345 12-08-2010 13:06:02 19.8 C 10.25 g/m*3 19.8 C 0 km/h
2346 12-08-2010 13:18:01 20.4 C 10.44 g/m*3 20.4 C 0 km/h
2347 12-08-2010 13:30:01 21.2 C 9.45 g/m*3 21.2 C 0 km/h
2348 12-08-2010 13:42:02 20.2 C 8.57 g/m*3 20.2 C 0 km/h
2349 12-08-2010 13:54:01 19.7 C 9.17 g/m*3 19.7 C 0 km/h
2350 12-08-2010 14:06:02 19.6 C 9.28 g/m*3 19.6 C 0 km/h
Sensor: Nr:Datum:Temp:Abs-Feuchte:Windchill:Wind:
Aussen-T/F 2351 12-08-2010 14:18:02 20 C 9.51 g/m*3 20 C 0 km/h
2352 12-08-2010 14:30:02 20.3 C 9.32 g/m*3 20.3 C 0 km/h
2353 12-08-2010 14:42:01 20.8 C 8.51 g/m*3 20.8 C 0 km/h
2354 12-08-2010 14:54:02 20.8 C 8.51 g/m*3 20.8 C 0 km/h
2355 12-08-2010 15:06:01 22 C 8.73 g/m*3 22 C 0 km/h
2356 12-08-2010 15:18:02 23.6 C 8.93 g/m*3 23.6 C 0 km/h
2357 12-08-2010 15:30:02 23.9 C 8.44 g/m*3 23.9 C 0 km/h
2358 12-08-2010 15:42:01 22.7 C 7.88 g/m*3 22.7 C 0 km/h
2359 12-08-2010 15:54:02 22.9 C 7.97 g/m*3 22.9 C 0 km/h
2360 12-08-2010 16:06:02 22.4 C 7.15 g/m*3 22.4 C 0 km/h
2361 12-08-2010 16:18:02 22.2 C 7.26 g/m*3 22.2 C 0 km/h
2362 12-08-2010 16:30:02 22.1 C 6.83 g/m*3 22.1 C 0 km/h
2363 12-08-2010 16:42:02 22.9 C 7.15 g/m*3 22.9 C 0 km/h
2364 12-08-2010 16:54:02 23.2 C 7.28 g/m*3 23.2 C 0 km/h
2365 12-08-2010 17:06:02 24.2 C 6.6 g/m*3 24.2 C 0 km/h
2366 12-08-2010 17:18:01 24.7 C 6.56 g/m*3 24.7 C 0 km/h
2367 12-08-2010 17:30:01 25.9 C 6.05 g/m*3 25.9 C 0 km/h
2368 12-08-2010 17:42:02 26.2 C 5.17 g/m*3 26.2 C 0 km/h
2369 12-08-2010 17:54:02 26.1 C 4.9 g/m*3 26.1 C 0 km/h
2370 12-08-2010 18:06:02 24.6 C 4.95 g/m*3 24.6 C 0 km/h
2371 12-08-2010 18:18:01 23.6 C 5.32 g/m*3 23.6 C 0 km/h
2372 12-08-2010 18:30:01 23.3 C 6.9 g/m*3 23.3 C 0 km/h
2373 12-08-2010 18:42:02 22.9 C 7.97 g/m*3 22.9 C 0 km/h
2374 12-08-2010 18:54:02 22.1 C 7.81 g/m*3 22.1 C 0 km/h
2375 12-08-2010 19:06:02 21.5 C 8.11 g/m*3 21.5 C 0 km/h
Sensor: Nr:Datum:Temp:Abs-Feuchte:Windchill:Wind:
Aussen-T/F 2376 12-08-2010 19:18:02 21.6 C 7.97 g/m*3 21.6 C 0 km/h
2377 12-08-2010 19:30:02 22.1 C 8 g/m*3 22.1 C 0 km/h
2378 12-08-2010 19:42:02 21.8 C 8.25 g/m*3 21.8 C 0 km/h
2379 12-08-2010 19:54:02 21.4 C 8.81 g/m*3 21.4 C 0 km/h
2380 12-08-2010 20:06:02 21.6 C 8.35 g/m*3 21.6 C 0 km/h
2381 12-08-2010 20:18:02 20.8 C 8.51 g/m*3 20.8 C 0 km/h
2382 12-08-2010 20:30:02 19.9 C 8.42 g/m*3 19.9 C 0 km/h
2383 12-08-2010 20:42:02 19.2 C 8.41 g/m*3 19.2 C 0 km/h
2384 12-08-2010 20:54:02 19 C 8.47 g/m*3 19 C 0 km/h
2385 12-08-2010 21:06:02 19.2 C 8.74 g/m*3 19.2 C 0 km/h
2386 12-08-2010 21:18:02 19.1 C 8.2 g/m*3 19.1 C 0 km/h
2387 12-08-2010 21:30:03 19.2 C 7.75 g/m*3 19.2 C 0 km/h
2388 12-08-2010 21:42:01 19.1 C 7.7 g/m*3 19.1 C 0 km/h
2389 12-08-2010 21:54:02 19.1 C 7.54 g/m*3 19.1 C 0 km/h
2390 12-08-2010 22:06:02 18.9 C 8.1 g/m*3 18.9 C 0 km/h
2391 12-08-2010 22:19:02 18.5 C 8.54 g/m*3 18.5 C 0 km/h
2392 12-08-2010 22:31:02 18.4 C 8.49 g/m*3 18.4 C 0 km/h
2393 12-08-2010 22:43:02 18.3 C 8.76 g/m*3 18.3 C 0 km/h
2394 12-08-2010 22:55:02 18.1 C 8.96 g/m*3 18.1 C 0 km/h
2395 12-08-2010 23:07:02 17.7 C 8.9 g/m*3 17.7 C 0 km/h
2396 12-08-2010 23:19:03 17.5 C 9.09 g/m*3 17.5 C 0 km/h
2397 12-08-2010 23:31:03 17.5 C 9.24 g/m*3 17.5 C 0 km/h
2398 12-08-2010 23:43:03 17.2 C 9.37 g/m*3 17.2 C 0 km/h
2399 12-08-2010 23:55:03 16.8 C 9.29 g/m*3 16.8 C 0 km/h
2400 13-08-2010 00:07:03 16.7 C 9.38 g/m*3 16.7 C 0 km/h
Sensor: Nr:Datum:Temp:Abs-Feuchte:Windchill:Wind:
Aussen-T/F 2401 13-08-2010 00:19:03 16.9 C 9.49 g/m*3 16.9 C 0 km/h
2402 13-08-2010 00:31:03 17 C 9.26 g/m*3 17 C 0 km/h
2403 13-08-2010 00:43:03 16.9 C 9.49 g/m*3 16.9 C 0 km/h
2404 13-08-2010 00:55:03 16.6 C 9.46 g/m*3 16.6 C 0 km/h
2405 13-08-2010 01:07:03 16.4 C 9.35 g/m*3 16.4 C 0 km/h
2406 13-08-2010 01:19:03 16.2 C 9.1 g/m*3 16.2 C 0 km/h
2407 13-08-2010 01:31:03 16.2 C 9.24 g/m*3 16.2 C 0 km/h
2408 13-08-2010 01:43:03 16 C 9.26 g/m*3 16 C 0 km/h
2409 13-08-2010 01:55:03 16.1 C 9.32 g/m*3 16.1 C 0 km/h
2410 13-08-2010 02:07:03 16.1 C 9.46 g/m*3 16.1 C 0 km/h
2411 13-08-2010 02:19:03 15.9 C 9.62 g/m*3 15.9 C 0 km/h
2412 13-08-2010 02:31:03 15.8 C 9.69 g/m*3 15.8 C 0 km/h
2413 13-08-2010 02:43:03 15.8 C 9.83 g/m*3 15.8 C 0 km/h
2414 13-08-2010 02:55:03 15.5 C 9.78 g/m*3 15.5 C 0 km/h
2415 13-08-2010 03:07:03 15.5 C 9.78 g/m*3 15.5 C 0 km/h
2416 13-08-2010 03:19:03 15.3 C 9.66 g/m*3 15.3 C 0 km/h
2417 13-08-2010 03:31:03 15.3 C 9.79 g/m*3 15.3 C 0 km/h
2418 13-08-2010 03:43:04 15.3 C 9.92 g/m*3 15.3 C 0 km/h
2419 13-08-2010 03:55:04 15.3 C 10.06 g/m*3 15.3 C 0 km/h
2420 13-08-2010 04:07:04 15.2 C 9.99 g/m*3 15.2 C 0 km/h
2421 13-08-2010 04:19:04 15.1 C 9.93 g/m*3 15.1 C 0 km/h
2422 13-08-2010 04:31:04 15 C 10 g/m*3 15 C 0 km/h
2423 13-08-2010 04:43:04 15 C 10 g/m*3 15 C 0 km/h
2424 13-08-2010 04:55:04 14.9 C 10.07 g/m*3 14.9 C 0 km/h
2425 13-08-2010 05:07:04 14.8 C 10.01 g/m*3 14.8 C 0 km/h
Sensor: Nr:Datum:Temp:Abs-Feuchte:Windchill:Wind:
Aussen-T/F 2426 13-08-2010 05:19:04 14.8 C 10.01 g/m*3 14.8 C 0 km/h
2427 13-08-2010 05:31:04 14.8 C 10.01 g/m*3 14.8 C 0 km/h
2428 13-08-2010 05:43:04 14.7 C 9.95 g/m*3 14.7 C 0 km/h
2429 13-08-2010 05:55:04 14.7 C 9.95 g/m*3 14.7 C 0 km/h
2430 13-08-2010 06:07:04 14.7 C 9.95 g/m*3 14.7 C 0 km/h
2431 13-08-2010 06:19:04 14.7 C 10.07 g/m*3 14.7 C 0 km/h
2432 13-08-2010 06:31:04 14.7 C 10.07 g/m*3 14.7 C 0 km/h
2433 13-08-2010 06:43:04 14.7 C 10.07 g/m*3 14.7 C 0 km/h
2434 13-08-2010 06:55:02 14.7 C 10.07 g/m*3 14.7 C 0 km/h
2435 13-08-2010 07:07:02 14.8 C 10.13 g/m*3 14.8 C 0 km/h
2436 13-08-2010 07:19:02 15 C 10.13 g/m*3 15 C 0 km/h
2437 13-08-2010 07:31:02 15 C 10.13 g/m*3 15 C 0 km/h
2438 13-08-2010 07:43:02 15.2 C 10.12 g/m*3 15.2 C 0 km/h
2439 13-08-2010 07:55:02 15.1 C 10.06 g/m*3 15.1 C 0 km/h
2440 13-08-2010 08:07:02 14.8 C 10.13 g/m*3 14.8 C 0 km/h
2441 13-08-2010 08:19:02 14.9 C 10.2 g/m*3 14.9 C 0 km/h
2442 13-08-2010 08:31:02 15.2 C 10.38 g/m*3 15.2 C 0 km/h
2443 13-08-2010 08:43:02 15.3 C 10.45 g/m*3 15.3 C 0 km/h
2444 13-08-2010 08:55:01 15.6 C 10.51 g/m*3 15.6 C 0 km/h
2445 13-08-2010 09:07:01 15.6 C 10.51 g/m*3 15.6 C 0 km/h
2446 13-08-2010 09:19:02 15.8 C 10.23 g/m*3 15.8 C 0 km/h
2447 13-08-2010 09:31:01 16.1 C 10.14 g/m*3 16.1 C 0 km/h
2448 13-08-2010 09:43:01 16.6 C 10.17 g/m*3 16.6 C 0 km/h
2449 13-08-2010 09:55:03 17.2 C 10.4 g/m*3 17.2 C 0 km/h
2450 13-08-2010 10:07:02 17.6 C 10.05 g/m*3 17.6 C 0 km/h
Sensor: Nr:Datum:Temp:Abs-Feuchte:Windchill:Wind:
Aussen-T/F 2451 13-08-2010 10:19:03 18.3 C 10.01 g/m*3 18.3 C 0 km/h
2452 13-08-2010 10:31:02 19 C 9.45 g/m*3 19 C 0 km/h
2453 13-08-2010 10:43:02 19.5 C 9.4 g/m*3 19.5 C 0 km/h
2454 13-08-2010 10:55:02 19.8 C 9.22 g/m*3 19.8 C 0 km/h
2455 13-08-2010 11:07:02 20.9 C 9.11 g/m*3 20.9 C 0 km/h
2456 13-08-2010 11:19:02 21.2 C 8.52 g/m*3 21.2 C 0 km/h
2457 13-08-2010 11:31:03 21 C 8.24 g/m*3 21 C 0 km/h
2458 13-08-2010 11:43:03 21.4 C 7.69 g/m*3 21.4 C 0 km/h
2459 13-08-2010 11:55:02 21.7 C 8.39 g/m*3 21.7 C 0 km/h
2460 13-08-2010 12:07:01 22.1 C 7.81 g/m*3 22.1 C 0 km/h
2461 13-08-2010 12:19:02 21.7 C 7.63 g/m*3 21.7 C 0 km/h
2462 13-08-2010 12:31:02 22.2 C 7.85 g/m*3 22.2 C 0 km/h
2463 13-08-2010 12:43:02 22.2 C 7.85 g/m*3 22.2 C 0 km/h
2464 13-08-2010 12:55:02 22.8 C 7.52 g/m*3 22.8 C 0 km/h
2465 13-08-2010 13:07:02 22.5 C 7.19 g/m*3 22.5 C 0 km/h
2466 13-08-2010 13:19:02 23.2 C 7.28 g/m*3 23.2 C 0 km/h
2467 13-08-2010 13:31:02 23.2 C 7.48 g/m*3 23.2 C 0 km/h
2468 13-08-2010 13:43:02 23.5 C 6.56 g/m*3 23.5 C 0 km/h
2469 13-08-2010 13:55:01 22.6 C 6.43 g/m*3 22.6 C 0 km/h
2470 13-08-2010 14:07:01 22.6 C 6.43 g/m*3 22.6 C 0 km/h
2471 13-08-2010 14:19:01 23.2 C 6.44 g/m*3 23.2 C 0 km/h
2472 13-08-2010 14:31:01 24.1 C 6.78 g/m*3 24.1 C 0 km/h
2473 13-08-2010 14:43:01 24.4 C 6.23 g/m*3 24.4 C 0 km/h
2474 13-08-2010 14:55:01 25.3 C 6.55 g/m*3 25.3 C 0 km/h
2475 13-08-2010 15:07:01 24.7 C 6.11 g/m*3 24.7 C 0 km/h
Sensor: Nr:Datum:Temp:Abs-Feuchte:Windchill:Wind:
Aussen-T/F 2476 13-08-2010 15:19:02 24.6 C 6.3 g/m*3 24.6 C 0 km/h
2477 13-08-2010 15:31:01 24.9 C 6.18 g/m*3 24.9 C 0 km/h
2478 13-08-2010 15:43:01 24.1 C 5.69 g/m*3 24.1 C 0 km/h
2479 13-08-2010 15:55:01 23.8 C 5.81 g/m*3 23.8 C 0 km/h
2480 13-08-2010 16:07:01 24.3 C 5.75 g/m*3 24.3 C 0 km/h
2481 13-08-2010 16:19:02 24.4 C 6.45 g/m*3 24.4 C 0 km/h
2482 13-08-2010 16:31:01 24.5 C 6.94 g/m*3 24.5 C 0 km/h
2483 13-08-2010 16:43:01 24.1 C 6.78 g/m*3 24.1 C 0 km/h
2484 13-08-2010 16:55:02 23.9 C 7.79 g/m*3 23.9 C 0 km/h
2485 13-08-2010 17:07:02 24 C 6.96 g/m*3 24 C 0 km/h
2486 13-08-2010 17:19:02 23.7 C 7.27 g/m*3 23.7 C 0 km/h
2487 13-08-2010 17:31:02 23.7 C 7.06 g/m*3 23.7 C 0 km/h
2488 13-08-2010 17:43:02 23.6 C 7.66 g/m*3 23.6 C 0 km/h
2489 13-08-2010 17:55:02 23.3 C 8.15 g/m*3 23.3 C 0 km/h
2490 13-08-2010 18:07:02 22.9 C 8.17 g/m*3 22.9 C 0 km/h
2491 13-08-2010 18:19:01 22.8 C 8.13 g/m*3 22.8 C 0 km/h
2492 13-08-2010 18:31:02 22.5 C 8.19 g/m*3 22.5 C 0 km/h
2493 13-08-2010 18:43:02 22.3 C 8.29 g/m*3 22.3 C 0 km/h
2494 13-08-2010 18:55:02 22 C 7.96 g/m*3 22 C 0 km/h
2495 13-08-2010 19:07:02 21.7 C 8.01 g/m*3 21.7 C 0 km/h
2496 13-08-2010 19:19:02 22.1 C 7.81 g/m*3 22.1 C 0 km/h
2497 13-08-2010 19:31:02 21.9 C 8.1 g/m*3 21.9 C 0 km/h
2498 13-08-2010 19:43:02 21.5 C 7.92 g/m*3 21.5 C 0 km/h
2499 13-08-2010 19:55:02 22 C 7.57 g/m*3 22 C 0 km/h
2500 13-08-2010 20:07:02 21.7 C 7.82 g/m*3 21.7 C 0 km/h
Sensor: Nr:Datum:Temp:Abs-Feuchte:Windchill:Wind:
Aussen-T/F 2501 13-08-2010 20:19:02 20.7 C 7.92 g/m*3 20.7 C 0 km/h
2502 13-08-2010 20:31:02 19.8 C 8.03 g/m*3 19.8 C 0 km/h
2503 13-08-2010 20:43:02 19 C 7.99 g/m*3 19 C 0 km/h
2504 13-08-2010 20:55:02 18.3 C 7.82 g/m*3 18.3 C 0 km/h
2505 13-08-2010 21:07:02 17.9 C 7.79 g/m*3 17.9 C 0 km/h
2506 13-08-2010 21:19:03 17.7 C 7.69 g/m*3 17.7 C 0 km/h
2507 13-08-2010 21:31:02 17.8 C 7.89 g/m*3 17.8 C 0 km/h
2508 13-08-2010 21:43:02 17.5 C 7.75 g/m*3 17.5 C 0 km/h
2509 13-08-2010 21:55:03 17.4 C 8 g/m*3 17.4 C 0 km/h
2510 13-08-2010 22:07:02 17.3 C 8.1 g/m*3 17.3 C 0 km/h
2511 13-08-2010 22:19:02 17.1 C 8.01 g/m*3 17.1 C 0 km/h
2512 13-08-2010 22:31:03 16.8 C 8.29 g/m*3 16.8 C 0 km/h
2513 13-08-2010 22:43:03 16.4 C 8.37 g/m*3 16.4 C 0 km/h
2514 13-08-2010 22:56:03 16 C 8.17 g/m*3 16 C 0 km/h
2515 13-08-2010 23:08:03 15.8 C 8.35 g/m*3 15.8 C 0 km/h
2516 13-08-2010 23:20:03 15.6 C 8.38 g/m*3 15.6 C 0 km/h
2517 13-08-2010 23:32:03 15.5 C 8.86 g/m*3 15.5 C 0 km/h
2518 13-08-2010 23:44:03 15.2 C 8.83 g/m*3 15.2 C 0 km/h
2519 13-08-2010 23:56:03 15.1 C 8.77 g/m*3 15.1 C 0 km/h
2520 14-08-2010 00:08:03 15 C 8.72 g/m*3 15 C 0 km/h
2521 14-08-2010 00:20:03 14.9 C 8.92 g/m*3 14.9 C 0 km/h
2522 14-08-2010 00:32:04 14.6 C 8.88 g/m*3 14.6 C 0 km/h
2523 14-08-2010 00:44:04 14.5 C 8.95 g/m*3 14.5 C 0 km/h
2524 14-08-2010 00:56:04 14.5 C 9.08 g/m*3 14.5 C 0 km/h
2525 14-08-2010 01:08:04 14.3 C 9.09 g/m*3 14.3 C 0 km/h
Sensor: Nr:Datum:Temp:Abs-Feuchte:Windchill:Wind:
Aussen-T/F 2526 14-08-2010 01:20:04 14.1 C 9.1 g/m*3 14.1 C 0 km/h
2527 14-08-2010 01:32:04 13.8 C 9.06 g/m*3 13.8 C 0 km/h
2528 14-08-2010 01:44:04 13.9 C 9.11 g/m*3 13.9 C 0 km/h
2529 14-08-2010 01:56:04 13.8 C 9.17 g/m*3 13.8 C 0 km/h
2530 14-08-2010 02:08:04 13.6 C 9.06 g/m*3 13.6 C 0 km/h
2531 14-08-2010 02:20:04 13.4 C 8.95 g/m*3 13.4 C 0 km/h
2532 14-08-2010 02:32:04 13.3 C 9.01 g/m*3 13.3 C 0 km/h
2533 14-08-2010 02:44:04 13.2 C 8.96 g/m*3 13.2 C 0 km/h
2534 14-08-2010 02:56:04 13.1 C 9.01 g/m*3 13.1 C 0 km/h
2535 14-08-2010 03:08:04 12.9 C 9.02 g/m*3 12.9 C 0 km/h
2536 14-08-2010 03:20:04 12.7 C 8.91 g/m*3 12.7 C 0 km/h
2537 14-08-2010 03:32:04 12.6 C 8.85 g/m*3 12.6 C 0 km/h
2538 14-08-2010 03:44:04 12.5 C 8.91 g/m*3 12.5 C 0 km/h
2539 14-08-2010 03:56:04 12.3 C 8.69 g/m*3 12.3 C 0 km/h
2540 14-08-2010 04:08:04 12.2 C 8.74 g/m*3 12.2 C 0 km/h
2541 14-08-2010 04:20:04 12.1 C 8.69 g/m*3 12.1 C 0 km/h
2542 14-08-2010 04:32:05 12.1 C 8.69 g/m*3 12.1 C 0 km/h
2543 14-08-2010 04:44:05 12 C 8.74 g/m*3 12 C 0 km/h
2544 14-08-2010 04:56:05 11.9 C 8.9 g/m*3 11.9 C 0 km/h
2545 14-08-2010 05:08:05 11.8 C 8.84 g/m*3 11.8 C 0 km/h
2546 14-08-2010 05:20:05 11.7 C 8.79 g/m*3 11.7 C 0 km/h
2547 14-08-2010 05:32:05 11.6 C 8.73 g/m*3 11.6 C 0 km/h
2548 14-08-2010 05:44:05 11.5 C 8.68 g/m*3 11.5 C 0 km/h
2549 14-08-2010 05:56:05 11.5 C 8.78 g/m*3 11.5 C 0 km/h
2550 14-08-2010 06:08:05 11.4 C 8.83 g/m*3 11.4 C 0 km/h
Sensor: Nr:Datum:Temp:Abs-Feuchte:Windchill:Wind:
Aussen-T/F 2551 14-08-2010 06:20:05 11.1 C 8.66 g/m*3 11.1 C 0 km/h
2552 14-08-2010 06:32:05 11.1 C 8.76 g/m*3 11.1 C 0 km/h
2553 14-08-2010 06:44:05 11 C 8.71 g/m*3 11 C 0 km/h
2554 14-08-2010 06:56:05 11 C 8.71 g/m*3 11 C 0 km/h
2555 14-08-2010 07:08:04 11.1 C 8.76 g/m*3 11.1 C 0 km/h
2556 14-08-2010 07:20:03 11.1 C 8.76 g/m*3 11.1 C 0 km/h
2557 14-08-2010 07:32:04 11.3 C 8.87 g/m*3 11.3 C 0 km/h
2558 14-08-2010 07:44:04 11.4 C 9.03 g/m*3 11.4 C 0 km/h
2559 14-08-2010 07:56:02 11.5 C 9.09 g/m*3 11.5 C 0 km/h
2560 14-08-2010 08:08:02 11.8 C 9.26 g/m*3 11.8 C 0 km/h
2561 14-08-2010 08:20:02 12.1 C 9.33 g/m*3 12.1 C 0 km/h
2562 14-08-2010 08:32:02 12.3 C 9.45 g/m*3 12.3 C 0 km/h
2563 14-08-2010 08:44:02 12.6 C 9.51 g/m*3 12.6 C 0 km/h
2564 14-08-2010 08:56:02 12.8 C 9.52 g/m*3 12.8 C 0 km/h
2565 14-08-2010 09:08:02 13.2 C 9.53 g/m*3 13.2 C 0 km/h
2566 14-08-2010 09:20:02 13.8 C 9.89 g/m*3 13.8 C 0 km/h
2567 14-08-2010 09:32:02 14.4 C 10.01 g/m*3 14.4 C 0 km/h
2568 14-08-2010 09:44:02 15 C 10 g/m*3 15 C 0 km/h
2569 14-08-2010 09:56:01 15.6 C 10.24 g/m*3 15.6 C 0 km/h
2570 14-08-2010 10:08:01 16.2 C 10.2 g/m*3 16.2 C 0 km/h
2571 14-08-2010 10:20:02 16.9 C 10.36 g/m*3 16.9 C 0 km/h
2572 14-08-2010 10:32:01 17.7 C 10.41 g/m*3 17.7 C 0 km/h
2573 14-08-2010 10:44:01 18.3 C 10.48 g/m*3 18.3 C 0 km/h
2574 14-08-2010 10:56:01 19 C 10.43 g/m*3 19 C 0 km/h
2575 14-08-2010 11:08:01 19.5 C 10.57 g/m*3 19.5 C 0 km/h
Sensor: Nr:Datum:Temp:Abs-Feuchte:Windchill:Wind:
Aussen-T/F 2576 14-08-2010 11:20:02 20 C 10.37 g/m*3 20 C 0 km/h
2577 14-08-2010 11:32:01 20.6 C 10.38 g/m*3 20.6 C 0 km/h
2578 14-08-2010 11:44:01 21.4 C 10.31 g/m*3 21.4 C 0 km/h
2579 14-08-2010 11:56:02 21.9 C 10.03 g/m*3 21.9 C 0 km/h
2580 14-08-2010 12:08:02 22.2 C 9.42 g/m*3 22.2 C 0 km/h
2581 14-08-2010 12:20:02 22.7 C 9.9 g/m*3 22.7 C 0 km/h
2582 14-08-2010 12:32:03 23.1 C 9.3 g/m*3 23.1 C 0 km/h
2583 14-08-2010 12:44:03 23.2 C 8.94 g/m*3 23.2 C 0 km/h
2584 14-08-2010 12:56:02 23.6 C 8.29 g/m*3 23.6 C 0 km/h
2585 14-08-2010 13:08:01 24.5 C 8.06 g/m*3 24.5 C 0 km/h
2586 14-08-2010 13:20:02 25.7 C 7.66 g/m*3 25.7 C 0 km/h
2587 14-08-2010 13:32:02 26.4 C 7.47 g/m*3 26.4 C 0 km/h
2588 14-08-2010 13:44:02 27.1 C 6.73 g/m*3 27.1 C 0 km/h
2589 14-08-2010 13:56:02 27.5 C 6.88 g/m*3 27.5 C 0 km/h
2590 14-08-2010 14:08:01 27.5 C 6.88 g/m*3 27.5 C 0 km/h
2591 14-08-2010 14:20:02 28.2 C 7.42 g/m*3 28.2 C 0 km/h
2592 14-08-2010 14:32:01 27.9 C 6.76 g/m*3 27.9 C 0 km/h
2593 14-08-2010 14:44:01 27.4 C 6.84 g/m*3 27.4 C 0 km/h
2594 14-08-2010 14:56:02 27.1 C 6.99 g/m*3 27.1 C 0 km/h
2595 14-08-2010 15:08:02 27.7 C 6.95 g/m*3 27.7 C 0 km/h
2596 14-08-2010 15:20:02 27.7 C 6.95 g/m*3 27.7 C 0 km/h
2597 14-08-2010 15:32:03 27.5 C 6.61 g/m*3 27.5 C 0 km/h
2598 14-08-2010 15:44:03 28.1 C 6.84 g/m*3 28.1 C 0 km/h
2599 14-08-2010 15:56:02 29.2 C 6.1 g/m*3 29.2 C 0 km/h
2600 14-08-2010 16:08:01 29.6 C 6.53 g/m*3 29.6 C 0 km/h
Sensor: Nr:Datum:Temp:Abs-Feuchte:Windchill:Wind:
Aussen-T/F 2601 14-08-2010 16:20:02 30 C 6.67 g/m*3 30 C 0 km/h
2602 14-08-2010 16:32:02 30 C 6.37 g/m*3 30 C 0 km/h
2603 14-08-2010 16:44:02 30.3 C 6.47 g/m*3 30.3 C 0 km/h
2604 14-08-2010 16:56:02 30.6 C 6.26 g/m*3 30.6 C 0 km/h
2605 14-08-2010 17:08:02 30.7 C 6.3 g/m*3 30.7 C 0 km/h
2606 14-08-2010 17:20:02 30.6 C 6.26 g/m*3 30.6 C 0 km/h
2607 14-08-2010 17:32:02 30.9 C 6.37 g/m*3 30.9 C 0 km/h
2608 14-08-2010 17:44:02 31 C 6.4 g/m*3 31 C 0 km/h
2609 14-08-2010 17:56:01 31.2 C 6.47 g/m*3 31.2 C 0 km/h
2610 14-08-2010 18:08:01 31.4 C 6.54 g/m*3 31.4 C 0 km/h
2611 14-08-2010 18:20:01 31.5 C 6.57 g/m*3 31.5 C 0 km/h
2612 14-08-2010 18:32:01 31.3 C 6.5 g/m*3 31.3 C 0 km/h
2613 14-08-2010 18:44:01 31 C 6.4 g/m*3 31 C 0 km/h
2614 14-08-2010 18:56:01 30.9 C 6.37 g/m*3 30.9 C 0 km/h
2615 14-08-2010 19:08:01 29.6 C 7.72 g/m*3 29.6 C 0 km/h
2616 14-08-2010 19:20:02 28.2 C 7.15 g/m*3 28.2 C 0 km/h
2617 14-08-2010 19:32:01 27.4 C 7.37 g/m*3 27.4 C 0 km/h
2618 14-08-2010 19:44:01 27.2 C 7.55 g/m*3 27.2 C 0 km/h
2619 14-08-2010 19:56:03 26.9 C 7.93 g/m*3 26.9 C 0 km/h
2620 14-08-2010 20:08:02 26.6 C 8.05 g/m*3 26.6 C 0 km/h
2621 14-08-2010 20:20:02 25.8 C 8.19 g/m*3 25.8 C 0 km/h
2622 14-08-2010 20:32:02 24.7 C 8.15 g/m*3 24.7 C 0 km/h
2623 14-08-2010 20:44:02 24 C 8.05 g/m*3 24 C 0 km/h
2624 14-08-2010 20:56:02 23.2 C 8.32 g/m*3 23.2 C 0 km/h
2625 14-08-2010 21:08:02 22.7 C 8.49 g/m*3 22.7 C 0 km/h
Sensor: Nr:Datum:Temp:Abs-Feuchte:Windchill:Wind:
Aussen-T/F 2626 14-08-2010 21:20:02 22.5 C 8.59 g/m*3 22.5 C 0 km/h
2627 14-08-2010 21:32:02 22.1 C 8.78 g/m*3 22.1 C 0 km/h
2628 14-08-2010 21:44:02 21.8 C 8.83 g/m*3 21.8 C 0 km/h
2629 14-08-2010 21:56:02 21.6 C 8.91 g/m*3 21.6 C 0 km/h
2630 14-08-2010 22:08:02 21.6 C 9.1 g/m*3 21.6 C 0 km/h
2631 14-08-2010 22:20:01 21.5 C 9.05 g/m*3 21.5 C 0 km/h
2632 14-08-2010 22:32:02 21.2 C 9.27 g/m*3 21.2 C 0 km/h
2633 14-08-2010 22:44:02 21.1 C 9.21 g/m*3 21.1 C 0 km/h
2634 14-08-2010 22:56:02 20.8 C 9.05 g/m*3 20.8 C 0 km/h
2635 14-08-2010 23:08:02 20.7 C 9.36 g/m*3 20.7 C 0 km/h
2636 14-08-2010 23:21:03 20.6 C 9.31 g/m*3 20.6 C 0 km/h
2637 14-08-2010 23:33:03 20.3 C 9.15 g/m*3 20.3 C 0 km/h
2638 14-08-2010 23:45:03 20.2 C 8.92 g/m*3 20.2 C 0 km/h
2639 14-08-2010 23:57:03 20 C 8.99 g/m*3 20 C 0 km/h
2640 15-08-2010 00:09:03 20 C 8.81 g/m*3 20 C 0 km/h
2641 15-08-2010 00:21:03 19.8 C 8.88 g/m*3 19.8 C 0 km/h
2642 15-08-2010 00:33:03 19.8 C 8.88 g/m*3 19.8 C 0 km/h
2643 15-08-2010 00:45:03 19.6 C 8.78 g/m*3 19.6 C 0 km/h
2644 15-08-2010 00:57:03 19.5 C 8.73 g/m*3 19.5 C 0 km/h
2645 15-08-2010 01:09:03 19.5 C 8.89 g/m*3 19.5 C 0 km/h
2646 15-08-2010 01:21:03 19.5 C 8.56 g/m*3 19.5 C 0 km/h
2647 15-08-2010 01:33:03 19.4 C 8.84 g/m*3 19.4 C 0 km/h
2648 15-08-2010 01:45:03 19.3 C 8.63 g/m*3 19.3 C 0 km/h
2649 15-08-2010 01:57:03 19.2 C 8.74 g/m*3 19.2 C 0 km/h
2650 15-08-2010 02:09:03 19.1 C 8.69 g/m*3 19.1 C 0 km/h
Sensor: Nr:Datum:Temp:Abs-Feuchte:Windchill:Wind:
Aussen-T/F 2651 15-08-2010 02:21:03 19.1 C 9.02 g/m*3 19.1 C 0 km/h
2652 15-08-2010 02:33:03 19 C 8.96 g/m*3 19 C 0 km/h
2653 15-08-2010 02:45:03 18.9 C 9.07 g/m*3 18.9 C 0 km/h
2654 15-08-2010 02:57:03 18.8 C 9.18 g/m*3 18.8 C 0 km/h
2655 15-08-2010 03:09:03 18.8 C 9.34 g/m*3 18.8 C 0 km/h
2656 15-08-2010 03:21:03 18.7 C 9.29 g/m*3 18.7 C 0 km/h
2657 15-08-2010 03:33:04 18.6 C 9.23 g/m*3 18.6 C 0 km/h
2658 15-08-2010 03:45:04 18.5 C 9.33 g/m*3 18.5 C 0 km/h
2659 15-08-2010 03:57:04 18.4 C 9.28 g/m*3 18.4 C 0 km/h
2660 15-08-2010 04:09:04 18.2 C 9.17 g/m*3 18.2 C 0 km/h
2661 15-08-2010 04:21:04 18.2 C 9.33 g/m*3 18.2 C 0 km/h
2662 15-08-2010 04:33:04 18.1 C 9.12 g/m*3 18.1 C 0 km/h
2663 15-08-2010 04:45:04 18.1 C 9.12 g/m*3 18.1 C 0 km/h
2664 15-08-2010 04:57:04 18.1 C 8.96 g/m*3 18.1 C 0 km/h
2665 15-08-2010 05:09:04 18.1 C 8.81 g/m*3 18.1 C 0 km/h
2666 15-08-2010 05:21:04 18.1 C 8.96 g/m*3 18.1 C 0 km/h
2667 15-08-2010 05:33:04 18.1 C 8.81 g/m*3 18.1 C 0 km/h
2668 15-08-2010 05:45:04 18 C 8.91 g/m*3 18 C 0 km/h
2669 15-08-2010 05:57:04 18 C 8.91 g/m*3 18 C 0 km/h
2670 15-08-2010 06:09:04 17.8 C 9.11 g/m*3 17.8 C 0 km/h
2671 15-08-2010 06:21:04 17.9 C 9.01 g/m*3 17.9 C 0 km/h
2672 15-08-2010 06:33:04 18 C 9.06 g/m*3 18 C 0 km/h
2673 15-08-2010 06:45:04 17.9 C 9.01 g/m*3 17.9 C 0 km/h
2674 15-08-2010 06:57:04 17.9 C 9.01 g/m*3 17.9 C 0 km/h
2675 15-08-2010 07:09:04 18 C 8.91 g/m*3 18 C 0 km/h
Sensor: Nr:Datum:Temp:Abs-Feuchte:Windchill:Wind:
Aussen-T/F 2676 15-08-2010 07:21:04 17.9 C 9.16 g/m*3 17.9 C 0 km/h
2677 15-08-2010 07:33:04 17.2 C 9.52 g/m*3 17.2 C 0 km/h
2678 15-08-2010 07:45:05 16.4 C 10.05 g/m*3 16.4 C 0 km/h
2679 15-08-2010 07:57:05 16 C 10.63 g/m*3 16 C 0 km/h
2680 15-08-2010 08:09:05 15.4 C 11.04 g/m*3 15.4 C 0 km/h
2681 15-08-2010 08:21:05 15.1 C 11.22 g/m*3 15.1 C 0 km/h
2682 15-08-2010 08:33:03 15.1 C 11.48 g/m*3 15.1 C 0 km/h
2683 15-08-2010 08:45:02 15.4 C 11.82 g/m*3 15.4 C 0 km/h
2684 15-08-2010 08:57:02 15.2 C 11.81 g/m*3 15.2 C 0 km/h
2685 15-08-2010 09:09:03 15.1 C 11.74 g/m*3 15.1 C 0 km/h
2686 15-08-2010 09:21:02 15.1 C 11.87 g/m*3 15.1 C 0 km/h
2687 15-08-2010 09:33:02 15.2 C 12.07 g/m*3 15.2 C 0 km/h
2688 15-08-2010 09:45:01 15.3 C 12.14 g/m*3 15.3 C 0 km/h
2689 15-08-2010 09:57:01 15.3 C 12.14 g/m*3 15.3 C 0 km/h
2690 15-08-2010 10:09:02 15.5 C 12.43 g/m*3 15.5 C 0 km/h
2691 15-08-2010 10:21:01 15.4 C 12.35 g/m*3 15.4 C 0 km/h
2692 15-08-2010 10:33:01 15.4 C 12.35 g/m*3 15.4 C 0 km/h
2693 15-08-2010 10:45:01 15.5 C 12.43 g/m*3 15.5 C 0 km/h
2694 15-08-2010 10:57:01 15.6 C 12.63 g/m*3 15.6 C 0 km/h
2695 15-08-2010 11:09:01 15.7 C 12.71 g/m*3 15.7 C 0 km/h
2696 15-08-2010 11:21:02 15.8 C 12.79 g/m*3 15.8 C 0 km/h
2697 15-08-2010 11:33:01 15.8 C 12.79 g/m*3 15.8 C 0 km/h
2698 15-08-2010 11:45:03 15.9 C 12.87 g/m*3 15.9 C 0 km/h
2699 15-08-2010 11:57:03 15.9 C 12.87 g/m*3 15.9 C 0 km/h
2700 15-08-2010 12:09:02 15.8 C 12.79 g/m*3 15.8 C 0 km/h
Sensor: Nr:Datum:Temp:Abs-Feuchte:Windchill:Wind:
Aussen-T/F 2701 15-08-2010 12:21:02 16 C 12.94 g/m*3 16 C 0 km/h
2702 15-08-2010 12:33:02 16.2 C 13.1 g/m*3 16.2 C 0 km/h
2703 15-08-2010 12:45:02 16.1 C 13.02 g/m*3 16.1 C 0 km/h
2704 15-08-2010 12:57:02 16.1 C 13.02 g/m*3 16.1 C 0 km/h
2705 15-08-2010 13:09:02 16.1 C 13.02 g/m*3 16.1 C 0 km/h
2706 15-08-2010 13:21:02 16.1 C 13.02 g/m*3 16.1 C 0 km/h
2707 15-08-2010 13:33:02 16.2 C 13.1 g/m*3 16.2 C 0 km/h
2708 15-08-2010 13:45:01 16.2 C 13.1 g/m*3 16.2 C 0 km/h
2709 15-08-2010 13:57:01 16.1 C 13.02 g/m*3 16.1 C 0 km/h
2710 15-08-2010 14:09:02 16.2 C 13.1 g/m*3 16.2 C 0 km/h
2711 15-08-2010 14:21:02 16.3 C 13.18 g/m*3 16.3 C 0 km/h
2712 15-08-2010 14:33:02 16.6 C 13.42 g/m*3 16.6 C 0 km/h
2713 15-08-2010 14:45:02 16.6 C 13.42 g/m*3 16.6 C 0 km/h
2714 15-08-2010 14:57:02 16.5 C 13.34 g/m*3 16.5 C 0 km/h
2715 15-08-2010 15:09:02 16.4 C 13.26 g/m*3 16.4 C 0 km/h
2716 15-08-2010 15:21:02 16.4 C 13.26 g/m*3 16.4 C 0 km/h
2717 15-08-2010 15:33:01 16.4 C 13.26 g/m*3 16.4 C 0 km/h
2718 15-08-2010 15:45:02 16.4 C 13.26 g/m*3 16.4 C 0 km/h
2719 15-08-2010 15:57:02 16.4 C 13.26 g/m*3 16.4 C 0 km/h
2720 15-08-2010 16:09:04 16.5 C 13.34 g/m*3 16.5 C 0 km/h
2721 15-08-2010 16:21:02 16.5 C 13.34 g/m*3 16.5 C 0 km/h
2722 15-08-2010 16:33:02 16.5 C 13.34 g/m*3 16.5 C 0 km/h
2723 15-08-2010 16:45:03 16.4 C 13.26 g/m*3 16.4 C 0 km/h
2724 15-08-2010 16:57:03 16.5 C 13.34 g/m*3 16.5 C 0 km/h
2725 15-08-2010 17:09:03 16.6 C 13.42 g/m*3 16.6 C 0 km/h
Sensor: Nr:Datum:Temp:Abs-Feuchte:Windchill:Wind:
Aussen-T/F 2726 15-08-2010 17:21:02 16.7 C 13.5 g/m*3 16.7 C 0 km/h
2727 15-08-2010 17:33:02 16.7 C 13.5 g/m*3 16.7 C 0 km/h
2728 15-08-2010 17:45:02 16.7 C 13.5 g/m*3 16.7 C 0 km/h
2729 15-08-2010 17:57:02 16.7 C 13.5 g/m*3 16.7 C 0 km/h
2730 15-08-2010 18:09:02 16.6 C 13.42 g/m*3 16.6 C 0 km/h
2731 15-08-2010 18:21:02 16.6 C 13.42 g/m*3 16.6 C 0 km/h
2732 15-08-2010 18:33:02 16.6 C 13.42 g/m*3 16.6 C 0 km/h
2733 15-08-2010 18:45:02 16.6 C 13.42 g/m*3 16.6 C 0 km/h
2734 15-08-2010 18:57:03 16.6 C 13.42 g/m*3 16.6 C 0 km/h
2735 15-08-2010 19:09:01 16.6 C 13.42 g/m*3 16.6 C 0 km/h
2736 15-08-2010 19:21:01 16.6 C 13.42 g/m*3 16.6 C 0 km/h
2737 15-08-2010 19:33:02 16.6 C 13.42 g/m*3 16.6 C 0 km/h
2738 15-08-2010 19:45:02 16.6 C 13.42 g/m*3 16.6 C 0 km/h
2739 15-08-2010 19:57:02 16.6 C 13.42 g/m*3 16.6 C 0 km/h
2740 15-08-2010 20:09:02 16.5 C 13.34 g/m*3 16.5 C 0 km/h
2741 15-08-2010 20:21:02 16.4 C 13.26 g/m*3 16.4 C 0 km/h
2742 15-08-2010 20:33:02 16.4 C 13.26 g/m*3 16.4 C 0 km/h
2743 15-08-2010 20:45:02 16.3 C 13.18 g/m*3 16.3 C 0 km/h
2744 15-08-2010 20:57:02 16.3 C 13.18 g/m*3 16.3 C 0 km/h
2745 15-08-2010 21:09:02 16.3 C 13.18 g/m*3 16.3 C 0 km/h
2746 15-08-2010 21:21:02 16.3 C 13.18 g/m*3 16.3 C 0 km/h
2747 15-08-2010 21:33:02 16.2 C 13.1 g/m*3 16.2 C 0 km/h
2748 15-08-2010 21:45:02 16.2 C 13.1 g/m*3 16.2 C 0 km/h
2749 15-08-2010 21:57:02 16.2 C 13.1 g/m*3 16.2 C 0 km/h
2750 15-08-2010 22:09:02 16.1 C 13.02 g/m*3 16.1 C 0 km/h
Sensor: Nr:Datum:Temp:Abs-Feuchte:Windchill:Wind:
Aussen-T/F 2751 15-08-2010 22:21:02 16.1 C 13.02 g/m*3 16.1 C 0 km/h
2752 15-08-2010 22:33:02 16.2 C 13.1 g/m*3 16.2 C 0 km/h
2753 15-08-2010 22:45:02 16.2 C 13.1 g/m*3 16.2 C 0 km/h
2754 15-08-2010 22:57:02 16.1 C 13.02 g/m*3 16.1 C 0 km/h
2755 15-08-2010 23:09:02 16 C 12.94 g/m*3 16 C 0 km/h
2756 15-08-2010 23:21:02 15.9 C 12.87 g/m*3 15.9 C 0 km/h
2757 15-08-2010 23:33:02 15.4 C 12.48 g/m*3 15.4 C 0 km/h
2758 15-08-2010 23:45:02 15.2 C 12.33 g/m*3 15.2 C 0 km/h
2759 15-08-2010 23:57:02 15 C 12.18 g/m*3 15 C 0 km/h
2760 16-08-2010 00:09:02 15 C 12.18 g/m*3 15 C 0 km/h
2761 16-08-2010 00:21:01 15 C 12.18 g/m*3 15 C 0 km/h
2762 16-08-2010 00:33:02 14.9 C 12.11 g/m*3 14.9 C 0 km/h
2763 16-08-2010 00:45:02 14.8 C 12.03 g/m*3 14.8 C 0 km/h
2764 16-08-2010 00:57:02 14.8 C 12.03 g/m*3 14.8 C 0 km/h
2765 16-08-2010 01:09:02 14.8 C 12.03 g/m*3 14.8 C 0 km/h
2766 16-08-2010 01:21:02 14.7 C 11.96 g/m*3 14.7 C 0 km/h
2767 16-08-2010 01:33:02 14.7 C 11.83 g/m*3 14.7 C 0 km/h
2768 16-08-2010 01:45:02 14.7 C 11.83 g/m*3 14.7 C 0 km/h
2769 16-08-2010 01:57:02 14.7 C 11.71 g/m*3 14.7 C 0 km/h
2770 16-08-2010 02:09:02 14.6 C 11.64 g/m*3 14.6 C 0 km/h
2771 16-08-2010 02:21:02 14.6 C 11.64 g/m*3 14.6 C 0 km/h
2772 16-08-2010 02:33:02 14.6 C 11.64 g/m*3 14.6 C 0 km/h
2773 16-08-2010 02:46:03 14.6 C 11.51 g/m*3 14.6 C 0 km/h
2774 16-08-2010 02:58:03 14.6 C 11.64 g/m*3 14.6 C 0 km/h
2775 16-08-2010 03:10:04 14.6 C 11.64 g/m*3 14.6 C 0 km/h
Sensor: Nr:Datum:Temp:Abs-Feuchte:Windchill:Wind:
Aussen-T/F 2776 16-08-2010 03:22:04 14.6 C 11.64 g/m*3 14.6 C 0 km/h
2777 16-08-2010 03:34:02 14.6 C 11.64 g/m*3 14.6 C 0 km/h
2778 16-08-2010 03:46:02 14.6 C 11.64 g/m*3 14.6 C 0 km/h
2779 16-08-2010 03:58:02 14.6 C 11.64 g/m*3 14.6 C 0 km/h
2780 16-08-2010 04:10:02 14.5 C 11.44 g/m*3 14.5 C 0 km/h
2781 16-08-2010 04:22:02 14.5 C 11.32 g/m*3 14.5 C 0 km/h
2782 16-08-2010 04:34:02 14.5 C 11.32 g/m*3 14.5 C 0 km/h
2783 16-08-2010 04:46:02 14.5 C 11.32 g/m*3 14.5 C 0 km/h
2784 16-08-2010 04:58:02 14.5 C 11.32 g/m*3 14.5 C 0 km/h
2785 16-08-2010 05:10:02 14.5 C 11.32 g/m*3 14.5 C 0 km/h
2786 16-08-2010 05:22:02 14.5 C 11.32 g/m*3 14.5 C 0 km/h
2787 16-08-2010 05:34:02 14.5 C 11.44 g/m*3 14.5 C 0 km/h
2788 16-08-2010 05:46:01 14.5 C 11.44 g/m*3 14.5 C 0 km/h
2789 16-08-2010 05:58:01 14.5 C 11.44 g/m*3 14.5 C 0 km/h
2790 16-08-2010 06:10:02 14.5 C 11.44 g/m*3 14.5 C 0 km/h
2791 16-08-2010 06:22:02 14.5 C 11.32 g/m*3 14.5 C 0 km/h
2792 16-08-2010 06:34:02 14.5 C 11.32 g/m*3 14.5 C 0 km/h
2793 16-08-2010 06:46:02 14.6 C 11.39 g/m*3 14.6 C 0 km/h
2794 16-08-2010 06:58:02 14.6 C 11.39 g/m*3 14.6 C 0 km/h
2795 16-08-2010 07:10:02 14.6 C 11.39 g/m*3 14.6 C 0 km/h
2796 16-08-2010 07:22:56 14.8 C 11.53 g/m*3 14.8 C 0 km/h
2797 16-08-2010 07:34:02 14.8 C 11.53 g/m*3 14.8 C 0 km/h
2798 16-08-2010 07:46:02 14.8 C 11.4 g/m*3 14.8 C 0 km/h
2799 16-08-2010 07:58:02 15.2 C 11.42 g/m*3 15.2 C 0 km/h
2800 16-08-2010 08:10:02 15.6 C 11.57 g/m*3 15.6 C 0 km/h
Sensor: Nr:Datum:Temp:Abs-Feuchte:Windchill:Wind:
Aussen-T/F 2801 16-08-2010 08:22:01 15.8 C 11.58 g/m*3 15.8 C 0 km/h
2802 16-08-2010 08:34:02 15.9 C 11.38 g/m*3 15.9 C 0 km/h
2803 16-08-2010 08:46:01 16 C 11.31 g/m*3 16 C 0 km/h
2804 16-08-2010 08:58:01 16.3 C 11.38 g/m*3 16.3 C 0 km/h
2805 16-08-2010 09:10:02 17.1 C 11.5 g/m*3 17.1 C 0 km/h
2806 16-08-2010 09:22:02 17.4 C 11.12 g/m*3 17.4 C 0 km/h
2807 16-08-2010 09:34:01 17.4 C 10.82 g/m*3 17.4 C 0 km/h
2808 16-08-2010 09:46:01 17.7 C 11.01 g/m*3 17.7 C 0 km/h
2809 16-08-2010 09:58:01 17.4 C 10.97 g/m*3 17.4 C 0 km/h
2810 16-08-2010 10:10:01 17.4 C 10.97 g/m*3 17.4 C 0 km/h
2811 16-08-2010 10:22:02 17.3 C 10.9 g/m*3 17.3 C 0 km/h
2812 16-08-2010 10:34:01 17.1 C 10.63 g/m*3 17.1 C 0 km/h
2813 16-08-2010 10:46:02 17.2 C 10.84 g/m*3 17.2 C 0 km/h
2814 16-08-2010 10:58:02 17 C 10.85 g/m*3 17 C 0 km/h
2815 16-08-2010 11:10:01 17.3 C 11.05 g/m*3 17.3 C 0 km/h
2816 16-08-2010 11:22:01 17.7 C 11.47 g/m*3 17.7 C 0 km/h
2817 16-08-2010 11:42:02 18.1 C 10.97 g/m*3 18.1 C 0 km/h
2818 16-08-2010 11:54:02 17.7 C 10.86 g/m*3 17.7 C 0 km/h
2819 16-08-2010 12:06:03 17.5 C 11.33 g/m*3 17.5 C 0 km/h
2820 16-08-2010 12:18:02 17.8 C 11.84 g/m*3 17.8 C 0 km/h
2821 16-08-2010 12:30:02 17.6 C 11.4 g/m*3 17.6 C 0 km/h
2822 16-08-2010 12:42:02 17.8 C 11.54 g/m*3 17.8 C 0 km/h
2823 16-08-2010 12:54:02 18.1 C 11.12 g/m*3 18.1 C 0 km/h
2824 16-08-2010 13:06:02 18.1 C 10.97 g/m*3 18.1 C 0 km/h
2825 16-08-2010 13:18:02 18.2 C 10.72 g/m*3 18.2 C 0 km/h
Sensor: Nr:Datum:Temp:Abs-Feuchte:Windchill:Wind:
Aussen-T/F 2826 16-08-2010 13:30:02 18.3 C 10.63 g/m*3 18.3 C 0 km/h
2827 16-08-2010 13:42:02 18.5 C 10.28 g/m*3 18.5 C 0 km/h
2828 16-08-2010 13:54:02 18.8 C 10.31 g/m*3 18.8 C 0 km/h
2829 16-08-2010 14:06:01 19.5 C 10.41 g/m*3 19.5 C 0 km/h
2830 16-08-2010 14:18:02 19.6 C 9.96 g/m*3 19.6 C 0 km/h
2831 16-08-2010 14:30:03 20 C 9.51 g/m*3 20 C 0 km/h
2832 16-08-2010 14:42:01 20.5 C 9.96 g/m*3 20.5 C 0 km/h
2833 16-08-2010 14:54:02 19.8 C 9.57 g/m*3 19.8 C 0 km/h
2834 16-08-2010 15:06:02 19.7 C 9.34 g/m*3 19.7 C 0 km/h
2835 16-08-2010 15:18:02 19.7 C 9.51 g/m*3 19.7 C 0 km/h
2836 16-08-2010 15:30:02 19.7 C 9.34 g/m*3 19.7 C 0 km/h
2837 16-08-2010 15:42:03 19.8 C 9.57 g/m*3 19.8 C 0 km/h
2838 16-08-2010 15:54:02 19.7 C 9.34 g/m*3 19.7 C 0 km/h
2839 16-08-2010 16:06:02 20 C 9.68 g/m*3 20 C 0 km/h
2840 16-08-2010 16:18:02 19.7 C 9.68 g/m*3 19.7 C 0 km/h
2841 16-08-2010 16:30:02 19.6 C 9.79 g/m*3 19.6 C 0 km/h
2842 16-08-2010 16:42:02 19.5 C 9.73 g/m*3 19.5 C 0 km/h
2843 16-08-2010 16:54:02 20 C 9.85 g/m*3 20 C 0 km/h
2844 16-08-2010 17:07:03 20 C 9.85 g/m*3 20 C 0 km/h
2845 16-08-2010 17:19:02 19.9 C 9.79 g/m*3 19.9 C 0 km/h
2846 16-08-2010 17:31:02 19.8 C 9.74 g/m*3 19.8 C 0 km/h
2847 16-08-2010 17:43:02 19.8 C 9.74 g/m*3 19.8 C 0 km/h
2848 16-08-2010 17:55:01 20.3 C 9.85 g/m*3 20.3 C 0 km/h
2849 16-08-2010 18:07:02 20.2 C 9.44 g/m*3 20.2 C 0 km/h
2850 16-08-2010 18:19:01 20 C 9.51 g/m*3 20 C 0 km/h
Sensor: Nr:Datum:Temp:Abs-Feuchte:Windchill:Wind:
Aussen-T/F 2851 16-08-2010 18:31:01 19.8 C 9.74 g/m*3 19.8 C 0 km/h
2852 16-08-2010 18:43:01 19.5 C 9.73 g/m*3 19.5 C 0 km/h
2853 16-08-2010 18:55:01 19.3 C 9.79 g/m*3 19.3 C 0 km/h
2854 16-08-2010 19:07:02 18.9 C 9.88 g/m*3 18.9 C 0 km/h
2855 16-08-2010 19:19:02 18.8 C 9.99 g/m*3 18.8 C 0 km/h
2856 16-08-2010 19:31:01 18.7 C 10.09 g/m*3 18.7 C 0 km/h
2857 16-08-2010 19:43:01 18.4 C 10.07 g/m*3 18.4 C 0 km/h
2858 16-08-2010 19:55:02 18.2 C 10.26 g/m*3 18.2 C 0 km/h
2859 16-08-2010 20:07:01 18.1 C 10.35 g/m*3 18.1 C 0 km/h
2860 16-08-2010 20:19:02 18 C 10.44 g/m*3 18 C 0 km/h
2861 16-08-2010 20:31:01 17.9 C 10.69 g/m*3 17.9 C 0 km/h
2862 16-08-2010 20:43:01 17.8 C 10.78 g/m*3 17.8 C 0 km/h
2863 16-08-2010 20:55:02 17.7 C 10.86 g/m*3 17.7 C 0 km/h
2864 16-08-2010 21:07:01 17.6 C 11.1 g/m*3 17.6 C 0 km/h
2865 16-08-2010 21:19:01 17.4 C 11.12 g/m*3 17.4 C 0 km/h
2866 16-08-2010 21:31:02 17.3 C 11.34 g/m*3 17.3 C 0 km/h
2867 16-08-2010 21:43:02 17.4 C 11.41 g/m*3 17.4 C 0 km/h
2868 16-08-2010 21:55:02 17.5 C 11.63 g/m*3 17.5 C 0 km/h
2869 16-08-2010 22:07:35 17.4 C 11.71 g/m*3 17.4 C 0 km/h
2870 16-08-2010 22:20:03 17.5 C 11.78 g/m*3 17.5 C 0 km/h
2871 16-08-2010 22:32:03 17.6 C 11.85 g/m*3 17.6 C 0 km/h
2872 16-08-2010 22:44:03 17.7 C 11.92 g/m*3 17.7 C 0 km/h
2873 16-08-2010 22:56:03 17.7 C 11.92 g/m*3 17.7 C 0 km/h
2874 16-08-2010 23:08:03 17.8 C 12.14 g/m*3 17.8 C 0 km/h
2875 16-08-2010 23:20:03 17.7 C 12.07 g/m*3 17.7 C 0 km/h
Sensor: Nr:Datum:Temp:Abs-Feuchte:Windchill:Wind:
Aussen-T/F 2876 16-08-2010 23:32:03 17.7 C 12.07 g/m*3 17.7 C 0 km/h
2877 16-08-2010 23:44:03 17.8 C 11.99 g/m*3 17.8 C 0 km/h
2878 16-08-2010 23:56:03 17.8 C 11.99 g/m*3 17.8 C 0 km/h
2879 17-08-2010 00:08:03 17.8 C 11.99 g/m*3 17.8 C 0 km/h
2880 17-08-2010 00:20:03 17.8 C 11.99 g/m*3 17.8 C 0 km/h
2881 17-08-2010 00:32:03 17.7 C 11.92 g/m*3 17.7 C 0 km/h
2882 17-08-2010 00:44:03 17.5 C 11.78 g/m*3 17.5 C 0 km/h
2883 17-08-2010 00:56:03 17.3 C 12.08 g/m*3 17.3 C 0 km/h
2884 17-08-2010 01:08:03 17.1 C 12.08 g/m*3 17.1 C 0 km/h
2885 17-08-2010 01:20:03 16.8 C 12.3 g/m*3 16.8 C 0 km/h
2886 17-08-2010 01:32:03 16.6 C 12.29 g/m*3 16.6 C 0 km/h
2887 17-08-2010 01:44:03 16.5 C 12.36 g/m*3 16.5 C 0 km/h
2888 17-08-2010 01:56:03 16.4 C 12.42 g/m*3 16.4 C 0 km/h
2889 17-08-2010 02:08:03 16.3 C 12.35 g/m*3 16.3 C 0 km/h
2890 17-08-2010 02:20:03 16.5 C 12.5 g/m*3 16.5 C 0 km/h
2891 17-08-2010 02:32:04 16.5 C 12.5 g/m*3 16.5 C 0 km/h
2892 17-08-2010 02:44:04 16.6 C 12.43 g/m*3 16.6 C 0 km/h
2893 17-08-2010 02:56:04 16.5 C 12.08 g/m*3 16.5 C 0 km/h
2894 17-08-2010 03:08:04 16.4 C 11.86 g/m*3 16.4 C 0 km/h
2895 17-08-2010 03:20:04 16.4 C 11.86 g/m*3 16.4 C 0 km/h
2896 17-08-2010 03:32:04 16.4 C 11.86 g/m*3 16.4 C 0 km/h
2897 17-08-2010 03:44:04 16.4 C 11.72 g/m*3 16.4 C 0 km/h
2898 17-08-2010 03:56:04 16.5 C 11.65 g/m*3 16.5 C 0 km/h
2899 17-08-2010 04:08:04 16.5 C 11.37 g/m*3 16.5 C 0 km/h
2900 17-08-2010 04:20:04 16.4 C 11.31 g/m*3 16.4 C 0 km/h
Sensor: Nr:Datum:Temp:Abs-Feuchte:Windchill:Wind:
Aussen-T/F 2901 17-08-2010 04:32:04 16.4 C 11.17 g/m*3 16.4 C 0 km/h
2902 17-08-2010 04:44:04 16.4 C 11.03 g/m*3 16.4 C 0 km/h
2903 17-08-2010 04:56:04 16.4 C 11.03 g/m*3 16.4 C 0 km/h
2904 17-08-2010 05:08:04 16 C 11.04 g/m*3 16 C 0 km/h
2905 17-08-2010 05:20:04 15.5 C 11.24 g/m*3 15.5 C 0 km/h
2906 17-08-2010 05:32:05 15.4 C 11.43 g/m*3 15.4 C 0 km/h
2907 17-08-2010 05:44:05 15.6 C 11.57 g/m*3 15.6 C 0 km/h
2908 17-08-2010 05:56:05 15.6 C 11.44 g/m*3 15.6 C 0 km/h
2909 17-08-2010 06:08:05 15.7 C 11.37 g/m*3 15.7 C 0 km/h
2910 17-08-2010 06:20:05 15.8 C 11.31 g/m*3 15.8 C 0 km/h
2911 17-08-2010 06:32:05 15.8 C 11.31 g/m*3 15.8 C 0 km/h
2912 17-08-2010 06:44:05 15.9 C 11.24 g/m*3 15.9 C 0 km/h
2913 17-08-2010 06:56:02 16 C 10.9 g/m*3 16 C 0 km/h
2914 17-08-2010 07:08:02 16.2 C 10.89 g/m*3 16.2 C 0 km/h
2915 17-08-2010 07:20:24 16.2 C 10.76 g/m*3 16.2 C 0 km/h
2916 17-08-2010 07:32:02 16.3 C 10.96 g/m*3 16.3 C 0 km/h
2917 17-08-2010 07:44:02 16.4 C 10.89 g/m*3 16.4 C 0 km/h
2918 17-08-2010 07:56:01 16.7 C 10.66 g/m*3 16.7 C 0 km/h
2919 17-08-2010 08:08:03 16.7 C 10.66 g/m*3 16.7 C 0 km/h
2920 17-08-2010 08:20:01 16.8 C 10.58 g/m*3 16.8 C 0 km/h
2921 17-08-2010 08:32:02 16.7 C 10.23 g/m*3 16.7 C 0 km/h
2922 17-08-2010 08:44:02 16.7 C 10.09 g/m*3 16.7 C 0 km/h
2923 17-08-2010 08:56:02 16.7 C 10.09 g/m*3 16.7 C 0 km/h
2924 17-08-2010 09:08:02 16.8 C 10.01 g/m*3 16.8 C 0 km/h
2925 17-08-2010 09:20:02 16.9 C 9.78 g/m*3 16.9 C 0 km/h
Sensor: Nr:Datum:Temp:Abs-Feuchte:Windchill:Wind:
Aussen-T/F 2926 17-08-2010 09:32:02 16.9 C 9.64 g/m*3 16.9 C 0 km/h
2927 17-08-2010 09:44:02 17.1 C 9.46 g/m*3 17.1 C 0 km/h
2928 17-08-2010 09:56:02 17.2 C 9.37 g/m*3 17.2 C 0 km/h
2929 17-08-2010 10:08:02 17 C 9.26 g/m*3 17 C 0 km/h
2930 17-08-2010 10:20:01 17 C 9.26 g/m*3 17 C 0 km/h
2931 17-08-2010 10:32:02 17 C 9.41 g/m*3 17 C 0 km/h
2932 17-08-2010 10:44:02 17 C 9.41 g/m*3 17 C 0 km/h
2933 17-08-2010 10:56:02 17.3 C 9.43 g/m*3 17.3 C 0 km/h
2934 17-08-2010 11:08:02 17.6 C 9.45 g/m*3 17.6 C 0 km/h
2935 17-08-2010 11:20:02 17.3 C 9.58 g/m*3 17.3 C 0 km/h
2936 17-08-2010 11:32:02 17.6 C 9.3 g/m*3 17.6 C 0 km/h
2937 17-08-2010 11:44:02 17.7 C 8.75 g/m*3 17.7 C 0 km/h
2938 17-08-2010 11:56:02 17.7 C 8.9 g/m*3 17.7 C 0 km/h
2939 17-08-2010 12:08:02 17.6 C 8.85 g/m*3 17.6 C 0 km/h
2940 17-08-2010 12:20:02 16.8 C 9.58 g/m*3 16.8 C 0 km/h
2941 17-08-2010 12:32:02 16 C 10.08 g/m*3 16 C 0 km/h
2942 17-08-2010 12:44:02 16.4 C 11.03 g/m*3 16.4 C 0 km/h
2943 17-08-2010 12:56:02 16.3 C 10.96 g/m*3 16.3 C 0 km/h
2944 17-08-2010 13:08:02 16.5 C 11.23 g/m*3 16.5 C 0 km/h
2945 17-08-2010 13:20:02 16.8 C 11.58 g/m*3 16.8 C 0 km/h
2946 17-08-2010 13:32:02 17.7 C 11.92 g/m*3 17.7 C 0 km/h
2947 17-08-2010 13:44:02 17.9 C 11.76 g/m*3 17.9 C 0 km/h
2948 17-08-2010 13:56:02 17.6 C 12.15 g/m*3 17.6 C 0 km/h
2949 17-08-2010 14:08:01 17.7 C 10.41 g/m*3 17.7 C 0 km/h
2950 17-08-2010 14:20:02 17.3 C 9.28 g/m*3 17.3 C 0 km/h
Sensor: Nr:Datum:Temp:Abs-Feuchte:Windchill:Wind:
Aussen-T/F 2951 17-08-2010 14:32:02 17.4 C 9.19 g/m*3 17.4 C 0 km/h
2952 17-08-2010 14:44:02 18.1 C 8.65 g/m*3 18.1 C 0 km/h
2953 17-08-2010 14:56:02 18.2 C 8.24 g/m*3 18.2 C 0 km/h
2954 17-08-2010 15:08:01 17.9 C 7.94 g/m*3 17.9 C 0 km/h
2955 17-08-2010 15:20:01 18.3 C 7.97 g/m*3 18.3 C 0 km/h
2956 17-08-2010 15:32:02 18 C 7.99 g/m*3 18 C 0 km/h
2957 17-08-2010 15:44:02 16 C 9.4 g/m*3 16 C 0 km/h
2958 17-08-2010 15:56:02 15.2 C 9.99 g/m*3 15.2 C 0 km/h
2959 17-08-2010 16:08:02 14.9 C 10.2 g/m*3 14.9 C 0 km/h
2960 17-08-2010 16:20:01 14.6 C 10.01 g/m*3 14.6 C 0 km/h
2961 17-08-2010 16:32:02 14.4 C 9.64 g/m*3 14.4 C 0 km/h
2962 17-08-2010 16:44:02 14.8 C 9.37 g/m*3 14.8 C 0 km/h
2963 17-08-2010 16:56:02 14.8 C 9.5 g/m*3 14.8 C 0 km/h
2964 17-08-2010 17:08:02 14.5 C 9.45 g/m*3 14.5 C 0 km/h
2965 17-08-2010 17:20:01 14.4 C 9.64 g/m*3 14.4 C 0 km/h
2966 17-08-2010 17:32:02 14.2 C 9.77 g/m*3 14.2 C 0 km/h
2967 17-08-2010 17:44:02 14.3 C 10.32 g/m*3 14.3 C 0 km/h
2968 17-08-2010 17:56:02 14.7 C 10.7 g/m*3 14.7 C 0 km/h
2969 17-08-2010 18:08:02 14.3 C 10.57 g/m*3 14.3 C 0 km/h
2970 17-08-2010 18:20:02 14.4 C 10.75 g/m*3 14.4 C 0 km/h
2971 17-08-2010 18:32:02 14.8 C 11.15 g/m*3 14.8 C 0 km/h
2972 17-08-2010 18:44:02 15.2 C 11.29 g/m*3 15.2 C 0 km/h
2973 17-08-2010 18:56:02 15.3 C 11.23 g/m*3 15.3 C 0 km/h
2974 17-08-2010 19:08:02 15.2 C 11.16 g/m*3 15.2 C 0 km/h
2975 17-08-2010 19:20:02 15 C 11.03 g/m*3 15 C 0 km/h
Sensor: Nr:Datum:Temp:Abs-Feuchte:Windchill:Wind:
Aussen-T/F 2976 17-08-2010 19:32:02 14.8 C 11.02 g/m*3 14.8 C 0 km/h
2977 17-08-2010 19:44:02 14.7 C 11.08 g/m*3 14.7 C 0 km/h
2978 17-08-2010 19:56:02 14.5 C 10.94 g/m*3 14.5 C 0 km/h
2979 17-08-2010 20:08:01 14.4 C 11 g/m*3 14.4 C 0 km/h
2980 17-08-2010 20:20:02 14.4 C 11 g/m*3 14.4 C 0 km/h
2981 17-08-2010 20:32:02 14.2 C 10.99 g/m*3 14.2 C 0 km/h
2982 17-08-2010 20:44:02 14.3 C 11.06 g/m*3 14.3 C 0 km/h
2983 17-08-2010 20:56:02 14.3 C 11.06 g/m*3 14.3 C 0 km/h
2984 17-08-2010 21:08:03 14.3 C 11.18 g/m*3 14.3 C 0 km/h
2985 17-08-2010 21:20:02 14.3 C 11.18 g/m*3 14.3 C 0 km/h
2986 17-08-2010 21:32:02 14.3 C 11.3 g/m*3 14.3 C 0 km/h
2987 17-08-2010 21:44:02 14.4 C 11.37 g/m*3 14.4 C 0 km/h
2988 17-08-2010 21:57:04 14.6 C 11.51 g/m*3 14.6 C 0 km/h
2989 17-08-2010 22:09:05 14.6 C 11.51 g/m*3 14.6 C 0 km/h
2990 17-08-2010 22:21:05 14.4 C 11 g/m*3 14.4 C 0 km/h
2991 17-08-2010 22:33:05 14.6 C 10.64 g/m*3 14.6 C 0 km/h
2992 17-08-2010 22:45:05 14.7 C 10.45 g/m*3 14.7 C 0 km/h
2993 17-08-2010 22:57:05 14.8 C 10.13 g/m*3 14.8 C 0 km/h
2994 17-08-2010 23:09:05 14.9 C 10.2 g/m*3 14.9 C 0 km/h
2995 17-08-2010 23:21:05 14.9 C 10.2 g/m*3 14.9 C 0 km/h
2996 17-08-2010 23:33:05 15 C 10 g/m*3 15 C 0 km/h
2997 17-08-2010 23:45:05 15 C 9.87 g/m*3 15 C 0 km/h
2998 17-08-2010 23:57:05 15.2 C 9.99 g/m*3 15.2 C 0 km/h
2999 18-08-2010 00:09:05 15.3 C 9.79 g/m*3 15.3 C 0 km/h
3000 18-08-2010 00:21:05 15.4 C 9.72 g/m*3 15.4 C 0 km/h
Sensor: Nr:Datum:Temp:Abs-Feuchte:Windchill:Wind:
Aussen-T/F 3001 18-08-2010 00:33:05 15.5 C 9.65 g/m*3 15.5 C 0 km/h
3002 18-08-2010 00:45:05 15.7 C 9.63 g/m*3 15.7 C 0 km/h
3003 18-08-2010 00:57:05 15.7 C 9.5 g/m*3 15.7 C 0 km/h
3004 18-08-2010 01:09:05 15.7 C 9.5 g/m*3 15.7 C 0 km/h
3005 18-08-2010 01:21:05 15.8 C 9.42 g/m*3 15.8 C 0 km/h
3006 18-08-2010 01:33:05 15.8 C 9.42 g/m*3 15.8 C 0 km/h
3007 18-08-2010 01:45:05 15.8 C 9.42 g/m*3 15.8 C 0 km/h
3008 18-08-2010 01:57:05 15.7 C 9.37 g/m*3 15.7 C 0 km/h
3009 18-08-2010 02:09:05 15.5 C 9.39 g/m*3 15.5 C 0 km/h
3010 18-08-2010 02:21:05 15.6 C 9.44 g/m*3 15.6 C 0 km/h
3011 18-08-2010 02:33:05 15.5 C 9.39 g/m*3 15.5 C 0 km/h
3012 18-08-2010 02:45:06 15.6 C 9.44 g/m*3 15.6 C 0 km/h
3013 18-08-2010 02:57:06 15.5 C 9.52 g/m*3 15.5 C 0 km/h
3014 18-08-2010 03:09:06 15.5 C 9.52 g/m*3 15.5 C 0 km/h
3015 18-08-2010 03:21:06 15.4 C 9.46 g/m*3 15.4 C 0 km/h
3016 18-08-2010 03:33:06 15.5 C 9.52 g/m*3 15.5 C 0 km/h
3017 18-08-2010 03:45:06 15.4 C 9.46 g/m*3 15.4 C 0 km/h
3018 18-08-2010 03:57:06 15.5 C 9.52 g/m*3 15.5 C 0 km/h
3019 18-08-2010 04:09:06 15.4 C 9.33 g/m*3 15.4 C 0 km/h
3020 18-08-2010 04:21:06 15.4 C 9.46 g/m*3 15.4 C 0 km/h
3021 18-08-2010 04:33:06 15.2 C 9.48 g/m*3 15.2 C 0 km/h
3022 18-08-2010 04:45:06 15 C 9.62 g/m*3 15 C 0 km/h
3023 18-08-2010 04:57:06 15 C 9.87 g/m*3 15 C 0 km/h
3024 18-08-2010 05:09:06 15 C 9.87 g/m*3 15 C 0 km/h
3025 18-08-2010 05:21:06 15 C 9.75 g/m*3 15 C 0 km/h
Sensor: Nr:Datum:Temp:Abs-Feuchte:Windchill:Wind:
Aussen-T/F 3026 18-08-2010 05:33:06 14.9 C 9.81 g/m*3 14.9 C 0 km/h
3027 18-08-2010 05:45:06 14.9 C 9.81 g/m*3 14.9 C 0 km/h
3028 18-08-2010 05:57:06 15 C 9.75 g/m*3 15 C 0 km/h
3029 18-08-2010 06:09:06 15 C 9.62 g/m*3 15 C 0 km/h
3030 18-08-2010 06:21:04 15 C 9.62 g/m*3 15 C 0 km/h
3031 18-08-2010 06:33:04 15 C 9.49 g/m*3 15 C 0 km/h
3032 18-08-2010 06:45:02 15.2 C 9.61 g/m*3 15.2 C 0 km/h
3033 18-08-2010 06:57:02 15.2 C 9.48 g/m*3 15.2 C 0 km/h
3034 18-08-2010 07:09:01 15.2 C 9.48 g/m*3 15.2 C 0 km/h
3035 18-08-2010 07:21:01 15.3 C 9.66 g/m*3 15.3 C 0 km/h
3036 18-08-2010 07:33:02 15.4 C 9.72 g/m*3 15.4 C 0 km/h
3037 18-08-2010 07:45:02 15.5 C 9.78 g/m*3 15.5 C 0 km/h
3038 18-08-2010 07:57:02 15.8 C 9.83 g/m*3 15.8 C 0 km/h
3039 18-08-2010 08:09:02 15.9 C 9.89 g/m*3 15.9 C 0 km/h
3040 18-08-2010 08:21:01 16 C 9.81 g/m*3 16 C 0 km/h
3041 18-08-2010 08:33:02 16.1 C 9.87 g/m*3 16.1 C 0 km/h
3042 18-08-2010 08:45:02 16.3 C 9.85 g/m*3 16.3 C 0 km/h
3043 18-08-2010 08:57:02 16.5 C 9.97 g/m*3 16.5 C 0 km/h
3044 18-08-2010 09:09:02 16.7 C 10.23 g/m*3 16.7 C 0 km/h
3045 18-08-2010 09:21:02 17 C 10.13 g/m*3 17 C 0 km/h
3046 18-08-2010 09:33:02 17 C 10.13 g/m*3 17 C 0 km/h
3047 18-08-2010 09:45:02 17.5 C 10.14 g/m*3 17.5 C 0 km/h
3048 18-08-2010 09:57:02 17.3 C 10.16 g/m*3 17.3 C 0 km/h
3049 18-08-2010 10:09:02 17.4 C 10.08 g/m*3 17.4 C 0 km/h
3050 18-08-2010 10:21:02 17.8 C 10.32 g/m*3 17.8 C 0 km/h
Sensor: Nr:Datum:Temp:Abs-Feuchte:Windchill:Wind:
Aussen-T/F 3051 18-08-2010 10:33:01 18 C 10.14 g/m*3 18 C 0 km/h
3052 18-08-2010 10:45:02 18.5 C 10.28 g/m*3 18.5 C 0 km/h
3053 18-08-2010 10:57:02 19.1 C 10.16 g/m*3 19.1 C 0 km/h
3054 18-08-2010 11:09:01 18.8 C 9.99 g/m*3 18.8 C 0 km/h
3055 18-08-2010 11:21:02 18.9 C 10.21 g/m*3 18.9 C 0 km/h
3056 18-08-2010 11:33:02 18.5 C 10.13 g/m*3 18.5 C 0 km/h
3057 18-08-2010 11:45:02 18.5 C 10.28 g/m*3 18.5 C 0 km/h
3058 18-08-2010 11:57:02 18.8 C 10.31 g/m*3 18.8 C 0 km/h
3059 18-08-2010 12:09:02 19.1 C 10.16 g/m*3 19.1 C 0 km/h
3060 18-08-2010 12:21:02 18.9 C 10.69 g/m*3 18.9 C 0 km/h
3061 18-08-2010 12:33:02 18.8 C 10.63 g/m*3 18.8 C 0 km/h
3062 18-08-2010 12:45:02 18.3 C 10.94 g/m*3 18.3 C 0 km/h
3063 18-08-2010 12:57:02 19 C 10.92 g/m*3 19 C 0 km/h
3064 18-08-2010 13:09:02 20 C 10.54 g/m*3 20 C 0 km/h
3065 18-08-2010 13:21:02 19.8 C 10.76 g/m*3 19.8 C 0 km/h
3066 18-08-2010 13:33:02 20.4 C 10.26 g/m*3 20.4 C 0 km/h
3067 18-08-2010 13:45:02 21.5 C 9.99 g/m*3 21.5 C 0 km/h
3068 18-08-2010 13:57:02 22.3 C 9.48 g/m*3 22.3 C 0 km/h
3069 18-08-2010 14:09:02 22.2 C 9.03 g/m*3 22.2 C 0 km/h
3070 18-08-2010 14:21:02 22.7 C 9.29 g/m*3 22.7 C 0 km/h
3071 18-08-2010 14:33:02 22.7 C 9.29 g/m*3 22.7 C 0 km/h
3072 18-08-2010 14:45:02 23.2 C 8.73 g/m*3 23.2 C 0 km/h
3073 18-08-2010 14:57:02 23.4 C 8.83 g/m*3 23.4 C 0 km/h
3074 18-08-2010 15:09:02 22.5 C 8.99 g/m*3 22.5 C 0 km/h
3075 18-08-2010 15:21:02 21.3 C 9.51 g/m*3 21.3 C 0 km/h
Sensor: Nr:Datum:Temp:Abs-Feuchte:Windchill:Wind:
Aussen-T/F 3076 18-08-2010 15:33:02 22 C 9.12 g/m*3 22 C 0 km/h
3077 18-08-2010 15:45:02 22.4 C 8.74 g/m*3 22.4 C 0 km/h
3078 18-08-2010 15:57:02 23 C 8.63 g/m*3 23 C 0 km/h
3079 18-08-2010 16:09:02 22.7 C 9.09 g/m*3 22.7 C 0 km/h
3080 18-08-2010 16:21:02 22.8 C 9.35 g/m*3 22.8 C 0 km/h
3081 18-08-2010 16:33:02 23.6 C 9.15 g/m*3 23.6 C 0 km/h
3082 18-08-2010 16:45:01 24.5 C 8.73 g/m*3 24.5 C 0 km/h
3083 18-08-2010 16:57:01 24.8 C 8.65 g/m*3 24.8 C 0 km/h
3084 18-08-2010 17:09:01 24 C 8.7 g/m*3 24 C 0 km/h
3085 18-08-2010 17:21:01 23.2 C 8.94 g/m*3 23.2 C 0 km/h
3086 18-08-2010 17:33:02 23.5 C 8.88 g/m*3 23.5 C 0 km/h
3087 18-08-2010 17:45:02 24.5 C 8.95 g/m*3 24.5 C 0 km/h
3088 18-08-2010 17:57:02 24.2 C 8.8 g/m*3 24.2 C 0 km/h
3089 18-08-2010 18:09:02 22.8 C 9.35 g/m*3 22.8 C 0 km/h
3090 18-08-2010 18:21:01 22.9 C 9.4 g/m*3 22.9 C 0 km/h
3091 18-08-2010 18:33:02 22.2 C 9.03 g/m*3 22.2 C 0 km/h
3092 18-08-2010 18:45:02 22 C 9.12 g/m*3 22 C 0 km/h
3093 18-08-2010 18:57:02 21.9 C 8.88 g/m*3 21.9 C 0 km/h
3094 18-08-2010 19:09:02 21.3 C 8.95 g/m*3 21.3 C 0 km/h
3095 18-08-2010 19:21:01 21.1 C 9.03 g/m*3 21.1 C 0 km/h
3096 18-08-2010 19:33:02 20.8 C 9.23 g/m*3 20.8 C 0 km/h
3097 18-08-2010 19:45:01 20.4 C 9.38 g/m*3 20.4 C 0 km/h
3098 18-08-2010 19:57:01 19.8 C 10.08 g/m*3 19.8 C 0 km/h
3099 18-08-2010 20:09:02 19.2 C 10.22 g/m*3 19.2 C 0 km/h
3100 18-08-2010 20:21:02 19.5 C 10.07 g/m*3 19.5 C 0 km/h
Sensor: Nr:Datum:Temp:Abs-Feuchte:Windchill:Wind:
Aussen-T/F 3101 18-08-2010 20:33:02 19.5 C 9.9 g/m*3 19.5 C 0 km/h
3102 18-08-2010 20:45:02 19.5 C 9.9 g/m*3 19.5 C 0 km/h
3103 18-08-2010 20:57:02 19.5 C 9.9 g/m*3 19.5 C 0 km/h
3104 18-08-2010 21:09:01 19.3 C 9.95 g/m*3 19.3 C 0 km/h
3105 18-08-2010 21:21:02 19.1 C 10 g/m*3 19.1 C 0 km/h
3106 18-08-2010 21:33:01 18.7 C 10.25 g/m*3 18.7 C 0 km/h
3107 18-08-2010 21:45:02 18.7 C 10.41 g/m*3 18.7 C 0 km/h
3108 18-08-2010 21:57:02 18.3 C 10.32 g/m*3 18.3 C 0 km/h
3109 18-08-2010 22:09:01 18.1 C 10.51 g/m*3 18.1 C 0 km/h
3110 18-08-2010 22:22:04 17.7 C 10.56 g/m*3 17.7 C 0 km/h
3111 18-08-2010 22:34:04 17.5 C 10.59 g/m*3 17.5 C 0 km/h
3112 18-08-2010 22:46:04 17.3 C 10.61 g/m*3 17.3 C 0 km/h
3113 18-08-2010 22:58:04 17.4 C 10.67 g/m*3 17.4 C 0 km/h
3114 18-08-2010 23:10:04 17.6 C 10.8 g/m*3 17.6 C 0 km/h
3115 18-08-2010 23:22:04 17.7 C 10.56 g/m*3 17.7 C 0 km/h
3116 18-08-2010 23:34:04 17.6 C 10.2 g/m*3 17.6 C 0 km/h
3117 18-08-2010 23:46:04 17.5 C 9.69 g/m*3 17.5 C 0 km/h
3118 18-08-2010 23:58:04 17.5 C 9.69 g/m*3 17.5 C 0 km/h
3119 19-08-2010 00:10:04 17.4 C 9.19 g/m*3 17.4 C 0 km/h
3120 19-08-2010 00:22:04 17.4 C 9.34 g/m*3 17.4 C 0 km/h
3121 19-08-2010 00:34:04 17.4 C 9.04 g/m*3 17.4 C 0 km/h
3122 19-08-2010 00:46:04 17.3 C 9.13 g/m*3 17.3 C 0 km/h
3123 19-08-2010 00:58:04 17.3 C 8.99 g/m*3 17.3 C 0 km/h
3124 19-08-2010 01:10:04 17.1 C 9.03 g/m*3 17.1 C 0 km/h
3125 19-08-2010 01:22:05 17.1 C 9.17 g/m*3 17.1 C 0 km/h
Sensor: Nr:Datum:Temp:Abs-Feuchte:Windchill:Wind:
Aussen-T/F 3126 19-08-2010 01:34:05 16.8 C 9.29 g/m*3 16.8 C 0 km/h
3127 19-08-2010 01:46:05 16.7 C 9.24 g/m*3 16.7 C 0 km/h
3128 19-08-2010 01:58:05 16.6 C 9.18 g/m*3 16.6 C 0 km/h
3129 19-08-2010 02:10:05 16.5 C 8.85 g/m*3 16.5 C 0 km/h
3130 19-08-2010 02:22:05 16.4 C 8.93 g/m*3 16.4 C 0 km/h
3131 19-08-2010 02:34:05 16.3 C 8.6 g/m*3 16.3 C 0 km/h
3132 19-08-2010 02:46:05 16.2 C 8.69 g/m*3 16.2 C 0 km/h
3133 19-08-2010 02:58:05 16.2 C 8.96 g/m*3 16.2 C 0 km/h
3134 19-08-2010 03:10:05 16.1 C 9.18 g/m*3 16.1 C 0 km/h
3135 19-08-2010 03:22:05 16 C 9.26 g/m*3 16 C 0 km/h
3136 19-08-2010 03:34:05 15.9 C 9.34 g/m*3 15.9 C 0 km/h
3137 19-08-2010 03:46:05 15.8 C 9.15 g/m*3 15.8 C 0 km/h
3138 19-08-2010 03:58:05 15.7 C 9.1 g/m*3 15.7 C 0 km/h
3139 19-08-2010 04:10:05 15.7 C 9.23 g/m*3 15.7 C 0 km/h
3140 19-08-2010 04:22:05 15.6 C 9.18 g/m*3 15.6 C 0 km/h
3141 19-08-2010 04:34:05 15.5 C 9.39 g/m*3 15.5 C 0 km/h
3142 19-08-2010 04:46:05 15.4 C 9.46 g/m*3 15.4 C 0 km/h
3143 19-08-2010 04:58:05 15.5 C 9.65 g/m*3 15.5 C 0 km/h
3144 19-08-2010 05:10:05 15.3 C 9.53 g/m*3 15.3 C 0 km/h
3145 19-08-2010 05:22:05 15.2 C 9.48 g/m*3 15.2 C 0 km/h
3146 19-08-2010 05:34:05 15 C 9.23 g/m*3 15 C 0 km/h
3147 19-08-2010 05:46:05 15 C 9.36 g/m*3 15 C 0 km/h
3148 19-08-2010 05:58:06 15 C 8.98 g/m*3 15 C 0 km/h
3149 19-08-2010 06:10:06 14.8 C 8.99 g/m*3 14.8 C 0 km/h
3150 19-08-2010 06:22:06 14.4 C 8.9 g/m*3 14.4 C 0 km/h
Sensor: Nr:Datum:Temp:Abs-Feuchte:Windchill:Wind:
Aussen-T/F 3151 19-08-2010 06:34:06 14.2 C 8.91 g/m*3 14.2 C 0 km/h
3152 19-08-2010 06:46:06 13.7 C 8.76 g/m*3 13.7 C 0 km/h
3153 19-08-2010 06:58:06 13.8 C 8.94 g/m*3 13.8 C 0 km/h
3154 19-08-2010 07:10:06 13.7 C 8.76 g/m*3 13.7 C 0 km/h
3155 19-08-2010 07:22:06 13.9 C 8.15 g/m*3 13.9 C 0 km/h
3156 19-08-2010 07:34:06 13.9 C 8.15 g/m*3 13.9 C 0 km/h
3157 19-08-2010 07:46:01 14 C 8.08 g/m*3 14 C 0 km/h
3158 19-08-2010 07:58:01 14.1 C 7.89 g/m*3 14.1 C 0 km/h
3159 19-08-2010 08:10:02 14.4 C 7.91 g/m*3 14.4 C 0 km/h
3160 19-08-2010 08:22:01 14.6 C 8.01 g/m*3 14.6 C 0 km/h
3161 19-08-2010 08:34:01 14.8 C 8.11 g/m*3 14.8 C 0 km/h
3162 19-08-2010 08:46:01 14.9 C 8.16 g/m*3 14.9 C 0 km/h
3163 19-08-2010 08:58:01 15.2 C 8.05 g/m*3 15.2 C 0 km/h
3164 19-08-2010 09:10:02 15.3 C 8.23 g/m*3 15.3 C 0 km/h
3165 19-08-2010 09:22:01 15.4 C 8.15 g/m*3 15.4 C 0 km/h
3166 19-08-2010 09:34:01 15.7 C 8.03 g/m*3 15.7 C 0 km/h
3167 19-08-2010 09:46:01 16 C 8.04 g/m*3 16 C 0 km/h
3168 19-08-2010 09:58:01 16.2 C 7.86 g/m*3 16.2 C 0 km/h
3169 19-08-2010 10:10:02 16.6 C 7.91 g/m*3 16.6 C 0 km/h
3170 19-08-2010 10:22:02 17.1 C 7.71 g/m*3 17.1 C 0 km/h
3171 19-08-2010 10:34:02 17.7 C 7.69 g/m*3 17.7 C 0 km/h
3172 19-08-2010 10:46:02 18.8 C 7.73 g/m*3 18.8 C 0 km/h
3173 19-08-2010 10:58:02 19.3 C 7.3 g/m*3 19.3 C 0 km/h
3174 19-08-2010 11:10:02 19.2 C 7.26 g/m*3 19.2 C 0 km/h
3175 19-08-2010 11:22:02 19.5 C 7.38 g/m*3 19.5 C 0 km/h
Sensor: Nr:Datum:Temp:Abs-Feuchte:Windchill:Wind:
Aussen-T/F 3176 19-08-2010 11:34:03 20.2 C 6.99 g/m*3 20.2 C 0 km/h
3177 19-08-2010 11:46:02 20.4 C 7.43 g/m*3 20.4 C 0 km/h
3178 19-08-2010 11:58:02 20.7 C 7.2 g/m*3 20.7 C 0 km/h
3179 19-08-2010 12:10:01 20.3 C 7.03 g/m*3 20.3 C 0 km/h
3180 19-08-2010 12:22:02 20.8 C 6.88 g/m*3 20.8 C 0 km/h
3181 19-08-2010 12:34:02 22.1 C 6.64 g/m*3 22.1 C 0 km/h
3182 19-08-2010 12:46:02 22 C 6.4 g/m*3 22 C 0 km/h
3183 19-08-2010 12:58:02 22 C 6.21 g/m*3 22 C 0 km/h
3184 19-08-2010 13:10:03 22.1 C 6.25 g/m*3 22.1 C 0 km/h
3185 19-08-2010 13:22:02 22.1 C 6.05 g/m*3 22.1 C 0 km/h
3186 19-08-2010 13:34:02 22.6 C 6.23 g/m*3 22.6 C 0 km/h
3187 19-08-2010 13:46:01 22.7 C 6.06 g/m*3 22.7 C 0 km/h
3188 19-08-2010 13:58:01 23.7 C 6.2 g/m*3 23.7 C 0 km/h
3189 19-08-2010 14:10:02 23.3 C 6.27 g/m*3 23.3 C 0 km/h
3190 19-08-2010 14:22:01 22.8 C 6.1 g/m*3 22.8 C 0 km/h
3191 19-08-2010 14:34:01 23.7 C 5.78 g/m*3 23.7 C 0 km/h
3192 19-08-2010 14:46:01 23 C 5.55 g/m*3 23 C 0 km/h
3193 19-08-2010 14:58:01 22.4 C 6.36 g/m*3 22.4 C 0 km/h
3194 19-08-2010 15:10:02 22.4 C 6.95 g/m*3 22.4 C 0 km/h
3195 19-08-2010 15:22:01 23.2 C 6.44 g/m*3 23.2 C 0 km/h
3196 19-08-2010 15:34:01 24.3 C 5.97 g/m*3 24.3 C 0 km/h
3197 19-08-2010 15:46:01 24.6 C 5.63 g/m*3 24.6 C 0 km/h
3198 19-08-2010 15:58:01 24.2 C 5.94 g/m*3 24.2 C 0 km/h
3199 19-08-2010 16:10:01 23.4 C 7.36 g/m*3 23.4 C 0 km/h
3200 19-08-2010 16:22:02 23.5 C 7.4 g/m*3 23.5 C 0 km/h
Sensor: Nr:Datum:Temp:Abs-Feuchte:Windchill:Wind:
Aussen-T/F 3201 19-08-2010 16:34:01 23.5 C 7.82 g/m*3 23.5 C 0 km/h
3202 19-08-2010 16:46:03 23.1 C 7.65 g/m*3 23.1 C 0 km/h
3203 19-08-2010 16:58:03 22.9 C 7.97 g/m*3 22.9 C 0 km/h
3204 19-08-2010 17:10:02 22.4 C 8.14 g/m*3 22.4 C 0 km/h
3205 19-08-2010 17:22:02 22.9 C 8.17 g/m*3 22.9 C 0 km/h
3206 19-08-2010 17:34:02 24.1 C 8.1 g/m*3 24.1 C 0 km/h
3207 19-08-2010 17:46:02 24.5 C 7.39 g/m*3 24.5 C 0 km/h
3208 19-08-2010 17:58:02 25.6 C 5.48 g/m*3 25.6 C 0 km/h
3209 19-08-2010 18:10:01 25.1 C 5.32 g/m*3 25.1 C 0 km/h
3210 19-08-2010 18:22:02 25 C 5.75 g/m*3 25 C 0 km/h
3211 19-08-2010 18:34:02 25.3 C 5.85 g/m*3 25.3 C 0 km/h
3212 19-08-2010 18:46:02 25.7 C 5.99 g/m*3 25.7 C 0 km/h
3213 19-08-2010 18:58:02 26 C 5.84 g/m*3 26 C 0 km/h
3214 19-08-2010 19:10:03 25.8 C 6.98 g/m*3 25.8 C 0 km/h
3215 19-08-2010 19:22:02 25.8 C 6.26 g/m*3 25.8 C 0 km/h
3216 19-08-2010 19:34:02 25.6 C 6.67 g/m*3 25.6 C 0 km/h
3217 19-08-2010 19:46:01 24.9 C 6.87 g/m*3 24.9 C 0 km/h
3218 19-08-2010 19:58:01 24.1 C 6.35 g/m*3 24.1 C 0 km/h
3219 19-08-2010 20:10:02 22.8 C 6.71 g/m*3 22.8 C 0 km/h
3220 19-08-2010 20:22:01 21.3 C 7.08 g/m*3 21.3 C 0 km/h
3221 19-08-2010 20:34:02 20.1 C 7.13 g/m*3 20.1 C 0 km/h
3222 19-08-2010 20:46:01 19.4 C 7.17 g/m*3 19.4 C 0 km/h
3223 19-08-2010 20:58:01 18.9 C 7.45 g/m*3 18.9 C 0 km/h
3224 19-08-2010 21:10:02 18.5 C 7.44 g/m*3 18.5 C 0 km/h
3225 19-08-2010 21:22:01 18.3 C 7.82 g/m*3 18.3 C 0 km/h
Sensor: Nr:Datum:Temp:Abs-Feuchte:Windchill:Wind:
Aussen-T/F 3226 19-08-2010 21:34:02 18.2 C 7.77 g/m*3 18.2 C